﻿<?xml version="1.0" encoding="utf-8"?><gpx creator="Garmin Desktop App" version="1.1" xsi:schemaLocation="http://www.topografix.com/GPX/1/1 http://www.topografix.com/GPX/1/1/gpx.xsd http://www.garmin.com/xmlschemas/WaypointExtension/v1 http://www8.garmin.com/xmlschemas/WaypointExtensionv1.xsd http://www.garmin.com/xmlschemas/TrackPointExtension/v1 http://www.garmin.com/xmlschemas/TrackPointExtensionv1.xsd http://www.garmin.com/xmlschemas/GpxExtensions/v3 http://www8.garmin.com/xmlschemas/GpxExtensionsv3.xsd http://www.garmin.com/xmlschemas/ActivityExtension/v1 http://www8.garmin.com/xmlschemas/ActivityExtensionv1.xsd http://www.garmin.com/xmlschemas/AdventuresExtensions/v1 http://www8.garmin.com/xmlschemas/AdventuresExtensionv1.xsd http://www.garmin.com/xmlschemas/PressureExtension/v1 http://www.garmin.com/xmlschemas/PressureExtensionv1.xsd http://www.garmin.com/xmlschemas/TripExtensions/v1 http://www.garmin.com/xmlschemas/TripExtensionsv1.xsd http://www.garmin.com/xmlschemas/TripMetaDataExtensions/v1 http://www.garmin.com/xmlschemas/TripMetaDataExtensionsv1.xsd http://www.garmin.com/xmlschemas/ViaPointTransportationModeExtensions/v1 http://www.garmin.com/xmlschemas/ViaPointTransportationModeExtensionsv1.xsd http://www.garmin.com/xmlschemas/CreationTimeExtension/v1 http://www.garmin.com/xmlschemas/CreationTimeExtensionsv1.xsd http://www.garmin.com/xmlschemas/AccelerationExtension/v1 http://www.garmin.com/xmlschemas/AccelerationExtensionv1.xsd http://www.garmin.com/xmlschemas/PowerExtension/v1 http://www.garmin.com/xmlschemas/PowerExtensionv1.xsd http://www.garmin.com/xmlschemas/VideoExtension/v1 http://www.garmin.com/xmlschemas/VideoExtensionv1.xsd" xmlns="http://www.topografix.com/GPX/1/1" xmlns:xsi="http://www.w3.org/2001/XMLSchema-instance" xmlns:wptx1="http://www.garmin.com/xmlschemas/WaypointExtension/v1" xmlns:gpxtrx="http://www.garmin.com/xmlschemas/GpxExtensions/v3" xmlns:gpxtpx="http://www.garmin.com/xmlschemas/TrackPointExtension/v1" xmlns:gpxx="http://www.garmin.com/xmlschemas/GpxExtensions/v3" xmlns:trp="http://www.garmin.com/xmlschemas/TripExtensions/v1" xmlns:adv="http://www.garmin.com/xmlschemas/AdventuresExtensions/v1" xmlns:prs="http://www.garmin.com/xmlschemas/PressureExtension/v1" xmlns:tmd="http://www.garmin.com/xmlschemas/TripMetaDataExtensions/v1" xmlns:vptm="http://www.garmin.com/xmlschemas/ViaPointTransportationModeExtensions/v1" xmlns:ctx="http://www.garmin.com/xmlschemas/CreationTimeExtension/v1" xmlns:gpxacc="http://www.garmin.com/xmlschemas/AccelerationExtension/v1" xmlns:gpxpx="http://www.garmin.com/xmlschemas/PowerExtension/v1" xmlns:vidx1="http://www.garmin.com/xmlschemas/VideoExtension/v1">

  <metadata>
    <link href="http://www.garmin.com">
      <text>Garmin International</text>
    </link>
    <time>2014-05-31T16:19:11Z</time>
    <bounds maxlat="46.958476770669222" maxlon="15.890129394829273" minlat="46.879231659695506" minlon="15.831994861364365" />
  </metadata>

  <trk>
    <name>Gleichenberger Bahn-Wanderweg</name>
    <extensions>
      <gpxx:TrackExtension>
        <gpxx:DisplayColor>Cyan</gpxx:DisplayColor>
      </gpxx:TrackExtension>
    </extensions>
    <trkseg>
      <trkpt lat="46.958476770669222" lon="15.890129394829273">
        <ele>269.3065185546875</ele>
        <time>2011-10-16T09:21:55Z</time>
      </trkpt>
      <trkpt lat="46.958417091518641" lon="15.890102824196219">
        <ele>271.2291259765625</ele>
        <time>2011-10-16T09:22:15Z</time>
      </trkpt>
      <trkpt lat="46.958393873646855" lon="15.890103243291378">
        <ele>272.1904296875</ele>
        <time>2011-10-16T09:22:33Z</time>
      </trkpt>
      <trkpt lat="46.958377780392766" lon="15.890099052339792">
        <ele>272.1904296875</ele>
        <time>2011-10-16T09:22:46Z</time>
      </trkpt>
      <trkpt lat="46.958140237256885" lon="15.889997631311417">
        <ele>271.709716796875</ele>
        <time>2011-10-16T09:23:11Z</time>
      </trkpt>
      <trkpt lat="46.958128167316318" lon="15.889981621876359">
        <ele>271.709716796875</ele>
        <time>2011-10-16T09:23:17Z</time>
      </trkpt>
      <trkpt lat="46.958109978586435" lon="15.889503937214613">
        <ele>273.15185546875</ele>
        <time>2011-10-16T09:23:44Z</time>
      </trkpt>
      <trkpt lat="46.95810578763485" lon="15.889186346903443">
        <ele>273.6324462890625</ele>
        <time>2011-10-16T09:24:04Z</time>
      </trkpt>
      <trkpt lat="46.958104446530342" lon="15.888919550925493">
        <ele>273.6324462890625</ele>
        <time>2011-10-16T09:24:22Z</time>
      </trkpt>
      <trkpt lat="46.958110732957721" lon="15.888946959748864">
        <ele>274.113037109375</ele>
        <time>2011-10-16T09:24:26Z</time>
      </trkpt>
      <trkpt lat="46.958166640251875" lon="15.888940589502454">
        <ele>273.6324462890625</ele>
        <time>2011-10-16T09:24:31Z</time>
      </trkpt>
      <trkpt lat="46.958191283047199" lon="15.888885855674744">
        <ele>274.113037109375</ele>
        <time>2011-10-16T09:24:35Z</time>
      </trkpt>
      <trkpt lat="46.958158174529672" lon="15.888548567891121">
        <ele>274.59375</ele>
        <time>2011-10-16T09:29:21Z</time>
      </trkpt>
      <trkpt lat="46.958199245855212" lon="15.888679325580597">
        <ele>275.074462890625</ele>
        <time>2011-10-16T09:30:10Z</time>
      </trkpt>
      <trkpt lat="46.958146272227168" lon="15.888658622279763">
        <ele>275.5550537109375</ele>
        <time>2011-10-16T09:30:14Z</time>
      </trkpt>
      <trkpt lat="46.958053149282932" lon="15.888669434934855">
        <ele>275.074462890625</ele>
        <time>2011-10-16T09:30:32Z</time>
      </trkpt>
      <trkpt lat="46.95791183039546" lon="15.888698184862733">
        <ele>275.074462890625</ele>
        <time>2011-10-16T09:30:50Z</time>
      </trkpt>
      <trkpt lat="46.957714771851897" lon="15.888689216226339">
        <ele>275.5550537109375</ele>
        <time>2011-10-16T09:31:09Z</time>
      </trkpt>
      <trkpt lat="46.957504218444228" lon="15.888702040538192">
        <ele>275.074462890625</ele>
        <time>2011-10-16T09:31:29Z</time>
      </trkpt>
      <trkpt lat="46.957467589527369" lon="15.888700196519494">
        <ele>275.5550537109375</ele>
        <time>2011-10-16T09:31:34Z</time>
      </trkpt>
      <trkpt lat="46.957422159612179" lon="15.888685695827007">
        <ele>275.074462890625</ele>
        <time>2011-10-16T09:31:38Z</time>
      </trkpt>
      <trkpt lat="46.957331048324704" lon="15.888748141005635">
        <ele>275.074462890625</ele>
        <time>2011-10-16T09:31:46Z</time>
      </trkpt>
      <trkpt lat="46.957075316458941" lon="15.888621658086777">
        <ele>275.074462890625</ele>
        <time>2011-10-16T09:32:03Z</time>
      </trkpt>
      <trkpt lat="46.956861997023225" lon="15.888740932568908">
        <ele>275.5550537109375</ele>
        <time>2011-10-16T09:32:21Z</time>
      </trkpt>
      <trkpt lat="46.956577263772488" lon="15.888789379969239">
        <ele>275.5550537109375</ele>
        <time>2011-10-16T09:32:42Z</time>
      </trkpt>
      <trkpt lat="46.956307031214237" lon="15.888788290321827">
        <ele>275.074462890625</ele>
        <time>2011-10-16T09:33:01Z</time>
      </trkpt>
      <trkpt lat="46.956206951290369" lon="15.888671027496457">
        <ele>275.074462890625</ele>
        <time>2011-10-16T09:33:13Z</time>
      </trkpt>
      <trkpt lat="46.956059178337455" lon="15.888710087165236">
        <ele>275.5550537109375</ele>
        <time>2011-10-16T09:33:27Z</time>
      </trkpt>
      <trkpt lat="46.955799423158169" lon="15.888566924259067">
        <ele>275.5550537109375</ele>
        <time>2011-10-16T09:33:41Z</time>
      </trkpt>
      <trkpt lat="46.955678891390562" lon="15.888522248715162">
        <ele>276.03564453125</ele>
        <time>2011-10-16T09:33:49Z</time>
      </trkpt>
      <trkpt lat="46.955502284690738" lon="15.888393754139543">
        <ele>276.03564453125</ele>
        <time>2011-10-16T09:34:00Z</time>
      </trkpt>
      <trkpt lat="46.955327438190579" lon="15.888286717236042">
        <ele>276.9970703125</ele>
        <time>2011-10-16T09:34:10Z</time>
      </trkpt>
      <trkpt lat="46.955317547544837" lon="15.888457372784615">
        <ele>276.516357421875</ele>
        <time>2011-10-16T09:34:15Z</time>
      </trkpt>
      <trkpt lat="46.955101964995265" lon="15.888468185439706">
        <ele>277.958251953125</ele>
        <time>2011-10-16T09:34:30Z</time>
      </trkpt>
      <trkpt lat="46.95494974963367" lon="15.888471035286784">
        <ele>277.4776611328125</ele>
        <time>2011-10-16T09:34:44Z</time>
      </trkpt>
      <trkpt lat="46.954871965572238" lon="15.888562398031354">
        <ele>277.4776611328125</ele>
        <time>2011-10-16T09:34:49Z</time>
      </trkpt>
      <trkpt lat="46.954772556200624" lon="15.888762893155217">
        <ele>277.958251953125</ele>
        <time>2011-10-16T09:35:06Z</time>
      </trkpt>
      <trkpt lat="46.954604666680098" lon="15.888675218448043">
        <ele>279.4002685546875</ele>
        <time>2011-10-16T09:35:20Z</time>
      </trkpt>
      <trkpt lat="46.954413056373596" lon="15.888594165444374">
        <ele>279.4002685546875</ele>
        <time>2011-10-16T09:35:33Z</time>
      </trkpt>
      <trkpt lat="46.954393023625016" lon="15.888619646430016">
        <ele>278.919677734375</ele>
        <time>2011-10-16T09:35:38Z</time>
      </trkpt>
      <trkpt lat="46.954369386658072" lon="15.888678319752216">
        <ele>278.919677734375</ele>
        <time>2011-10-16T09:35:42Z</time>
      </trkpt>
      <trkpt lat="46.95422756485641" lon="15.888864565640688">
        <ele>279.4002685546875</ele>
        <time>2011-10-16T09:36:01Z</time>
      </trkpt>
      <trkpt lat="46.953936796635389" lon="15.888777142390609">
        <ele>279.880859375</ele>
        <time>2011-10-16T09:36:17Z</time>
      </trkpt>
      <trkpt lat="46.953706964850426" lon="15.888633728027344">
        <ele>279.4002685546875</ele>
        <time>2011-10-16T09:36:30Z</time>
      </trkpt>
      <trkpt lat="46.953576793894172" lon="15.888544293120503">
        <ele>278.919677734375</ele>
        <time>2011-10-16T09:36:41Z</time>
      </trkpt>
      <trkpt lat="46.953449472784996" lon="15.888485787436366">
        <ele>278.43896484375</ele>
        <time>2011-10-16T09:36:58Z</time>
      </trkpt>
      <trkpt lat="46.953444192185998" lon="15.888496516272426">
        <ele>279.4002685546875</ele>
        <time>2011-10-16T09:37:11Z</time>
      </trkpt>
      <trkpt lat="46.953442096710205" lon="15.888453936204314">
        <ele>277.958251953125</ele>
        <time>2011-10-16T09:37:14Z</time>
      </trkpt>
      <trkpt lat="46.953440420329571" lon="15.888421246781945">
        <ele>279.880859375</ele>
        <time>2011-10-16T09:37:16Z</time>
      </trkpt>
      <trkpt lat="46.953495573252439" lon="15.888243466615677">
        <ele>280.3616943359375</ele>
        <time>2011-10-16T09:37:34Z</time>
      </trkpt>
      <trkpt lat="46.953526418656111" lon="15.888279257342219">
        <ele>280.3616943359375</ele>
        <time>2011-10-16T09:37:38Z</time>
      </trkpt>
      <trkpt lat="46.953592970967293" lon="15.888488134369254">
        <ele>280.8424072265625</ele>
        <time>2011-10-16T09:37:53Z</time>
      </trkpt>
      <trkpt lat="46.953613422811031" lon="15.888466341421008">
        <ele>281.322998046875</ele>
        <time>2011-10-16T09:37:58Z</time>
      </trkpt>
      <trkpt lat="46.953730434179306" lon="15.888381768018007">
        <ele>281.322998046875</ele>
        <time>2011-10-16T09:38:11Z</time>
      </trkpt>
      <trkpt lat="46.953728254884481" lon="15.888480758294463">
        <ele>280.3616943359375</ele>
        <time>2011-10-16T09:38:24Z</time>
      </trkpt>
      <trkpt lat="46.953709479421377" lon="15.888615287840366">
        <ele>280.8424072265625</ele>
        <time>2011-10-16T09:38:35Z</time>
      </trkpt>
      <trkpt lat="46.953698582947254" lon="15.888608247041702">
        <ele>279.4002685546875</ele>
        <time>2011-10-16T09:38:40Z</time>
      </trkpt>
      <trkpt lat="46.953476630151272" lon="15.888465670868754">
        <ele>279.880859375</ele>
        <time>2011-10-16T09:39:16Z</time>
      </trkpt>
      <trkpt lat="46.953369257971644" lon="15.888430550694466">
        <ele>281.322998046875</ele>
        <time>2011-10-16T09:39:52Z</time>
      </trkpt>
      <trkpt lat="46.953366156667471" lon="15.888433651998639">
        <ele>281.322998046875</ele>
        <time>2011-10-16T09:39:53Z</time>
      </trkpt>
      <trkpt lat="46.953165745362639" lon="15.888515040278435">
        <ele>282.2843017578125</ele>
        <time>2011-10-16T09:40:09Z</time>
      </trkpt>
      <trkpt lat="46.953003387898207" lon="15.888531384989619">
        <ele>281.8035888671875</ele>
        <time>2011-10-16T09:40:23Z</time>
      </trkpt>
      <trkpt lat="46.95281052030623" lon="15.888641439378262">
        <ele>282.7650146484375</ele>
        <time>2011-10-16T09:40:41Z</time>
      </trkpt>
      <trkpt lat="46.952655119821429" lon="15.888749482110143">
        <ele>284.2069091796875</ele>
        <time>2011-10-16T09:40:58Z</time>
      </trkpt>
      <trkpt lat="46.952632572501898" lon="15.888778567314148">
        <ele>284.2069091796875</ele>
        <time>2011-10-16T09:41:05Z</time>
      </trkpt>
      <trkpt lat="46.952647492289543" lon="15.888711679726839">
        <ele>284.6876220703125</ele>
        <time>2011-10-16T09:41:21Z</time>
      </trkpt>
      <trkpt lat="46.95261413231492" lon="15.888620568439364">
        <ele>285.168212890625</ele>
        <time>2011-10-16T09:41:34Z</time>
      </trkpt>
      <trkpt lat="46.952657885849476" lon="15.8884805906564">
        <ele>284.6876220703125</ele>
        <time>2011-10-16T09:41:48Z</time>
      </trkpt>
      <trkpt lat="46.952651767060161" lon="15.888410434126854">
        <ele>284.6876220703125</ele>
        <time>2011-10-16T09:41:52Z</time>
      </trkpt>
      <trkpt lat="46.952679846435785" lon="15.888050766661763">
        <ele>285.6488037109375</ele>
        <time>2011-10-16T09:42:11Z</time>
      </trkpt>
      <trkpt lat="46.952694347128272" lon="15.887960493564606">
        <ele>285.168212890625</ele>
        <time>2011-10-16T09:42:25Z</time>
      </trkpt>
      <trkpt lat="46.952709686011076" lon="15.887948339805007">
        <ele>285.168212890625</ele>
        <time>2011-10-16T09:42:27Z</time>
      </trkpt>
      <trkpt lat="46.952579095959663" lon="15.887753460556269">
        <ele>285.6488037109375</ele>
        <time>2011-10-16T09:42:43Z</time>
      </trkpt>
      <trkpt lat="46.952601475641131" lon="15.887525053694844">
        <ele>285.6488037109375</ele>
        <time>2011-10-16T09:43:00Z</time>
      </trkpt>
      <trkpt lat="46.952603990212083" lon="15.887512061744928">
        <ele>285.6488037109375</ele>
        <time>2011-10-16T09:43:01Z</time>
      </trkpt>
      <trkpt lat="46.952633745968342" lon="15.88746034540236">
        <ele>286.1295166015625</ele>
        <time>2011-10-16T09:43:05Z</time>
      </trkpt>
      <trkpt lat="46.952642127871513" lon="15.887385830283165">
        <ele>286.1295166015625</ele>
        <time>2011-10-16T09:43:10Z</time>
      </trkpt>
      <trkpt lat="46.952777244150639" lon="15.887154992669821">
        <ele>286.6102294921875</ele>
        <time>2011-10-16T09:43:30Z</time>
      </trkpt>
      <trkpt lat="46.952888639643788" lon="15.886890962719917">
        <ele>286.6102294921875</ele>
        <time>2011-10-16T09:43:47Z</time>
      </trkpt>
      <trkpt lat="46.952930968254805" lon="15.886803539469838">
        <ele>287.0908203125</ele>
        <time>2011-10-16T09:44:02Z</time>
      </trkpt>
      <trkpt lat="46.953045297414064" lon="15.886577730998397">
        <ele>286.1295166015625</ele>
        <time>2011-10-16T09:44:14Z</time>
      </trkpt>
      <trkpt lat="46.953198267146945" lon="15.886314790695906">
        <ele>285.168212890625</ele>
        <time>2011-10-16T09:44:35Z</time>
      </trkpt>
      <trkpt lat="46.953299939632416" lon="15.886101555079222">
        <ele>284.6876220703125</ele>
        <time>2011-10-16T09:44:56Z</time>
      </trkpt>
      <trkpt lat="46.953323995694518" lon="15.886061154305935">
        <ele>284.2069091796875</ele>
        <time>2011-10-16T09:45:00Z</time>
      </trkpt>
      <trkpt lat="46.953432038426399" lon="15.885778265073895">
        <ele>284.6876220703125</ele>
        <time>2011-10-16T09:45:23Z</time>
      </trkpt>
      <trkpt lat="46.953473025932908" lon="15.885606687515974">
        <ele>285.168212890625</ele>
        <time>2011-10-16T09:45:38Z</time>
      </trkpt>
      <trkpt lat="46.953466152772307" lon="15.88541004806757">
        <ele>286.1295166015625</ele>
        <time>2011-10-16T09:45:54Z</time>
      </trkpt>
      <trkpt lat="46.953530022874475" lon="15.885096648707986">
        <ele>286.6102294921875</ele>
        <time>2011-10-16T09:46:16Z</time>
      </trkpt>
      <trkpt lat="46.95362607948482" lon="15.884808143600821">
        <ele>286.6102294921875</ele>
        <time>2011-10-16T09:46:35Z</time>
      </trkpt>
      <trkpt lat="46.953696487471461" lon="15.884421234950423">
        <ele>286.6102294921875</ele>
        <time>2011-10-16T09:47:00Z</time>
      </trkpt>
      <trkpt lat="46.953723477199674" lon="15.884110350161791">
        <ele>285.168212890625</ele>
        <time>2011-10-16T09:47:19Z</time>
      </trkpt>
      <trkpt lat="46.95378877222538" lon="15.883883284404874">
        <ele>285.6488037109375</ele>
        <time>2011-10-16T09:47:32Z</time>
      </trkpt>
      <trkpt lat="46.95378826931119" lon="15.883650435134768">
        <ele>285.6488037109375</ele>
        <time>2011-10-16T09:47:46Z</time>
      </trkpt>
      <trkpt lat="46.953719453886151" lon="15.883543062955141">
        <ele>285.6488037109375</ele>
        <time>2011-10-16T09:48:01Z</time>
      </trkpt>
      <trkpt lat="46.953673856332898" lon="15.883374167606235">
        <ele>286.1295166015625</ele>
        <time>2011-10-16T09:48:20Z</time>
      </trkpt>
      <trkpt lat="46.953632952645421" lon="15.883259922266006">
        <ele>286.1295166015625</ele>
        <time>2011-10-16T09:48:27Z</time>
      </trkpt>
      <trkpt lat="46.953585175797343" lon="15.882761618122458">
        <ele>286.6102294921875</ele>
        <time>2011-10-16T09:48:51Z</time>
      </trkpt>
      <trkpt lat="46.953588696196675" lon="15.882418882101774">
        <ele>286.6102294921875</ele>
        <time>2011-10-16T09:49:13Z</time>
      </trkpt>
      <trkpt lat="46.953604621812701" lon="15.881883194670081">
        <ele>287.0908203125</ele>
        <time>2011-10-16T09:49:40Z</time>
      </trkpt>
      <trkpt lat="46.953599844127893" lon="15.881671383976936">
        <ele>287.0908203125</ele>
        <time>2011-10-16T09:50:00Z</time>
      </trkpt>
      <trkpt lat="46.953538069501519" lon="15.881696194410324">
        <ele>287.0908203125</ele>
        <time>2011-10-16T09:50:23Z</time>
      </trkpt>
      <trkpt lat="46.953564640134573" lon="15.881706085056067">
        <ele>286.6102294921875</ele>
        <time>2011-10-16T09:50:43Z</time>
      </trkpt>
      <trkpt lat="46.953561119735241" lon="15.881701558828354">
        <ele>287.0908203125</ele>
        <time>2011-10-16T09:50:55Z</time>
      </trkpt>
      <trkpt lat="46.953344531357288" lon="15.8815679512918">
        <ele>287.0908203125</ele>
        <time>2011-10-16T09:51:14Z</time>
      </trkpt>
      <trkpt lat="46.953113358467817" lon="15.881386483088136">
        <ele>287.0908203125</ele>
        <time>2011-10-16T09:51:35Z</time>
      </trkpt>
      <trkpt lat="46.952878078445792" lon="15.881153717637062">
        <ele>288.05224609375</ele>
        <time>2011-10-16T09:51:58Z</time>
      </trkpt>
      <trkpt lat="46.952643385156989" lon="15.880985492840409">
        <ele>288.532958984375</ele>
        <time>2011-10-16T09:52:19Z</time>
      </trkpt>
      <trkpt lat="46.952363764867187" lon="15.880754739046097">
        <ele>290.45556640625</ele>
        <time>2011-10-16T09:52:46Z</time>
      </trkpt>
      <trkpt lat="46.952282125130296" lon="15.880845095962286">
        <ele>290.45556640625</ele>
        <time>2011-10-16T09:53:01Z</time>
      </trkpt>
      <trkpt lat="46.952150780707598" lon="15.881139719858766">
        <ele>290.9361572265625</ele>
        <time>2011-10-16T09:53:21Z</time>
      </trkpt>
      <trkpt lat="46.952130245044827" lon="15.881182299926877">
        <ele>290.45556640625</ele>
        <time>2011-10-16T09:53:24Z</time>
      </trkpt>
      <trkpt lat="46.952034188434482" lon="15.881215576082468">
        <ele>291.416748046875</ele>
        <time>2011-10-16T09:53:32Z</time>
      </trkpt>
      <trkpt lat="46.95198523811996" lon="15.881278021261096">
        <ele>291.416748046875</ele>
        <time>2011-10-16T09:53:39Z</time>
      </trkpt>
      <trkpt lat="46.951901922002435" lon="15.881518749520183">
        <ele>291.8974609375</ele>
        <time>2011-10-16T09:54:00Z</time>
      </trkpt>
      <trkpt lat="46.951894126832485" lon="15.881516234949231">
        <ele>291.8974609375</ele>
        <time>2011-10-16T09:54:15Z</time>
      </trkpt>
      <trkpt lat="46.951884320005774" lon="15.881582871079445">
        <ele>292.378173828125</ele>
        <time>2011-10-16T09:54:35Z</time>
      </trkpt>
      <trkpt lat="46.951880296692252" lon="15.881601646542549">
        <ele>291.8974609375</ele>
        <time>2011-10-16T09:54:51Z</time>
      </trkpt>
      <trkpt lat="46.951850540935993" lon="15.881665851920843">
        <ele>292.378173828125</ele>
        <time>2011-10-16T09:55:03Z</time>
      </trkpt>
      <trkpt lat="46.951740989461541" lon="15.881936671212316">
        <ele>293.33935546875</ele>
        <time>2011-10-16T09:55:23Z</time>
      </trkpt>
      <trkpt lat="46.951707545667887" lon="15.882013281807303">
        <ele>293.33935546875</ele>
        <time>2011-10-16T09:55:28Z</time>
      </trkpt>
      <trkpt lat="46.951628755778074" lon="15.882283682003617">
        <ele>292.8587646484375</ele>
        <time>2011-10-16T09:55:43Z</time>
      </trkpt>
      <trkpt lat="46.951518869027495" lon="15.882563386112452">
        <ele>294.30078125</ele>
        <time>2011-10-16T09:56:00Z</time>
      </trkpt>
      <trkpt lat="46.951495734974742" lon="15.88257746770978">
        <ele>293.33935546875</ele>
        <time>2011-10-16T09:56:15Z</time>
      </trkpt>
      <trkpt lat="46.951494980603456" lon="15.882574785500765">
        <ele>304.875244140625</ele>
        <time>2011-10-16T09:56:17Z</time>
      </trkpt>
      <trkpt lat="46.951494561508298" lon="15.882573360577226">
        <ele>302.471923828125</ele>
        <time>2011-10-16T09:56:18Z</time>
      </trkpt>
      <trkpt lat="46.951494058594108" lon="15.882572187110782">
        <ele>295.261962890625</ele>
        <time>2011-10-16T09:56:19Z</time>
      </trkpt>
      <trkpt lat="46.951422477141023" lon="15.882779555395246">
        <ele>294.7813720703125</ele>
        <time>2011-10-16T09:56:46Z</time>
      </trkpt>
      <trkpt lat="46.951312590390444" lon="15.883118184283376">
        <ele>293.820068359375</ele>
        <time>2011-10-16T09:57:07Z</time>
      </trkpt>
      <trkpt lat="46.95130655542016" lon="15.883129080757499">
        <ele>295.261962890625</ele>
        <time>2011-10-16T09:57:08Z</time>
      </trkpt>
      <trkpt lat="46.951234051957726" lon="15.883411718532443">
        <ele>296.2235107421875</ele>
        <time>2011-10-16T09:57:24Z</time>
      </trkpt>
      <trkpt lat="46.951142689213157" lon="15.883721932768822">
        <ele>297.1846923828125</ele>
        <time>2011-10-16T09:57:43Z</time>
      </trkpt>
      <trkpt lat="46.951134474948049" lon="15.883738780394197">
        <ele>295.74267578125</ele>
        <time>2011-10-16T09:57:44Z</time>
      </trkpt>
      <trkpt lat="46.950921574607491" lon="15.88365931995213">
        <ele>297.6654052734375</ele>
        <time>2011-10-16T09:58:02Z</time>
      </trkpt>
      <trkpt lat="46.950757876038551" lon="15.883572986349463">
        <ele>298.1461181640625</ele>
        <time>2011-10-16T09:58:18Z</time>
      </trkpt>
      <trkpt lat="46.95073826238513" lon="15.883562760427594">
        <ele>298.626708984375</ele>
        <time>2011-10-16T09:58:20Z</time>
      </trkpt>
      <trkpt lat="46.950560063123703" lon="15.883433762937784">
        <ele>299.5880126953125</ele>
        <time>2011-10-16T09:58:36Z</time>
      </trkpt>
      <trkpt lat="46.950535168871284" lon="15.883396128192544">
        <ele>298.1461181640625</ele>
        <time>2011-10-16T09:58:39Z</time>
      </trkpt>
      <trkpt lat="46.95036644116044" lon="15.883321277797222">
        <ele>300.54931640625</ele>
        <time>2011-10-16T09:58:57Z</time>
      </trkpt>
      <trkpt lat="46.950351940467954" lon="15.883312141522765">
        <ele>299.5880126953125</ele>
        <time>2011-10-16T09:58:59Z</time>
      </trkpt>
      <trkpt lat="46.950286142528057" lon="15.883218850940466">
        <ele>299.1072998046875</ele>
        <time>2011-10-16T09:59:05Z</time>
      </trkpt>
      <trkpt lat="46.950214141979814" lon="15.883082477375865">
        <ele>301.5106201171875</ele>
        <time>2011-10-16T09:59:16Z</time>
      </trkpt>
      <trkpt lat="46.950207520276308" lon="15.883048782125115">
        <ele>300.54931640625</ele>
        <time>2011-10-16T09:59:18Z</time>
      </trkpt>
      <trkpt lat="46.950200144201517" lon="15.883011985570192">
        <ele>301.5106201171875</ele>
        <time>2011-10-16T09:59:20Z</time>
      </trkpt>
      <trkpt lat="46.95019444450736" lon="15.882852729409933">
        <ele>302.471923828125</ele>
        <time>2011-10-16T09:59:27Z</time>
      </trkpt>
      <trkpt lat="46.950200144201517" lon="15.882776873186231">
        <ele>300.54931640625</ele>
        <time>2011-10-16T09:59:31Z</time>
      </trkpt>
      <trkpt lat="46.950211124494672" lon="15.882725240662694">
        <ele>301.9913330078125</ele>
        <time>2011-10-16T09:59:34Z</time>
      </trkpt>
      <trkpt lat="46.950248423963785" lon="15.882601691409945">
        <ele>301.5106201171875</ele>
        <time>2011-10-16T09:59:41Z</time>
      </trkpt>
      <trkpt lat="46.950281951576471" lon="15.882529690861702">
        <ele>301.5106201171875</ele>
        <time>2011-10-16T09:59:46Z</time>
      </trkpt>
      <trkpt lat="46.95027943700552" lon="15.882474789395928">
        <ele>302.471923828125</ele>
        <time>2011-10-16T09:59:50Z</time>
      </trkpt>
      <trkpt lat="46.950239958241582" lon="15.882365321740508">
        <ele>304.3946533203125</ele>
        <time>2011-10-16T10:00:05Z</time>
      </trkpt>
      <trkpt lat="46.950160162523389" lon="15.882192989811301">
        <ele>305.836669921875</ele>
        <time>2011-10-16T10:00:22Z</time>
      </trkpt>
      <trkpt lat="46.950135938823223" lon="15.882134819403291">
        <ele>305.836669921875</ele>
        <time>2011-10-16T10:00:26Z</time>
      </trkpt>
      <trkpt lat="46.950041055679321" lon="15.881917392835021">
        <ele>306.3172607421875</ele>
        <time>2011-10-16T10:00:44Z</time>
      </trkpt>
      <trkpt lat="46.949969893321395" lon="15.881759561598301">
        <ele>307.75927734375</ele>
        <time>2011-10-16T10:00:57Z</time>
      </trkpt>
      <trkpt lat="46.949926558881998" lon="15.881670461967587">
        <ele>311.123779296875</ele>
        <time>2011-10-16T10:01:03Z</time>
      </trkpt>
      <trkpt lat="46.949824886396527" lon="15.881430152803659">
        <ele>310.1624755859375</ele>
        <time>2011-10-16T10:01:21Z</time>
      </trkpt>
      <trkpt lat="46.949777528643608" lon="15.881293695420027">
        <ele>313.5272216796875</ele>
        <time>2011-10-16T10:01:30Z</time>
      </trkpt>
      <trkpt lat="46.949674263596535" lon="15.881033353507519">
        <ele>313.5272216796875</ele>
        <time>2011-10-16T10:01:49Z</time>
      </trkpt>
      <trkpt lat="46.949644926935434" lon="15.880981888622046">
        <ele>316.8917236328125</ele>
        <time>2011-10-16T10:01:54Z</time>
      </trkpt>
      <trkpt lat="46.94959782063961" lon="15.880886670202017">
        <ele>317.3724365234375</ele>
        <time>2011-10-16T10:02:02Z</time>
      </trkpt>
      <trkpt lat="46.949517522007227" lon="15.880667483434081">
        <ele>320.737060546875</ele>
        <time>2011-10-16T10:02:19Z</time>
      </trkpt>
      <trkpt lat="46.949421633034945" lon="15.880419882014394">
        <ele>321.6983642578125</ele>
        <time>2011-10-16T10:02:37Z</time>
      </trkpt>
      <trkpt lat="46.949335634708405" lon="15.880151828750968">
        <ele>325.5435791015625</ele>
        <time>2011-10-16T10:02:57Z</time>
      </trkpt>
      <trkpt lat="46.949255168437958" lon="15.879908837378025">
        <ele>326.5048828125</ele>
        <time>2011-10-16T10:03:16Z</time>
      </trkpt>
      <trkpt lat="46.949242847040296" lon="15.879842452704906">
        <ele>326.5048828125</ele>
        <time>2011-10-16T10:03:20Z</time>
      </trkpt>
      <trkpt lat="46.949226837605238" lon="15.879802387207747">
        <ele>329.8695068359375</ele>
        <time>2011-10-16T10:03:23Z</time>
      </trkpt>
      <trkpt lat="46.949165146797895" lon="15.879590660333633">
        <ele>329.8695068359375</ele>
        <time>2011-10-16T10:03:39Z</time>
      </trkpt>
      <trkpt lat="46.949132541194558" lon="15.879432074725628">
        <ele>333.234130859375</ele>
        <time>2011-10-16T10:03:52Z</time>
      </trkpt>
      <trkpt lat="46.949133882299066" lon="15.879196794703603">
        <ele>334.6761474609375</ele>
        <time>2011-10-16T10:04:06Z</time>
      </trkpt>
      <trkpt lat="46.94913798943162" lon="15.879171062260866">
        <ele>333.234130859375</ele>
        <time>2011-10-16T10:04:08Z</time>
      </trkpt>
      <trkpt lat="46.949185431003571" lon="15.879096463322639">
        <ele>334.1954345703125</ele>
        <time>2011-10-16T10:04:20Z</time>
      </trkpt>
      <trkpt lat="46.949239242821932" lon="15.878996551036835">
        <ele>334.1954345703125</ele>
        <time>2011-10-16T10:04:33Z</time>
      </trkpt>
      <trkpt lat="46.949199931696057" lon="15.8789396379143">
        <ele>334.6761474609375</ele>
        <time>2011-10-16T10:04:50Z</time>
      </trkpt>
      <trkpt lat="46.949216863140464" lon="15.878894375637174">
        <ele>335.6373291015625</ele>
        <time>2011-10-16T10:04:54Z</time>
      </trkpt>
      <trkpt lat="46.949310740455985" lon="15.878666471689939">
        <ele>337.56005859375</ele>
        <time>2011-10-16T10:05:11Z</time>
      </trkpt>
      <trkpt lat="46.949340663850307" lon="15.878496486693621">
        <ele>340.444091796875</ele>
        <time>2011-10-16T10:05:23Z</time>
      </trkpt>
      <trkpt lat="46.949374778196216" lon="15.878236899152398">
        <ele>341.4052734375</ele>
        <time>2011-10-16T10:05:42Z</time>
      </trkpt>
      <trkpt lat="46.949440324679017" lon="15.877938251942396">
        <ele>344.77001953125</ele>
        <time>2011-10-16T10:06:02Z</time>
      </trkpt>
      <trkpt lat="46.949522886425257" lon="15.877710934728384">
        <ele>345.7313232421875</ele>
        <time>2011-10-16T10:06:18Z</time>
      </trkpt>
      <trkpt lat="46.949635623022914" lon="15.877474648877978">
        <ele>346.692626953125</ele>
        <time>2011-10-16T10:06:37Z</time>
      </trkpt>
      <trkpt lat="46.949699493125081" lon="15.877288989722729">
        <ele>350.0572509765625</ele>
        <time>2011-10-16T10:06:50Z</time>
      </trkpt>
      <trkpt lat="46.949768979102373" lon="15.877161584794521">
        <ele>350.537841796875</ele>
        <time>2011-10-16T10:07:02Z</time>
      </trkpt>
      <trkpt lat="46.949790436774492" lon="15.877109952270985">
        <ele>350.537841796875</ele>
        <time>2011-10-16T10:07:06Z</time>
      </trkpt>
      <trkpt lat="46.949843661859632" lon="15.876886993646622">
        <ele>353.421875</ele>
        <time>2011-10-16T10:07:23Z</time>
      </trkpt>
      <trkpt lat="46.949791694059968" lon="15.876720864325762">
        <ele>353.902587890625</ele>
        <time>2011-10-16T10:07:39Z</time>
      </trkpt>
      <trkpt lat="46.949763195589185" lon="15.876648779958487">
        <ele>352.941162109375</ele>
        <time>2011-10-16T10:07:44Z</time>
      </trkpt>
      <trkpt lat="46.949695637449622" lon="15.876550879329443">
        <ele>354.86376953125</ele>
        <time>2011-10-16T10:08:02Z</time>
      </trkpt>
      <trkpt lat="46.94968868046999" lon="15.876544257625937">
        <ele>354.3831787109375</ele>
        <time>2011-10-16T10:08:03Z</time>
      </trkpt>
      <trkpt lat="46.94965791888535" lon="15.876537971198559">
        <ele>357.747802734375</ele>
        <time>2011-10-16T10:08:07Z</time>
      </trkpt>
      <trkpt lat="46.949603855609894" lon="15.876478543505073">
        <ele>358.2283935546875</ele>
        <time>2011-10-16T10:08:19Z</time>
      </trkpt>
      <trkpt lat="46.949560772627592" lon="15.876429760828614">
        <ele>363.0350341796875</ele>
        <time>2011-10-16T10:08:33Z</time>
      </trkpt>
      <trkpt lat="46.949527245014906" lon="15.8764373883605">
        <ele>365.4383544921875</ele>
        <time>2011-10-16T10:08:44Z</time>
      </trkpt>
      <trkpt lat="46.949497237801552" lon="15.87635139003396">
        <ele>365.4383544921875</ele>
        <time>2011-10-16T10:08:57Z</time>
      </trkpt>
      <trkpt lat="46.949470248073339" lon="15.876325322315097">
        <ele>365.4383544921875</ele>
        <time>2011-10-16T10:09:06Z</time>
      </trkpt>
      <trkpt lat="46.949452478438616" lon="15.876327166333795">
        <ele>368.802978515625</ele>
        <time>2011-10-16T10:09:10Z</time>
      </trkpt>
      <trkpt lat="46.94937402382493" lon="15.876288274303079">
        <ele>368.802978515625</ele>
        <time>2011-10-16T10:09:23Z</time>
      </trkpt>
      <trkpt lat="46.949365893378854" lon="15.876282155513763">
        <ele>368.322265625</ele>
        <time>2011-10-16T10:09:24Z</time>
      </trkpt>
      <trkpt lat="46.949336221441627" lon="15.87629028595984">
        <ele>370.7255859375</ele>
        <time>2011-10-16T10:09:39Z</time>
      </trkpt>
      <trkpt lat="46.949332449585199" lon="15.876294393092394">
        <ele>369.28369140625</ele>
        <time>2011-10-16T10:09:40Z</time>
      </trkpt>
      <trkpt lat="46.949328426271677" lon="15.876300092786551">
        <ele>367.841552734375</ele>
        <time>2011-10-16T10:09:42Z</time>
      </trkpt>
      <trkpt lat="46.949305040761828" lon="15.876418864354491">
        <ele>367.3609619140625</ele>
        <time>2011-10-16T10:10:14Z</time>
      </trkpt>
      <trkpt lat="46.949276877567172" lon="15.876400927081704">
        <ele>366.8802490234375</ele>
        <time>2011-10-16T10:10:29Z</time>
      </trkpt>
      <trkpt lat="46.949237147346139" lon="15.876382738351822">
        <ele>366.3995361328125</ele>
        <time>2011-10-16T10:10:57Z</time>
      </trkpt>
      <trkpt lat="46.949168499559164" lon="15.876410566270351">
        <ele>367.3609619140625</ele>
        <time>2011-10-16T10:11:25Z</time>
      </trkpt>
      <trkpt lat="46.949151484295726" lon="15.876415092498064">
        <ele>367.3609619140625</ele>
        <time>2011-10-16T10:11:27Z</time>
      </trkpt>
      <trkpt lat="46.9490353949368" lon="15.876395143568516">
        <ele>370.244873046875</ele>
        <time>2011-10-16T10:11:41Z</time>
      </trkpt>
      <trkpt lat="46.949011590331793" lon="15.876347366720438">
        <ele>370.244873046875</ele>
        <time>2011-10-16T10:11:48Z</time>
      </trkpt>
      <trkpt lat="46.948988540098071" lon="15.876302858814597">
        <ele>373.12890625</ele>
        <time>2011-10-16T10:12:01Z</time>
      </trkpt>
      <trkpt lat="46.948985857889056" lon="15.876296823844314">
        <ele>372.16748046875</ele>
        <time>2011-10-16T10:12:02Z</time>
      </trkpt>
      <trkpt lat="46.948968674987555" lon="15.876194480806589">
        <ele>374.090087890625</ele>
        <time>2011-10-16T10:12:14Z</time>
      </trkpt>
      <trkpt lat="46.948993820697069" lon="15.876123569905758">
        <ele>377.454833984375</ele>
        <time>2011-10-16T10:12:24Z</time>
      </trkpt>
      <trkpt lat="46.949046459048986" lon="15.876024160534143">
        <ele>378.4161376953125</ele>
        <time>2011-10-16T10:12:36Z</time>
      </trkpt>
      <trkpt lat="46.949064899235964" lon="15.875955177471042">
        <ele>379.8580322265625</ele>
        <time>2011-10-16T10:12:51Z</time>
      </trkpt>
      <trkpt lat="46.949062552303076" lon="15.875891726464033">
        <ele>380.8194580078125</ele>
        <time>2011-10-16T10:13:07Z</time>
      </trkpt>
      <trkpt lat="46.949095074087381" lon="15.875851660966873">
        <ele>380.8194580078125</ele>
        <time>2011-10-16T10:18:24Z</time>
      </trkpt>
      <trkpt lat="46.949074035510421" lon="15.875741858035326">
        <ele>382.2613525390625</ele>
        <time>2011-10-16T10:24:31Z</time>
      </trkpt>
      <trkpt lat="46.949053248390555" lon="15.875653093680739">
        <ele>380.8194580078125</ele>
        <time>2011-10-16T10:24:47Z</time>
      </trkpt>
      <trkpt lat="46.94909549318254" lon="15.875572040677071">
        <ele>379.8580322265625</ele>
        <time>2011-10-16T10:24:59Z</time>
      </trkpt>
      <trkpt lat="46.949133798480034" lon="15.875481432303786">
        <ele>377.454833984375</ele>
        <time>2011-10-16T10:25:09Z</time>
      </trkpt>
      <trkpt lat="46.949210744351149" lon="15.875300718471408">
        <ele>375.5321044921875</ele>
        <time>2011-10-16T10:25:26Z</time>
      </trkpt>
      <trkpt lat="46.949251899495721" lon="15.875200973823667">
        <ele>373.6094970703125</ele>
        <time>2011-10-16T10:25:35Z</time>
      </trkpt>
      <trkpt lat="46.949326079338789" lon="15.875018835067749">
        <ele>370.244873046875</ele>
        <time>2011-10-16T10:25:51Z</time>
      </trkpt>
      <trkpt lat="46.949328342452645" lon="15.875005088746548">
        <ele>370.244873046875</ele>
        <time>2011-10-16T10:25:52Z</time>
      </trkpt>
      <trkpt lat="46.949365055188537" lon="15.874925376847386">
        <ele>362.07373046875</ele>
        <time>2011-10-16T10:26:08Z</time>
      </trkpt>
      <trkpt lat="46.949371257796884" lon="15.874947840347886">
        <ele>370.7255859375</ele>
        <time>2011-10-16T10:26:37Z</time>
      </trkpt>
      <trkpt lat="46.949369162321091" lon="15.874921185895801">
        <ele>368.322265625</ele>
        <time>2011-10-16T10:26:39Z</time>
      </trkpt>
      <trkpt lat="46.949372095987201" lon="15.874873828142881">
        <ele>369.7642822265625</ele>
        <time>2011-10-16T10:26:42Z</time>
      </trkpt>
      <trkpt lat="46.949377795681357" lon="15.874846084043384">
        <ele>369.28369140625</ele>
        <time>2011-10-16T10:26:44Z</time>
      </trkpt>
      <trkpt lat="46.949388524517417" lon="15.874778022989631">
        <ele>369.28369140625</ele>
        <time>2011-10-16T10:26:48Z</time>
      </trkpt>
      <trkpt lat="46.949408976361156" lon="15.874568726867437">
        <ele>370.244873046875</ele>
        <time>2011-10-16T10:27:00Z</time>
      </trkpt>
      <trkpt lat="46.949424650520086" lon="15.874420451000333">
        <ele>369.28369140625</ele>
        <time>2011-10-16T10:27:08Z</time>
      </trkpt>
      <trkpt lat="46.949446275830269" lon="15.87412272579968">
        <ele>370.244873046875</ele>
        <time>2011-10-16T10:27:25Z</time>
      </trkpt>
      <trkpt lat="46.949458681046963" lon="15.873973527923226">
        <ele>369.7642822265625</ele>
        <time>2011-10-16T10:27:34Z</time>
      </trkpt>
      <trkpt lat="46.949474774301052" lon="15.873800273984671">
        <ele>372.648193359375</ele>
        <time>2011-10-16T10:27:48Z</time>
      </trkpt>
      <trkpt lat="46.949460357427597" lon="15.87369323708117">
        <ele>373.12890625</ele>
        <time>2011-10-16T10:27:56Z</time>
      </trkpt>
      <trkpt lat="46.94943898357451" lon="15.873657697811723">
        <ele>371.6868896484375</ele>
        <time>2011-10-16T10:28:01Z</time>
      </trkpt>
      <trkpt lat="46.94939992390573" lon="15.873518893495202">
        <ele>374.090087890625</ele>
        <time>2011-10-16T10:28:16Z</time>
      </trkpt>
      <trkpt lat="46.949388524517417" lon="15.873490059748292">
        <ele>374.090087890625</ele>
        <time>2011-10-16T10:28:41Z</time>
      </trkpt>
      <trkpt lat="46.949327671900392" lon="15.873441779986024">
        <ele>374.57080078125</ele>
        <time>2011-10-16T10:28:50Z</time>
      </trkpt>
      <trkpt lat="46.949237231165171" lon="15.873359134420753">
        <ele>376.0128173828125</ele>
        <time>2011-10-16T10:29:02Z</time>
      </trkpt>
      <trkpt lat="46.949183335527778" lon="15.873095188289881">
        <ele>378.8968505859375</ele>
        <time>2011-10-16T10:29:12Z</time>
      </trkpt>
      <trkpt lat="46.94917855784297" lon="15.87307658046484">
        <ele>377.454833984375</ele>
        <time>2011-10-16T10:29:13Z</time>
      </trkpt>
      <trkpt lat="46.949027348309755" lon="15.872738035395741">
        <ele>376.9742431640625</ele>
        <time>2011-10-16T10:29:33Z</time>
      </trkpt>
      <trkpt lat="46.948937997221947" lon="15.872552460059524">
        <ele>379.37744140625</ele>
        <time>2011-10-16T10:29:46Z</time>
      </trkpt>
      <trkpt lat="46.948931543156505" lon="15.872539551928639">
        <ele>378.8968505859375</ele>
        <time>2011-10-16T10:29:47Z</time>
      </trkpt>
      <trkpt lat="46.948836660012603" lon="15.872497139498591">
        <ele>380.8194580078125</ele>
        <time>2011-10-16T10:30:00Z</time>
      </trkpt>
      <trkpt lat="46.94877203553915" lon="15.872547179460526">
        <ele>383.7032470703125</ele>
        <time>2011-10-16T10:30:09Z</time>
      </trkpt>
      <trkpt lat="46.948711350560188" lon="15.872552627697587">
        <ele>383.22265625</ele>
        <time>2011-10-16T10:30:15Z</time>
      </trkpt>
      <trkpt lat="46.948593836277723" lon="15.872485991567373">
        <ele>384.18408203125</ele>
        <time>2011-10-16T10:30:27Z</time>
      </trkpt>
      <trkpt lat="46.948491325601935" lon="15.872445674613118">
        <ele>385.6259765625</ele>
        <time>2011-10-16T10:30:35Z</time>
      </trkpt>
      <trkpt lat="46.948468526825309" lon="15.872450452297926">
        <ele>384.18408203125</ele>
        <time>2011-10-16T10:30:37Z</time>
      </trkpt>
      <trkpt lat="46.948377499356866" lon="15.872382642701268">
        <ele>384.664794921875</ele>
        <time>2011-10-16T10:30:43Z</time>
      </trkpt>
      <trkpt lat="46.948250597342849" lon="15.872314749285579">
        <ele>385.1453857421875</ele>
        <time>2011-10-16T10:30:53Z</time>
      </trkpt>
      <trkpt lat="46.948201060295105" lon="15.872310139238834">
        <ele>385.6259765625</ele>
        <time>2011-10-16T10:30:59Z</time>
      </trkpt>
      <trkpt lat="46.948191169649363" lon="15.872300751507282">
        <ele>385.1453857421875</ele>
        <time>2011-10-16T10:31:01Z</time>
      </trkpt>
      <trkpt lat="46.948104333132505" lon="15.872285161167383">
        <ele>385.1453857421875</ele>
        <time>2011-10-16T10:31:12Z</time>
      </trkpt>
      <trkpt lat="46.948015233501792" lon="15.872084498405457">
        <ele>387.548583984375</ele>
        <time>2011-10-16T10:31:24Z</time>
      </trkpt>
      <trkpt lat="46.947918590158224" lon="15.871992548927665">
        <ele>387.0679931640625</ele>
        <time>2011-10-16T10:31:38Z</time>
      </trkpt>
      <trkpt lat="46.947825131937861" lon="15.872031357139349">
        <ele>386.58740234375</ele>
        <time>2011-10-16T10:31:49Z</time>
      </trkpt>
      <trkpt lat="46.947804428637028" lon="15.872014593333006">
        <ele>388.510009765625</ele>
        <time>2011-10-16T10:31:51Z</time>
      </trkpt>
      <trkpt lat="46.947722034528852" lon="15.871971091255546">
        <ele>390.4326171875</ele>
        <time>2011-10-16T10:32:02Z</time>
      </trkpt>
      <trkpt lat="46.947710467502475" lon="15.871956339105964">
        <ele>390.4326171875</ele>
        <time>2011-10-16T10:32:03Z</time>
      </trkpt>
      <trkpt lat="46.947619440034032" lon="15.871869083493948">
        <ele>391.87451171875</ele>
        <time>2011-10-16T10:32:16Z</time>
      </trkpt>
      <trkpt lat="46.947617260739207" lon="15.871815858408809">
        <ele>383.7032470703125</ele>
        <time>2011-10-16T10:32:18Z</time>
      </trkpt>
      <trkpt lat="46.947610219940543" lon="15.871797250583768">
        <ele>394.758544921875</ele>
        <time>2011-10-16T10:32:19Z</time>
      </trkpt>
      <trkpt lat="46.947571327909827" lon="15.871768919751048">
        <ele>390.9132080078125</ele>
        <time>2011-10-16T10:32:22Z</time>
      </trkpt>
      <trkpt lat="46.947460435330868" lon="15.871766237542033">
        <ele>392.8359375</ele>
        <time>2011-10-16T10:32:34Z</time>
      </trkpt>
      <trkpt lat="46.947351554408669" lon="15.87176313623786">
        <ele>393.7972412109375</ele>
        <time>2011-10-16T10:32:48Z</time>
      </trkpt>
      <trkpt lat="46.947302520275116" lon="15.871674120426178">
        <ele>397.6424560546875</ele>
        <time>2011-10-16T10:33:01Z</time>
      </trkpt>
      <trkpt lat="46.947142761200666" lon="15.871722819283605">
        <ele>397.1617431640625</ele>
        <time>2011-10-16T10:33:25Z</time>
      </trkpt>
      <trkpt lat="46.947004124522209" lon="15.871823988854885">
        <ele>399.0843505859375</ele>
        <time>2011-10-16T10:33:35Z</time>
      </trkpt>
      <trkpt lat="46.946984846144915" lon="15.871848547831178">
        <ele>399.0843505859375</ele>
        <time>2011-10-16T10:33:41Z</time>
      </trkpt>
      <trkpt lat="46.946745961904526" lon="15.872049629688263">
        <ele>398.603759765625</ele>
        <time>2011-10-16T10:34:00Z</time>
      </trkpt>
      <trkpt lat="46.946729365736246" lon="15.872051725164056">
        <ele>398.603759765625</ele>
        <time>2011-10-16T10:34:01Z</time>
      </trkpt>
      <trkpt lat="46.946698352694511" lon="15.872062034904957">
        <ele>399.5650634765625</ele>
        <time>2011-10-16T10:34:04Z</time>
      </trkpt>
      <trkpt lat="46.946608331054449" lon="15.872058933600783">
        <ele>399.5650634765625</ele>
        <time>2011-10-16T10:34:10Z</time>
      </trkpt>
      <trkpt lat="46.946586957201362" lon="15.872068488970399">
        <ele>398.603759765625</ele>
        <time>2011-10-16T10:34:12Z</time>
      </trkpt>
      <trkpt lat="46.946448320522904" lon="15.872192122042179">
        <ele>398.603759765625</ele>
        <time>2011-10-16T10:34:25Z</time>
      </trkpt>
      <trkpt lat="46.946441195905209" lon="15.872204527258873">
        <ele>398.603759765625</ele>
        <time>2011-10-16T10:34:26Z</time>
      </trkpt>
      <trkpt lat="46.946370033547282" lon="15.872266134247184">
        <ele>399.5650634765625</ele>
        <time>2011-10-16T10:34:33Z</time>
      </trkpt>
      <trkpt lat="46.946174399927258" lon="15.872386749833822">
        <ele>398.603759765625</ele>
        <time>2011-10-16T10:34:44Z</time>
      </trkpt>
      <trkpt lat="46.946047581732273" lon="15.872433520853519">
        <ele>399.0843505859375</ele>
        <time>2011-10-16T10:34:54Z</time>
      </trkpt>
      <trkpt lat="46.945923864841461" lon="15.872567631304264">
        <ele>398.603759765625</ele>
        <time>2011-10-16T10:35:01Z</time>
      </trkpt>
      <trkpt lat="46.94580358453095" lon="15.872518261894584">
        <ele>397.1617431640625</ele>
        <time>2011-10-16T10:35:11Z</time>
      </trkpt>
      <trkpt lat="46.945642987266183" lon="15.872503761202097">
        <ele>395.2391357421875</ele>
        <time>2011-10-16T10:35:21Z</time>
      </trkpt>
      <trkpt lat="46.945569980889559" lon="15.872466880828142">
        <ele>393.3165283203125</ele>
        <time>2011-10-16T10:35:31Z</time>
      </trkpt>
      <trkpt lat="46.945477947592735" lon="15.872460342943668">
        <ele>391.393798828125</ele>
        <time>2011-10-16T10:35:41Z</time>
      </trkpt>
      <trkpt lat="46.945349620655179" lon="15.872465455904603">
        <ele>390.9132080078125</ele>
        <time>2011-10-16T10:35:50Z</time>
      </trkpt>
      <trkpt lat="46.945236548781395" lon="15.872361687943339">
        <ele>390.4326171875</ele>
        <time>2011-10-16T10:36:00Z</time>
      </trkpt>
      <trkpt lat="46.945221880450845" lon="15.872324053198099">
        <ele>388.9906005859375</ele>
        <time>2011-10-16T10:36:03Z</time>
      </trkpt>
      <trkpt lat="46.945116436108947" lon="15.872241239994764">
        <ele>387.548583984375</ele>
        <time>2011-10-16T10:36:16Z</time>
      </trkpt>
      <trkpt lat="46.945051224902272" lon="15.872184745967388">
        <ele>386.106689453125</ele>
        <time>2011-10-16T10:36:29Z</time>
      </trkpt>
      <trkpt lat="46.944942763075233" lon="15.872103525325656">
        <ele>385.1453857421875</ele>
        <time>2011-10-16T10:36:38Z</time>
      </trkpt>
      <trkpt lat="46.944793481379747" lon="15.872004199773073">
        <ele>382.7420654296875</ele>
        <time>2011-10-16T10:36:49Z</time>
      </trkpt>
      <trkpt lat="46.944649228826165" lon="15.871882159262896">
        <ele>380.8194580078125</ele>
        <time>2011-10-16T10:36:59Z</time>
      </trkpt>
      <trkpt lat="46.944615617394447" lon="15.871748132631183">
        <ele>380.8194580078125</ele>
        <time>2011-10-16T10:37:09Z</time>
      </trkpt>
      <trkpt lat="46.944569852203131" lon="15.871763220056891">
        <ele>381.7806396484375</ele>
        <time>2011-10-16T10:37:13Z</time>
      </trkpt>
      <trkpt lat="46.944556524977088" lon="15.871771266683936">
        <ele>380.8194580078125</ele>
        <time>2011-10-16T10:37:14Z</time>
      </trkpt>
      <trkpt lat="46.944489385932684" lon="15.871712760999799">
        <ele>379.37744140625</ele>
        <time>2011-10-16T10:37:21Z</time>
      </trkpt>
      <trkpt lat="46.944473292678595" lon="15.871668588370085">
        <ele>379.37744140625</ele>
        <time>2011-10-16T10:37:27Z</time>
      </trkpt>
      <trkpt lat="46.944358628243208" lon="15.871653584763408">
        <ele>378.4161376953125</ele>
        <time>2011-10-16T10:37:38Z</time>
      </trkpt>
      <trkpt lat="46.944262655451894" lon="15.871618548408151">
        <ele>379.37744140625</ele>
        <time>2011-10-16T10:37:46Z</time>
      </trkpt>
      <trkpt lat="46.944214962422848" lon="15.871615447103977">
        <ele>378.4161376953125</ele>
        <time>2011-10-16T10:37:48Z</time>
      </trkpt>
      <trkpt lat="46.944050174206495" lon="15.871579656377435">
        <ele>377.9354248046875</ele>
        <time>2011-10-16T10:38:00Z</time>
      </trkpt>
      <trkpt lat="46.944043971598148" lon="15.871580326929688">
        <ele>378.4161376953125</ele>
        <time>2011-10-16T10:38:01Z</time>
      </trkpt>
      <trkpt lat="46.943853534758091" lon="15.871590888127685">
        <ele>377.9354248046875</ele>
        <time>2011-10-16T10:38:15Z</time>
      </trkpt>
      <trkpt lat="46.943759992718697" lon="15.871572280302644">
        <ele>376.4935302734375</ele>
        <time>2011-10-16T10:38:25Z</time>
      </trkpt>
      <trkpt lat="46.943723950535059" lon="15.871541853994131">
        <ele>376.0128173828125</ele>
        <time>2011-10-16T10:38:27Z</time>
      </trkpt>
      <trkpt lat="46.943696793168783" lon="15.871487036347389">
        <ele>376.9742431640625</ele>
        <time>2011-10-16T10:38:29Z</time>
      </trkpt>
      <trkpt lat="46.943581458181143" lon="15.871373880654573">
        <ele>375.051513671875</ele>
        <time>2011-10-16T10:38:42Z</time>
      </trkpt>
      <trkpt lat="46.943569220602512" lon="15.871358374133706">
        <ele>375.5321044921875</ele>
        <time>2011-10-16T10:38:43Z</time>
      </trkpt>
      <trkpt lat="46.943481881171465" lon="15.871324427425861">
        <ele>376.4935302734375</ele>
        <time>2011-10-16T10:38:52Z</time>
      </trkpt>
      <trkpt lat="46.943468889221549" lon="15.871278243139386">
        <ele>375.051513671875</ele>
        <time>2011-10-16T10:38:54Z</time>
      </trkpt>
      <trkpt lat="46.943308878690004" lon="15.87123692035675">
        <ele>375.5321044921875</ele>
        <time>2011-10-16T10:39:05Z</time>
      </trkpt>
      <trkpt lat="46.943180887028575" lon="15.871181767433882">
        <ele>375.5321044921875</ele>
        <time>2011-10-16T10:39:17Z</time>
      </trkpt>
      <trkpt lat="46.943136127665639" lon="15.871086549013853">
        <ele>376.0128173828125</ele>
        <time>2011-10-16T10:39:24Z</time>
      </trkpt>
      <trkpt lat="46.943033281713724" lon="15.870979176834226">
        <ele>377.454833984375</ele>
        <time>2011-10-16T10:39:35Z</time>
      </trkpt>
      <trkpt lat="46.943018781021237" lon="15.870977751910686">
        <ele>376.4935302734375</ele>
        <time>2011-10-16T10:39:36Z</time>
      </trkpt>
      <trkpt lat="46.942958766594529" lon="15.870821597054601">
        <ele>376.4935302734375</ele>
        <time>2011-10-16T10:39:48Z</time>
      </trkpt>
      <trkpt lat="46.94287377409637" lon="15.870690168812871">
        <ele>377.9354248046875</ele>
        <time>2011-10-16T10:39:58Z</time>
      </trkpt>
      <trkpt lat="46.942779226228595" lon="15.870486069470644">
        <ele>377.9354248046875</ele>
        <time>2011-10-16T10:40:09Z</time>
      </trkpt>
      <trkpt lat="46.942773861810565" lon="15.870466120541096">
        <ele>377.9354248046875</ele>
        <time>2011-10-16T10:40:10Z</time>
      </trkpt>
      <trkpt lat="46.942726420238614" lon="15.870234360918403">
        <ele>378.4161376953125</ele>
        <time>2011-10-16T10:40:19Z</time>
      </trkpt>
      <trkpt lat="46.942714853212237" lon="15.870000924915075">
        <ele>379.37744140625</ele>
        <time>2011-10-16T10:40:30Z</time>
      </trkpt>
      <trkpt lat="46.942646875977516" lon="15.869795233011246">
        <ele>382.7420654296875</ele>
        <time>2011-10-16T10:40:42Z</time>
      </trkpt>
      <trkpt lat="46.942623490467668" lon="15.869711581617594">
        <ele>383.7032470703125</ele>
        <time>2011-10-16T10:40:51Z</time>
      </trkpt>
      <trkpt lat="46.942589795216918" lon="15.86942165158689">
        <ele>385.1453857421875</ele>
        <time>2011-10-16T10:41:06Z</time>
      </trkpt>
      <trkpt lat="46.942479321733117" lon="15.869349231943488">
        <ele>385.6259765625</ele>
        <time>2011-10-16T10:41:17Z</time>
      </trkpt>
      <trkpt lat="46.942416541278362" lon="15.86918662302196">
        <ele>385.6259765625</ele>
        <time>2011-10-16T10:41:28Z</time>
      </trkpt>
      <trkpt lat="46.942359628155828" lon="15.869036838412285">
        <ele>387.0679931640625</ele>
        <time>2011-10-16T10:41:39Z</time>
      </trkpt>
      <trkpt lat="46.942333979532123" lon="15.868810694664717">
        <ele>388.029296875</ele>
        <time>2011-10-16T10:41:54Z</time>
      </trkpt>
      <trkpt lat="46.942338338121772" lon="15.868675075471401">
        <ele>388.9906005859375</ele>
        <time>2011-10-16T10:42:03Z</time>
      </trkpt>
      <trkpt lat="46.942345630377531" lon="15.868641128763556">
        <ele>390.9132080078125</ele>
        <time>2011-10-16T10:42:05Z</time>
      </trkpt>
      <trkpt lat="46.942376475781202" lon="15.868458319455385">
        <ele>390.4326171875</ele>
        <time>2011-10-16T10:42:17Z</time>
      </trkpt>
      <trkpt lat="46.942422324791551" lon="15.868205772712827">
        <ele>392.3553466796875</ele>
        <time>2011-10-16T10:42:28Z</time>
      </trkpt>
      <trkpt lat="46.942462055012584" lon="15.868048276752234">
        <ele>391.87451171875</ele>
        <time>2011-10-16T10:42:40Z</time>
      </trkpt>
      <trkpt lat="46.942476136609912" lon="15.867917938157916">
        <ele>392.3553466796875</ele>
        <time>2011-10-16T10:42:45Z</time>
      </trkpt>
      <trkpt lat="46.942466832697392" lon="15.867783576250076">
        <ele>393.3165283203125</ele>
        <time>2011-10-16T10:42:54Z</time>
      </trkpt>
      <trkpt lat="46.942446967586875" lon="15.867642257362604">
        <ele>393.7972412109375</ele>
        <time>2011-10-16T10:43:05Z</time>
      </trkpt>
      <trkpt lat="46.942445877939463" lon="15.867558270692825">
        <ele>392.8359375</ele>
        <time>2011-10-16T10:43:12Z</time>
      </trkpt>
      <trkpt lat="46.94242475554347" lon="15.867521055042744">
        <ele>394.2779541015625</ele>
        <time>2011-10-16T10:43:14Z</time>
      </trkpt>
      <trkpt lat="46.942446380853653" lon="15.867122830823064">
        <ele>394.2779541015625</ele>
        <time>2011-10-16T10:43:27Z</time>
      </trkpt>
      <trkpt lat="46.942389467731118" lon="15.867016883566976">
        <ele>393.7972412109375</ele>
        <time>2011-10-16T10:43:33Z</time>
      </trkpt>
      <trkpt lat="46.942285364493728" lon="15.866958294063807">
        <ele>391.87451171875</ele>
        <time>2011-10-16T10:43:45Z</time>
      </trkpt>
      <trkpt lat="46.942179417237639" lon="15.86692426353693">
        <ele>388.9906005859375</ele>
        <time>2011-10-16T10:43:56Z</time>
      </trkpt>
      <trkpt lat="46.942143626511097" lon="15.866899872198701">
        <ele>388.9906005859375</ele>
        <time>2011-10-16T10:44:02Z</time>
      </trkpt>
      <trkpt lat="46.942120660096407" lon="15.866888388991356">
        <ele>388.029296875</ele>
        <time>2011-10-16T10:44:04Z</time>
      </trkpt>
      <trkpt lat="46.942060394212604" lon="15.866730390116572">
        <ele>387.548583984375</ele>
        <time>2011-10-16T10:44:14Z</time>
      </trkpt>
      <trkpt lat="46.941922176629305" lon="15.866638021543622">
        <ele>385.6259765625</ele>
        <time>2011-10-16T10:44:26Z</time>
      </trkpt>
      <trkpt lat="46.941877584904432" lon="15.866586975753307">
        <ele>386.106689453125</ele>
        <time>2011-10-16T10:44:29Z</time>
      </trkpt>
      <trkpt lat="46.941824024543166" lon="15.866437526419759">
        <ele>386.106689453125</ele>
        <time>2011-10-16T10:44:35Z</time>
      </trkpt>
      <trkpt lat="46.94177289493382" lon="15.866290843114257">
        <ele>383.7032470703125</ele>
        <time>2011-10-16T10:44:46Z</time>
      </trkpt>
      <trkpt lat="46.941773816943169" lon="15.866268295794725">
        <ele>383.22265625</ele>
        <time>2011-10-16T10:44:47Z</time>
      </trkpt>
      <trkpt lat="46.941711623221636" lon="15.866122199222445">
        <ele>384.18408203125</ele>
        <time>2011-10-16T10:44:56Z</time>
      </trkpt>
      <trkpt lat="46.941629983484745" lon="15.866066124290228">
        <ele>382.2613525390625</ele>
        <time>2011-10-16T10:45:05Z</time>
      </trkpt>
      <trkpt lat="46.941490676254034" lon="15.866017257794738">
        <ele>382.2613525390625</ele>
        <time>2011-10-16T10:45:14Z</time>
      </trkpt>
      <trkpt lat="46.94142353720963" lon="15.865823216736317">
        <ele>383.22265625</ele>
        <time>2011-10-16T10:45:25Z</time>
      </trkpt>
      <trkpt lat="46.941382130607963" lon="15.865764040499926">
        <ele>381.7806396484375</ele>
        <time>2011-10-16T10:45:33Z</time>
      </trkpt>
      <trkpt lat="46.941114161163568" lon="15.865652225911617">
        <ele>382.2613525390625</ele>
        <time>2011-10-16T10:45:47Z</time>
      </trkpt>
      <trkpt lat="46.941052051261067" lon="15.865586260333657">
        <ele>383.7032470703125</ele>
        <time>2011-10-16T10:45:52Z</time>
      </trkpt>
      <trkpt lat="46.940971668809652" lon="15.865431698039174">
        <ele>382.2613525390625</ele>
        <time>2011-10-16T10:46:00Z</time>
      </trkpt>
      <trkpt lat="46.940858848392963" lon="15.865217791870236">
        <ele>383.7032470703125</ele>
        <time>2011-10-16T10:46:15Z</time>
      </trkpt>
      <trkpt lat="46.940777292475104" lon="15.864948397502303">
        <ele>385.1453857421875</ele>
        <time>2011-10-16T10:46:31Z</time>
      </trkpt>
      <trkpt lat="46.940758265554905" lon="15.864751925691962">
        <ele>384.18408203125</ele>
        <time>2011-10-16T10:46:39Z</time>
      </trkpt>
      <trkpt lat="46.940745525062084" lon="15.864603733643889">
        <ele>385.1453857421875</ele>
        <time>2011-10-16T10:46:43Z</time>
      </trkpt>
      <trkpt lat="46.940715350210667" lon="15.864344062283635">
        <ele>386.106689453125</ele>
        <time>2011-10-16T10:46:54Z</time>
      </trkpt>
      <trkpt lat="46.940723061561584" lon="15.86429301649332">
        <ele>386.58740234375</ele>
        <time>2011-10-16T10:46:58Z</time>
      </trkpt>
      <trkpt lat="46.940719122067094" lon="15.864287568256259">
        <ele>386.106689453125</ele>
        <time>2011-10-16T10:46:59Z</time>
      </trkpt>
      <trkpt lat="46.940705794841051" lon="15.864240629598498">
        <ele>385.6259765625</ele>
        <time>2011-10-16T10:47:01Z</time>
      </trkpt>
      <trkpt lat="46.940705962479115" lon="15.86419478058815">
        <ele>387.0679931640625</ele>
        <time>2011-10-16T10:47:03Z</time>
      </trkpt>
      <trkpt lat="46.9406808167696" lon="15.864055892452598">
        <ele>386.58740234375</ele>
        <time>2011-10-16T10:47:11Z</time>
      </trkpt>
      <trkpt lat="46.940615940839052" lon="15.864009372889996">
        <ele>389.47119140625</ele>
        <time>2011-10-16T10:47:22Z</time>
      </trkpt>
      <trkpt lat="46.940561877563596" lon="15.863975845277309">
        <ele>389.47119140625</ele>
        <time>2011-10-16T10:47:33Z</time>
      </trkpt>
      <trkpt lat="46.940502785146236" lon="15.863916585221887">
        <ele>392.3553466796875</ele>
        <time>2011-10-16T10:47:42Z</time>
      </trkpt>
      <trkpt lat="46.94047462195158" lon="15.863886242732406">
        <ele>391.87451171875</ele>
        <time>2011-10-16T10:47:47Z</time>
      </trkpt>
      <trkpt lat="46.94043505936861" lon="15.863906862214208">
        <ele>392.3553466796875</ele>
        <time>2011-10-16T10:47:55Z</time>
      </trkpt>
      <trkpt lat="46.940367333590984" lon="15.864070560783148">
        <ele>391.87451171875</ele>
        <time>2011-10-16T10:48:06Z</time>
      </trkpt>
      <trkpt lat="46.940243281424046" lon="15.864051366224885">
        <ele>390.9132080078125</ele>
        <time>2011-10-16T10:48:20Z</time>
      </trkpt>
      <trkpt lat="46.940208496525884" lon="15.863980036228895">
        <ele>391.393798828125</ele>
        <time>2011-10-16T10:48:24Z</time>
      </trkpt>
      <trkpt lat="46.940147895365953" lon="15.863972492516041">
        <ele>390.4326171875</ele>
        <time>2011-10-16T10:48:29Z</time>
      </trkpt>
      <trkpt lat="46.939965924248099" lon="15.86397685110569">
        <ele>388.9906005859375</ele>
        <time>2011-10-16T10:48:43Z</time>
      </trkpt>
      <trkpt lat="46.939760567620397" lon="15.863988753408194">
        <ele>388.029296875</ele>
        <time>2011-10-16T10:48:59Z</time>
      </trkpt>
      <trkpt lat="46.939521683380008" lon="15.863923877477646">
        <ele>388.029296875</ele>
        <time>2011-10-16T10:49:17Z</time>
      </trkpt>
      <trkpt lat="46.93951204419136" lon="15.863915747031569">
        <ele>387.0679931640625</ele>
        <time>2011-10-16T10:49:18Z</time>
      </trkpt>
      <trkpt lat="46.939451275393367" lon="15.863827653229237">
        <ele>387.548583984375</ele>
        <time>2011-10-16T10:49:27Z</time>
      </trkpt>
      <trkpt lat="46.939432080835104" lon="15.863738721236587">
        <ele>388.029296875</ele>
        <time>2011-10-16T10:49:31Z</time>
      </trkpt>
      <trkpt lat="46.939358990639448" lon="15.863666133955121">
        <ele>387.548583984375</ele>
        <time>2011-10-16T10:49:37Z</time>
      </trkpt>
      <trkpt lat="46.939214821904898" lon="15.863607544451952">
        <ele>387.0679931640625</ele>
        <time>2011-10-16T10:49:49Z</time>
      </trkpt>
      <trkpt lat="46.93902145139873" lon="15.863579884171486">
        <ele>388.029296875</ele>
        <time>2011-10-16T10:50:02Z</time>
      </trkpt>
      <trkpt lat="46.939008962363005" lon="15.86356739513576">
        <ele>386.58740234375</ele>
        <time>2011-10-16T10:50:03Z</time>
      </trkpt>
      <trkpt lat="46.938843335956335" lon="15.863381568342447">
        <ele>387.548583984375</ele>
        <time>2011-10-16T10:50:20Z</time>
      </trkpt>
      <trkpt lat="46.938833864405751" lon="15.863352986052632">
        <ele>386.58740234375</ele>
        <time>2011-10-16T10:50:22Z</time>
      </trkpt>
      <trkpt lat="46.938875438645482" lon="15.863058194518089">
        <ele>386.58740234375</ele>
        <time>2011-10-16T10:50:37Z</time>
      </trkpt>
      <trkpt lat="46.938921539112926" lon="15.862818388268352">
        <ele>386.106689453125</ele>
        <time>2011-10-16T10:50:52Z</time>
      </trkpt>
      <trkpt lat="46.938943164423108" lon="15.862693246454">
        <ele>385.6259765625</ele>
        <time>2011-10-16T10:51:03Z</time>
      </trkpt>
      <trkpt lat="46.938970573246479" lon="15.862558968365192">
        <ele>384.664794921875</ele>
        <time>2011-10-16T10:51:12Z</time>
      </trkpt>
      <trkpt lat="46.93897794932127" lon="15.86241957731545">
        <ele>383.7032470703125</ele>
        <time>2011-10-16T10:51:22Z</time>
      </trkpt>
      <trkpt lat="46.939008543267846" lon="15.862243976444006">
        <ele>383.22265625</ele>
        <time>2011-10-16T10:51:31Z</time>
      </trkpt>
      <trkpt lat="46.938995467498899" lon="15.862107770517468">
        <ele>383.7032470703125</ele>
        <time>2011-10-16T10:51:40Z</time>
      </trkpt>
      <trkpt lat="46.938986331224442" lon="15.861905766651034">
        <ele>382.7420654296875</ele>
        <time>2011-10-16T10:51:49Z</time>
      </trkpt>
      <trkpt lat="46.938992450013757" lon="15.861773332580924">
        <ele>382.7420654296875</ele>
        <time>2011-10-16T10:51:55Z</time>
      </trkpt>
      <trkpt lat="46.938975937664509" lon="15.861595384776592">
        <ele>385.6259765625</ele>
        <time>2011-10-16T10:52:03Z</time>
      </trkpt>
      <trkpt lat="46.938924556598067" lon="15.861396985128522">
        <ele>385.1453857421875</ele>
        <time>2011-10-16T10:52:15Z</time>
      </trkpt>
      <trkpt lat="46.93887535482645" lon="15.861080065369606">
        <ele>385.6259765625</ele>
        <time>2011-10-16T10:52:31Z</time>
      </trkpt>
      <trkpt lat="46.938834954053164" lon="15.860827267169952">
        <ele>384.18408203125</ele>
        <time>2011-10-16T10:52:45Z</time>
      </trkpt>
      <trkpt lat="46.938797235488892" lon="15.860520489513874">
        <ele>384.18408203125</ele>
        <time>2011-10-16T10:53:01Z</time>
      </trkpt>
      <trkpt lat="46.938766976818442" lon="15.860260231420398">
        <ele>382.7420654296875</ele>
        <time>2011-10-16T10:53:15Z</time>
      </trkpt>
      <trkpt lat="46.938716853037477" lon="15.86016015149653">
        <ele>383.22265625</ele>
        <time>2011-10-16T10:53:26Z</time>
      </trkpt>
      <trkpt lat="46.938705118373036" lon="15.860063591971993">
        <ele>382.2613525390625</ele>
        <time>2011-10-16T10:53:32Z</time>
      </trkpt>
      <trkpt lat="46.93865105509758" lon="15.859997542575002">
        <ele>381.7806396484375</ele>
        <time>2011-10-16T10:53:38Z</time>
      </trkpt>
      <trkpt lat="46.938640074804425" lon="15.859922021627426">
        <ele>382.2613525390625</ele>
        <time>2011-10-16T10:53:46Z</time>
      </trkpt>
      <trkpt lat="46.938644265756011" lon="15.859807692468166">
        <ele>382.2613525390625</ele>
        <time>2011-10-16T10:53:51Z</time>
      </trkpt>
      <trkpt lat="46.93855625577271" lon="15.859736278653145">
        <ele>383.7032470703125</ele>
        <time>2011-10-16T10:54:05Z</time>
      </trkpt>
      <trkpt lat="46.938540581613779" lon="15.85971356369555">
        <ele>382.2613525390625</ele>
        <time>2011-10-16T10:54:07Z</time>
      </trkpt>
      <trkpt lat="46.938531780615449" lon="15.859468141570687">
        <ele>382.2613525390625</ele>
        <time>2011-10-16T10:54:19Z</time>
      </trkpt>
      <trkpt lat="46.938312593847513" lon="15.859348447993398">
        <ele>383.7032470703125</ele>
        <time>2011-10-16T10:54:35Z</time>
      </trkpt>
      <trkpt lat="46.938147554174066" lon="15.859170919284225">
        <ele>383.7032470703125</ele>
        <time>2011-10-16T10:54:51Z</time>
      </trkpt>
      <trkpt lat="46.93810673430562" lon="15.859144432470202">
        <ele>384.18408203125</ele>
        <time>2011-10-16T10:54:55Z</time>
      </trkpt>
      <trkpt lat="46.937981341034174" lon="15.858978638425469">
        <ele>385.6259765625</ele>
        <time>2011-10-16T10:55:09Z</time>
      </trkpt>
      <trkpt lat="46.937904059886932" lon="15.858846874907613">
        <ele>385.6259765625</ele>
        <time>2011-10-16T10:55:19Z</time>
      </trkpt>
      <trkpt lat="46.937889140099287" lon="15.858814185485244">
        <ele>386.58740234375</ele>
        <time>2011-10-16T10:55:22Z</time>
      </trkpt>
      <trkpt lat="46.937822168692946" lon="15.858749896287918">
        <ele>387.548583984375</ele>
        <time>2011-10-16T10:55:29Z</time>
      </trkpt>
      <trkpt lat="46.937646232545376" lon="15.858587874099612">
        <ele>389.47119140625</ele>
        <time>2011-10-16T10:55:46Z</time>
      </trkpt>
      <trkpt lat="46.937509942799807" lon="15.85848125629127">
        <ele>392.8359375</ele>
        <time>2011-10-16T10:55:59Z</time>
      </trkpt>
      <trkpt lat="46.937434924766421" lon="15.858400287106633">
        <ele>391.87451171875</ele>
        <time>2011-10-16T10:56:14Z</time>
      </trkpt>
      <trkpt lat="46.937304837629199" lon="15.858282689005136">
        <ele>393.3165283203125</ele>
        <time>2011-10-16T10:56:29Z</time>
      </trkpt>
      <trkpt lat="46.937296036630869" lon="15.858276654034853">
        <ele>393.3165283203125</ele>
        <time>2011-10-16T10:56:30Z</time>
      </trkpt>
      <trkpt lat="46.937274495139718" lon="15.85827405564487">
        <ele>394.758544921875</ele>
        <time>2011-10-16T10:56:32Z</time>
      </trkpt>
      <trkpt lat="46.937140971422195" lon="15.858175987377763">
        <ele>394.2779541015625</ele>
        <time>2011-10-16T10:56:46Z</time>
      </trkpt>
      <trkpt lat="46.937077771872282" lon="15.858141034841537">
        <ele>394.758544921875</ele>
        <time>2011-10-16T10:56:53Z</time>
      </trkpt>
      <trkpt lat="46.937058996409178" lon="15.85812158882618">
        <ele>395.7198486328125</ele>
        <time>2011-10-16T10:56:55Z</time>
      </trkpt>
      <trkpt lat="46.936967298388481" lon="15.858047073706985">
        <ele>395.2391357421875</ele>
        <time>2011-10-16T10:57:05Z</time>
      </trkpt>
      <trkpt lat="46.936941733583808" lon="15.858057551085949">
        <ele>395.2391357421875</ele>
        <time>2011-10-16T10:57:07Z</time>
      </trkpt>
      <trkpt lat="46.936814747750759" lon="15.857952190563083">
        <ele>393.7972412109375</ele>
        <time>2011-10-16T10:57:20Z</time>
      </trkpt>
      <trkpt lat="46.936759343370795" lon="15.857924949377775">
        <ele>393.7972412109375</ele>
        <time>2011-10-16T10:57:26Z</time>
      </trkpt>
      <trkpt lat="46.936680721119046" lon="15.857862588018179">
        <ele>392.8359375</ele>
        <time>2011-10-16T10:57:34Z</time>
      </trkpt>
      <trkpt lat="46.936512580141425" lon="15.857741637155414">
        <ele>391.393798828125</ele>
        <time>2011-10-16T10:57:49Z</time>
      </trkpt>
      <trkpt lat="46.936386097222567" lon="15.857653375715017">
        <ele>389.951904296875</ele>
        <time>2011-10-16T10:58:00Z</time>
      </trkpt>
      <trkpt lat="46.93636673502624" lon="15.857496717944741">
        <ele>383.7032470703125</ele>
        <time>2011-10-16T10:58:11Z</time>
      </trkpt>
      <trkpt lat="46.936364723369479" lon="15.857486240565777">
        <ele>387.0679931640625</ele>
        <time>2011-10-16T10:58:12Z</time>
      </trkpt>
      <trkpt lat="46.936361873522401" lon="15.857477942481637">
        <ele>391.87451171875</ele>
        <time>2011-10-16T10:58:13Z</time>
      </trkpt>
      <trkpt lat="46.936354748904705" lon="15.857470985502005">
        <ele>391.87451171875</ele>
        <time>2011-10-16T10:58:14Z</time>
      </trkpt>
      <trkpt lat="46.936344942077994" lon="15.857464866712689">
        <ele>395.2391357421875</ele>
        <time>2011-10-16T10:58:15Z</time>
      </trkpt>
      <trkpt lat="46.936333458870649" lon="15.857459418475628">
        <ele>390.9132080078125</ele>
        <time>2011-10-16T10:58:16Z</time>
      </trkpt>
      <trkpt lat="46.936329351738095" lon="15.857438379898667">
        <ele>389.951904296875</ele>
        <time>2011-10-16T10:58:18Z</time>
      </trkpt>
      <trkpt lat="46.936302026733756" lon="15.857506860047579">
        <ele>390.4326171875</ele>
        <time>2011-10-16T10:58:39Z</time>
      </trkpt>
      <trkpt lat="46.936229942366481" lon="15.857479283586144">
        <ele>389.47119140625</ele>
        <time>2011-10-16T10:58:51Z</time>
      </trkpt>
      <trkpt lat="46.936204293742776" lon="15.857467297464609">
        <ele>389.47119140625</ele>
        <time>2011-10-16T10:59:03Z</time>
      </trkpt>
      <trkpt lat="46.936040092259645" lon="15.857295971363783">
        <ele>387.548583984375</ele>
        <time>2011-10-16T10:59:20Z</time>
      </trkpt>
      <trkpt lat="46.935963816940784" lon="15.857232520356774">
        <ele>387.0679931640625</ele>
        <time>2011-10-16T10:59:33Z</time>
      </trkpt>
      <trkpt lat="46.935838926583529" lon="15.857016434893012">
        <ele>386.106689453125</ele>
        <time>2011-10-16T10:59:49Z</time>
      </trkpt>
      <trkpt lat="46.935692494735122" lon="15.856783166527748">
        <ele>385.6259765625</ele>
        <time>2011-10-16T11:00:06Z</time>
      </trkpt>
      <trkpt lat="46.935558384284377" lon="15.856646038591862">
        <ele>384.664794921875</ele>
        <time>2011-10-16T11:00:21Z</time>
      </trkpt>
      <trkpt lat="46.935547152534127" lon="15.856651486828923">
        <ele>386.106689453125</ele>
        <time>2011-10-16T11:00:22Z</time>
      </trkpt>
      <trkpt lat="46.935357470065355" lon="15.856577893719077">
        <ele>386.58740234375</ele>
        <time>2011-10-16T11:00:41Z</time>
      </trkpt>
      <trkpt lat="46.935347579419613" lon="15.85657412186265">
        <ele>385.6259765625</ele>
        <time>2011-10-16T11:00:42Z</time>
      </trkpt>
      <trkpt lat="46.935180276632309" lon="15.856470772996545">
        <ele>386.58740234375</ele>
        <time>2011-10-16T11:00:58Z</time>
      </trkpt>
      <trkpt lat="46.934999898076057" lon="15.856392234563828">
        <ele>386.58740234375</ele>
        <time>2011-10-16T11:01:16Z</time>
      </trkpt>
      <trkpt lat="46.934845838695765" lon="15.856212358921766">
        <ele>388.510009765625</ele>
        <time>2011-10-16T11:01:31Z</time>
      </trkpt>
      <trkpt lat="46.934781549498439" lon="15.856137424707413">
        <ele>388.9906005859375</ele>
        <time>2011-10-16T11:01:38Z</time>
      </trkpt>
      <trkpt lat="46.934701418504119" lon="15.855805585160851">
        <ele>389.47119140625</ele>
        <time>2011-10-16T11:01:53Z</time>
      </trkpt>
      <trkpt lat="46.934663280844688" lon="15.855604084208608">
        <ele>390.4326171875</ele>
        <time>2011-10-16T11:02:01Z</time>
      </trkpt>
      <trkpt lat="46.93463989533484" lon="15.855492940172553">
        <ele>389.47119140625</ele>
        <time>2011-10-16T11:02:04Z</time>
      </trkpt>
      <trkpt lat="46.934535289183259" lon="15.855304347351193">
        <ele>388.9906005859375</ele>
        <time>2011-10-16T11:02:17Z</time>
      </trkpt>
      <trkpt lat="46.934457421302795" lon="15.855086334049702">
        <ele>390.9132080078125</ele>
        <time>2011-10-16T11:02:32Z</time>
      </trkpt>
      <trkpt lat="46.934438478201628" lon="15.855013662949204">
        <ele>389.47119140625</ele>
        <time>2011-10-16T11:02:36Z</time>
      </trkpt>
      <trkpt lat="46.934422217309475" lon="15.854858346283436">
        <ele>388.510009765625</ele>
        <time>2011-10-16T11:02:41Z</time>
      </trkpt>
      <trkpt lat="46.934404950588942" lon="15.854742592200637">
        <ele>388.9906005859375</ele>
        <time>2011-10-16T11:02:46Z</time>
      </trkpt>
      <trkpt lat="46.934271845966578" lon="15.854559866711497">
        <ele>388.029296875</ele>
        <time>2011-10-16T11:03:01Z</time>
      </trkpt>
      <trkpt lat="46.934129940345883" lon="15.854432797059417">
        <ele>386.58740234375</ele>
        <time>2011-10-16T11:03:15Z</time>
      </trkpt>
      <trkpt lat="46.933980658650398" lon="15.854269685223699">
        <ele>386.58740234375</ele>
        <time>2011-10-16T11:03:29Z</time>
      </trkpt>
      <trkpt lat="46.933926176279783" lon="15.854254933074117">
        <ele>386.106689453125</ele>
        <time>2011-10-16T11:03:34Z</time>
      </trkpt>
      <trkpt lat="46.933768428862095" lon="15.854137670248747">
        <ele>386.106689453125</ele>
        <time>2011-10-16T11:03:48Z</time>
      </trkpt>
      <trkpt lat="46.933596767485142" lon="15.854053432121873">
        <ele>385.1453857421875</ele>
        <time>2011-10-16T11:04:03Z</time>
      </trkpt>
      <trkpt lat="46.933549828827381" lon="15.854024849832058">
        <ele>384.664794921875</ele>
        <time>2011-10-16T11:04:07Z</time>
      </trkpt>
      <trkpt lat="46.933495094999671" lon="15.853957124054432">
        <ele>384.664794921875</ele>
        <time>2011-10-16T11:04:13Z</time>
      </trkpt>
      <trkpt lat="46.933475062251091" lon="15.853885458782315">
        <ele>385.1453857421875</ele>
        <time>2011-10-16T11:04:17Z</time>
      </trkpt>
      <trkpt lat="46.933328798040748" lon="15.853839525952935">
        <ele>383.7032470703125</ele>
        <time>2011-10-16T11:04:29Z</time>
      </trkpt>
      <trkpt lat="46.933237686753273" lon="15.853777248412371">
        <ele>384.664794921875</ele>
        <time>2011-10-16T11:04:39Z</time>
      </trkpt>
      <trkpt lat="46.933163171634078" lon="15.853681191802025">
        <ele>384.18408203125</ele>
        <time>2011-10-16T11:04:47Z</time>
      </trkpt>
      <trkpt lat="46.932982541620731" lon="15.85366778075695">
        <ele>383.22265625</ele>
        <time>2011-10-16T11:05:01Z</time>
      </trkpt>
      <trkpt lat="46.932906182482839" lon="15.853653447702527">
        <ele>382.2613525390625</ele>
        <time>2011-10-16T11:05:07Z</time>
      </trkpt>
      <trkpt lat="46.932844826951623" lon="15.853627296164632">
        <ele>382.2613525390625</ele>
        <time>2011-10-16T11:05:12Z</time>
      </trkpt>
      <trkpt lat="46.932816160842776" lon="15.85363014601171">
        <ele>383.7032470703125</ele>
        <time>2011-10-16T11:05:14Z</time>
      </trkpt>
      <trkpt lat="46.93271029740572" lon="15.853622518479824">
        <ele>383.7032470703125</ele>
        <time>2011-10-16T11:05:23Z</time>
      </trkpt>
      <trkpt lat="46.932520531117916" lon="15.853556049987674">
        <ele>383.22265625</ele>
        <time>2011-10-16T11:05:37Z</time>
      </trkpt>
      <trkpt lat="46.93248993717134" lon="15.853527886793017">
        <ele>382.7420654296875</ele>
        <time>2011-10-16T11:05:40Z</time>
      </trkpt>
      <trkpt lat="46.93234627135098" lon="15.853399727493525">
        <ele>383.22265625</ele>
        <time>2011-10-16T11:05:57Z</time>
      </trkpt>
      <trkpt lat="46.932288184762001" lon="15.853069396689534">
        <ele>383.7032470703125</ele>
        <time>2011-10-16T11:06:14Z</time>
      </trkpt>
      <trkpt lat="46.932235797867179" lon="15.853042071685195">
        <ele>384.664794921875</ele>
        <time>2011-10-16T11:06:18Z</time>
      </trkpt>
      <trkpt lat="46.932208640500903" lon="15.85303109139204">
        <ele>383.7032470703125</ele>
        <time>2011-10-16T11:06:20Z</time>
      </trkpt>
      <trkpt lat="46.932165054604411" lon="15.852989852428436">
        <ele>384.664794921875</ele>
        <time>2011-10-16T11:06:24Z</time>
      </trkpt>
      <trkpt lat="46.93205357529223" lon="15.852924389764667">
        <ele>383.7032470703125</ele>
        <time>2011-10-16T11:06:34Z</time>
      </trkpt>
      <trkpt lat="46.932025160640478" lon="15.852962359786034">
        <ele>386.58740234375</ele>
        <time>2011-10-16T11:06:47Z</time>
      </trkpt>
      <trkpt lat="46.93198274821043" lon="15.853031845763326">
        <ele>389.47119140625</ele>
        <time>2011-10-16T11:07:00Z</time>
      </trkpt>
      <trkpt lat="46.931900857016444" lon="15.853221444413066">
        <ele>391.393798828125</ele>
        <time>2011-10-16T11:07:17Z</time>
      </trkpt>
      <trkpt lat="46.93178384564817" lon="15.853447085246444">
        <ele>393.7972412109375</ele>
        <time>2011-10-16T11:07:35Z</time>
      </trkpt>
      <trkpt lat="46.931720059365034" lon="15.853537945076823">
        <ele>394.758544921875</ele>
        <time>2011-10-16T11:07:50Z</time>
      </trkpt>
      <trkpt lat="46.931689046323299" lon="15.853525120764971">
        <ele>393.3165283203125</ele>
        <time>2011-10-16T11:08:11Z</time>
      </trkpt>
      <trkpt lat="46.931664319708943" lon="15.85350064560771">
        <ele>393.7972412109375</ele>
        <time>2011-10-16T11:08:18Z</time>
      </trkpt>
      <trkpt lat="46.931497855111957" lon="15.853451360017061">
        <ele>394.758544921875</ele>
        <time>2011-10-16T11:08:34Z</time>
      </trkpt>
      <trkpt lat="46.931381765753031" lon="15.853398889303207">
        <ele>394.2779541015625</ele>
        <time>2011-10-16T11:08:45Z</time>
      </trkpt>
      <trkpt lat="46.931369863450527" lon="15.853389082476497">
        <ele>397.1617431640625</ele>
        <time>2011-10-16T11:08:46Z</time>
      </trkpt>
      <trkpt lat="46.931359050795436" lon="15.853383131325245">
        <ele>395.2391357421875</ele>
        <time>2011-10-16T11:08:47Z</time>
      </trkpt>
      <trkpt lat="46.931258048862219" lon="15.853353291749954">
        <ele>395.2391357421875</ele>
        <time>2011-10-16T11:08:57Z</time>
      </trkpt>
      <trkpt lat="46.931223850697279" lon="15.853342227637768">
        <ele>396.68115234375</ele>
        <time>2011-10-16T11:09:00Z</time>
      </trkpt>
      <trkpt lat="46.931051686406136" lon="15.853251870721579">
        <ele>395.7198486328125</ele>
        <time>2011-10-16T11:09:16Z</time>
      </trkpt>
      <trkpt lat="46.930940542370081" lon="15.853205434978008">
        <ele>397.6424560546875</ele>
        <time>2011-10-16T11:09:26Z</time>
      </trkpt>
      <trkpt lat="46.930882791057229" lon="15.853164447471499">
        <ele>397.1617431640625</ele>
        <time>2011-10-16T11:09:31Z</time>
      </trkpt>
      <trkpt lat="46.93070157431066" lon="15.853057578206062">
        <ele>395.2391357421875</ele>
        <time>2011-10-16T11:09:48Z</time>
      </trkpt>
      <trkpt lat="46.930526560172439" lon="15.8529709931463">
        <ele>397.6424560546875</ele>
        <time>2011-10-16T11:10:04Z</time>
      </trkpt>
      <trkpt lat="46.930363196879625" lon="15.852973675355315">
        <ele>396.2005615234375</ele>
        <time>2011-10-16T11:10:19Z</time>
      </trkpt>
      <trkpt lat="46.930254399776459" lon="15.852972418069839">
        <ele>395.7198486328125</ele>
        <time>2011-10-16T11:10:29Z</time>
      </trkpt>
      <trkpt lat="46.930143171921372" lon="15.852963197976351">
        <ele>394.758544921875</ele>
        <time>2011-10-16T11:10:44Z</time>
      </trkpt>
      <trkpt lat="46.929979054257274" lon="15.852997060865164">
        <ele>397.1617431640625</ele>
        <time>2011-10-16T11:10:59Z</time>
      </trkpt>
      <trkpt lat="46.929893055930734" lon="15.853032348677516">
        <ele>397.6424560546875</ele>
        <time>2011-10-16T11:11:08Z</time>
      </trkpt>
      <trkpt lat="46.929771853610873" lon="15.853062691166997">
        <ele>397.1617431640625</ele>
        <time>2011-10-16T11:11:23Z</time>
      </trkpt>
      <trkpt lat="46.929615866392851" lon="15.853089597076178">
        <ele>401.48779296875</ele>
        <time>2011-10-16T11:11:36Z</time>
      </trkpt>
      <trkpt lat="46.92958602681756" lon="15.853083143010736">
        <ele>398.603759765625</ele>
        <time>2011-10-16T11:11:39Z</time>
      </trkpt>
      <trkpt lat="46.92957429215312" lon="15.853083645924926">
        <ele>401.968505859375</ele>
        <time>2011-10-16T11:11:40Z</time>
      </trkpt>
      <trkpt lat="46.929471949115396" lon="15.853063277900219">
        <ele>398.603759765625</ele>
        <time>2011-10-16T11:11:48Z</time>
      </trkpt>
      <trkpt lat="46.929363654926419" lon="15.853102337568998">
        <ele>398.1231689453125</ele>
        <time>2011-10-16T11:12:03Z</time>
      </trkpt>
      <trkpt lat="46.929294252768159" lon="15.853138128295541">
        <ele>396.68115234375</ele>
        <time>2011-10-16T11:12:10Z</time>
      </trkpt>
      <trkpt lat="46.929174475371838" lon="15.853207278996706">
        <ele>395.2391357421875</ele>
        <time>2011-10-16T11:12:22Z</time>
      </trkpt>
      <trkpt lat="46.929083280265331" lon="15.853321524336934">
        <ele>393.3165283203125</ele>
        <time>2011-10-16T11:12:35Z</time>
      </trkpt>
      <trkpt lat="46.929040364921093" lon="15.853387992829084">
        <ele>392.8359375</ele>
        <time>2011-10-16T11:12:46Z</time>
      </trkpt>
      <trkpt lat="46.928853951394558" lon="15.853503160178661">
        <ele>392.8359375</ele>
        <time>2011-10-16T11:13:02Z</time>
      </trkpt>
      <trkpt lat="46.928836181759834" lon="15.853522941470146">
        <ele>392.8359375</ele>
        <time>2011-10-16T11:13:03Z</time>
      </trkpt>
      <trkpt lat="46.928806342184544" lon="15.853551775217056">
        <ele>391.393798828125</ele>
        <time>2011-10-16T11:13:05Z</time>
      </trkpt>
      <trkpt lat="46.928762421011925" lon="15.853579938411713">
        <ele>392.8359375</ele>
        <time>2011-10-16T11:13:08Z</time>
      </trkpt>
      <trkpt lat="46.928681368008256" lon="15.853647831827402">
        <ele>392.3553466796875</ele>
        <time>2011-10-16T11:13:15Z</time>
      </trkpt>
      <trkpt lat="46.928581120446324" lon="15.853673228994012">
        <ele>390.9132080078125</ele>
        <time>2011-10-16T11:13:30Z</time>
      </trkpt>
      <trkpt lat="46.928422953933477" lon="15.853705750778317">
        <ele>392.3553466796875</ele>
        <time>2011-10-16T11:13:44Z</time>
      </trkpt>
      <trkpt lat="46.92834684625268" lon="15.853707762435079">
        <ele>392.8359375</ele>
        <time>2011-10-16T11:13:51Z</time>
      </trkpt>
      <trkpt lat="46.928215669468045" lon="15.853705583140254">
        <ele>393.7972412109375</ele>
        <time>2011-10-16T11:14:03Z</time>
      </trkpt>
      <trkpt lat="46.927969828248024" lon="15.853567365556955">
        <ele>394.2779541015625</ele>
        <time>2011-10-16T11:14:26Z</time>
      </trkpt>
      <trkpt lat="46.927940491586924" lon="15.853531323373318">
        <ele>393.7972412109375</ele>
        <time>2011-10-16T11:14:29Z</time>
      </trkpt>
      <trkpt lat="46.927825575694442" lon="15.85349234752357">
        <ele>393.7972412109375</ele>
        <time>2011-10-16T11:14:39Z</time>
      </trkpt>
      <trkpt lat="46.927776793017983" lon="15.853523695841432">
        <ele>393.7972412109375</ele>
        <time>2011-10-16T11:14:51Z</time>
      </trkpt>
      <trkpt lat="46.927692638710141" lon="15.853520594537258">
        <ele>397.1617431640625</ele>
        <time>2011-10-16T11:14:59Z</time>
      </trkpt>
      <trkpt lat="46.927681658416986" lon="15.853519421070814">
        <ele>395.7198486328125</ele>
        <time>2011-10-16T11:15:00Z</time>
      </trkpt>
      <trkpt lat="46.927559953182936" lon="15.853491257876158">
        <ele>397.6424560546875</ele>
        <time>2011-10-16T11:15:11Z</time>
      </trkpt>
      <trkpt lat="46.927451742812991" lon="15.853368127718568">
        <ele>397.6424560546875</ele>
        <time>2011-10-16T11:15:23Z</time>
      </trkpt>
      <trkpt lat="46.927371360361576" lon="15.853246254846454">
        <ele>397.1617431640625</ele>
        <time>2011-10-16T11:15:34Z</time>
      </trkpt>
      <trkpt lat="46.927269352599978" lon="15.85317668505013">
        <ele>397.1617431640625</ele>
        <time>2011-10-16T11:15:43Z</time>
      </trkpt>
      <trkpt lat="46.927115377038717" lon="15.853116922080517">
        <ele>398.1231689453125</ele>
        <time>2011-10-16T11:15:55Z</time>
      </trkpt>
      <trkpt lat="46.927041867747903" lon="15.853057578206062">
        <ele>398.603759765625</ele>
        <time>2011-10-16T11:16:05Z</time>
      </trkpt>
      <trkpt lat="46.927032228559256" lon="15.853065457195044">
        <ele>397.6424560546875</ele>
        <time>2011-10-16T11:16:07Z</time>
      </trkpt>
      <trkpt lat="46.926953522488475" lon="15.853031845763326">
        <ele>398.603759765625</ele>
        <time>2011-10-16T11:16:15Z</time>
      </trkpt>
      <trkpt lat="46.926934998482466" lon="15.853046765550971">
        <ele>397.6424560546875</ele>
        <time>2011-10-16T11:16:17Z</time>
      </trkpt>
      <trkpt lat="46.92685654386878" lon="15.853070318698883">
        <ele>397.1617431640625</ele>
        <time>2011-10-16T11:16:27Z</time>
      </trkpt>
      <trkpt lat="46.926703071221709" lon="15.853121196851134">
        <ele>398.1231689453125</ele>
        <time>2011-10-16T11:16:39Z</time>
      </trkpt>
      <trkpt lat="46.926681697368622" lon="15.853120945394039">
        <ele>398.1231689453125</ele>
        <time>2011-10-16T11:16:40Z</time>
      </trkpt>
      <trkpt lat="46.926526967436075" lon="15.853081550449133">
        <ele>396.68115234375</ele>
        <time>2011-10-16T11:16:52Z</time>
      </trkpt>
      <trkpt lat="46.926500229164958" lon="15.853079035878181">
        <ele>395.7198486328125</ele>
        <time>2011-10-16T11:16:54Z</time>
      </trkpt>
      <trkpt lat="46.926325717940927" lon="15.853020781651139">
        <ele>395.7198486328125</ele>
        <time>2011-10-16T11:17:07Z</time>
      </trkpt>
      <trkpt lat="46.926111476495862" lon="15.852959677577019">
        <ele>395.2391357421875</ele>
        <time>2011-10-16T11:17:22Z</time>
      </trkpt>
      <trkpt lat="46.925977198407054" lon="15.852873176336288">
        <ele>396.2005615234375</ele>
        <time>2011-10-16T11:17:34Z</time>
      </trkpt>
      <trkpt lat="46.925837891176343" lon="15.852767983451486">
        <ele>395.2391357421875</ele>
        <time>2011-10-16T11:17:47Z</time>
      </trkpt>
      <trkpt lat="46.925693219527602" lon="15.852728085592389">
        <ele>396.2005615234375</ele>
        <time>2011-10-16T11:17:57Z</time>
      </trkpt>
      <trkpt lat="46.925565227866173" lon="15.852656839415431">
        <ele>394.758544921875</ele>
        <time>2011-10-16T11:18:09Z</time>
      </trkpt>
      <trkpt lat="46.925475960597396" lon="15.852598752826452">
        <ele>395.2391357421875</ele>
        <time>2011-10-16T11:18:17Z</time>
      </trkpt>
      <trkpt lat="46.925308657810092" lon="15.852447878569365">
        <ele>395.2391357421875</ele>
        <time>2011-10-16T11:18:32Z</time>
      </trkpt>
      <trkpt lat="46.925173457711935" lon="15.852292226627469">
        <ele>396.68115234375</ele>
        <time>2011-10-16T11:18:46Z</time>
      </trkpt>
      <trkpt lat="46.925005987286568" lon="15.852171694859862">
        <ele>395.7198486328125</ele>
        <time>2011-10-16T11:19:02Z</time>
      </trkpt>
      <trkpt lat="46.924965837970376" lon="15.852155769243836">
        <ele>396.68115234375</ele>
        <time>2011-10-16T11:19:06Z</time>
      </trkpt>
      <trkpt lat="46.924910936504602" lon="15.852104471996427">
        <ele>397.1617431640625</ele>
        <time>2011-10-16T11:19:13Z</time>
      </trkpt>
      <trkpt lat="46.924857040867209" lon="15.851924428716302">
        <ele>397.1617431640625</ele>
        <time>2011-10-16T11:19:26Z</time>
      </trkpt>
      <trkpt lat="46.924779592081904" lon="15.851764837279916">
        <ele>397.6424560546875</ele>
        <time>2011-10-16T11:19:37Z</time>
      </trkpt>
      <trkpt lat="46.924622431397438" lon="15.851647993549705">
        <ele>397.6424560546875</ele>
        <time>2011-10-16T11:19:51Z</time>
      </trkpt>
      <trkpt lat="46.924511287361383" lon="15.851587979122996">
        <ele>398.603759765625</ele>
        <time>2011-10-16T11:20:04Z</time>
      </trkpt>
      <trkpt lat="46.924427216872573" lon="15.851564342156053">
        <ele>399.0843505859375</ele>
        <time>2011-10-16T11:20:14Z</time>
      </trkpt>
      <trkpt lat="46.924370722845197" lon="15.851555373519659">
        <ele>399.5650634765625</ele>
        <time>2011-10-16T11:20:19Z</time>
      </trkpt>
      <trkpt lat="46.92421498708427" lon="15.851508937776089">
        <ele>401.007080078125</ele>
        <time>2011-10-16T11:20:34Z</time>
      </trkpt>
      <trkpt lat="46.924103675410151" lon="15.851452695205808">
        <ele>401.968505859375</ele>
        <time>2011-10-16T11:20:48Z</time>
      </trkpt>
      <trkpt lat="46.923989681527019" lon="15.851414473727345">
        <ele>401.968505859375</ele>
        <time>2011-10-16T11:21:04Z</time>
      </trkpt>
      <trkpt lat="46.923904772847891" lon="15.851414557546377">
        <ele>402.4490966796875</ele>
        <time>2011-10-16T11:21:16Z</time>
      </trkpt>
      <trkpt lat="46.923785163089633" lon="15.851412797346711">
        <ele>403.410400390625</ele>
        <time>2011-10-16T11:21:28Z</time>
      </trkpt>
      <trkpt lat="46.923752222210169" lon="15.851411623880267">
        <ele>403.410400390625</ele>
        <time>2011-10-16T11:21:31Z</time>
      </trkpt>
      <trkpt lat="46.923593888059258" lon="15.85137315094471">
        <ele>401.007080078125</ele>
        <time>2011-10-16T11:21:44Z</time>
      </trkpt>
      <trkpt lat="46.923567233607173" lon="15.85138295777142">
        <ele>401.48779296875</ele>
        <time>2011-10-16T11:21:47Z</time>
      </trkpt>
      <trkpt lat="46.923410659655929" lon="15.851372061297297">
        <ele>399.5650634765625</ele>
        <time>2011-10-16T11:22:02Z</time>
      </trkpt>
      <trkpt lat="46.923258863389492" lon="15.851387483999133">
        <ele>399.0843505859375</ele>
        <time>2011-10-16T11:22:16Z</time>
      </trkpt>
      <trkpt lat="46.92319524474442" lon="15.851384131237864">
        <ele>398.603759765625</ele>
        <time>2011-10-16T11:22:22Z</time>
      </trkpt>
      <trkpt lat="46.923146462067962" lon="15.851375246420503">
        <ele>399.0843505859375</ele>
        <time>2011-10-16T11:22:26Z</time>
      </trkpt>
      <trkpt lat="46.922925179824233" lon="15.851346580311656">
        <ele>398.603759765625</ele>
        <time>2011-10-16T11:22:43Z</time>
      </trkpt>
      <trkpt lat="46.922829290851951" lon="15.851279860362411">
        <ele>397.6424560546875</ele>
        <time>2011-10-16T11:22:54Z</time>
      </trkpt>
      <trkpt lat="46.922796349972486" lon="15.851267455145717">
        <ele>397.1617431640625</ele>
        <time>2011-10-16T11:23:09Z</time>
      </trkpt>
      <trkpt lat="46.922690151259303" lon="15.851243985816836">
        <ele>396.68115234375</ele>
        <time>2011-10-16T11:23:31Z</time>
      </trkpt>
      <trkpt lat="46.9226039852947" lon="15.851210039108992">
        <ele>395.2391357421875</ele>
        <time>2011-10-16T11:23:50Z</time>
      </trkpt>
      <trkpt lat="46.922438191249967" lon="15.851152623072267">
        <ele>395.2391357421875</ele>
        <time>2011-10-16T11:24:04Z</time>
      </trkpt>
      <trkpt lat="46.922245994210243" lon="15.851121358573437">
        <ele>395.7198486328125</ele>
        <time>2011-10-16T11:24:20Z</time>
      </trkpt>
      <trkpt lat="46.92208506166935" lon="15.851066876202822">
        <ele>395.7198486328125</ele>
        <time>2011-10-16T11:24:35Z</time>
      </trkpt>
      <trkpt lat="46.921982131898403" lon="15.851019099354744">
        <ele>395.7198486328125</ele>
        <time>2011-10-16T11:24:44Z</time>
      </trkpt>
      <trkpt lat="46.921842070296407" lon="15.85092362947762">
        <ele>394.2779541015625</ele>
        <time>2011-10-16T11:24:56Z</time>
      </trkpt>
      <trkpt lat="46.921709552407265" lon="15.850803516805172">
        <ele>394.2779541015625</ele>
        <time>2011-10-16T11:25:08Z</time>
      </trkpt>
      <trkpt lat="46.921671833842993" lon="15.850776443257928">
        <ele>394.758544921875</ele>
        <time>2011-10-16T11:25:11Z</time>
      </trkpt>
      <trkpt lat="46.921629840508103" lon="15.85073503665626">
        <ele>394.758544921875</ele>
        <time>2011-10-16T11:25:15Z</time>
      </trkpt>
      <trkpt lat="46.921430267393589" lon="15.850586676970124">
        <ele>395.2391357421875</ele>
        <time>2011-10-16T11:25:33Z</time>
      </trkpt>
      <trkpt lat="46.921253576874733" lon="15.850462540984154">
        <ele>395.2391357421875</ele>
        <time>2011-10-16T11:25:49Z</time>
      </trkpt>
      <trkpt lat="46.921086944639683" lon="15.850344188511372">
        <ele>393.3165283203125</ele>
        <time>2011-10-16T11:26:04Z</time>
      </trkpt>
      <trkpt lat="46.921055177226663" lon="15.850321892648935">
        <ele>393.3165283203125</ele>
        <time>2011-10-16T11:26:10Z</time>
      </trkpt>
      <trkpt lat="46.920949062332511" lon="15.850199935957789">
        <ele>391.87451171875</ele>
        <time>2011-10-16T11:26:21Z</time>
      </trkpt>
      <trkpt lat="46.920857280492783" lon="15.849904222413898">
        <ele>389.951904296875</ele>
        <time>2011-10-16T11:26:38Z</time>
      </trkpt>
      <trkpt lat="46.920790057629347" lon="15.849656369537115">
        <ele>389.47119140625</ele>
        <time>2011-10-16T11:26:52Z</time>
      </trkpt>
      <trkpt lat="46.920721996575594" lon="15.84938932210207">
        <ele>388.9906005859375</ele>
        <time>2011-10-16T11:27:07Z</time>
      </trkpt>
      <trkpt lat="46.92069492302835" lon="15.849249679595232">
        <ele>388.510009765625</ele>
        <time>2011-10-16T11:27:14Z</time>
      </trkpt>
      <trkpt lat="46.920592244714499" lon="15.849118418991566">
        <ele>388.510009765625</ele>
        <time>2011-10-16T11:27:26Z</time>
      </trkpt>
      <trkpt lat="46.920560980215669" lon="15.849108779802918">
        <ele>388.9906005859375</ele>
        <time>2011-10-16T11:27:29Z</time>
      </trkpt>
      <trkpt lat="46.920514293015003" lon="15.848969556391239">
        <ele>387.548583984375</ele>
        <time>2011-10-16T11:27:39Z</time>
      </trkpt>
      <trkpt lat="46.920432569459081" lon="15.848768474534154">
        <ele>387.0679931640625</ele>
        <time>2011-10-16T11:27:53Z</time>
      </trkpt>
      <trkpt lat="46.920498199760914" lon="15.848651379346848">
        <ele>387.548583984375</ele>
        <time>2011-10-16T11:28:06Z</time>
      </trkpt>
      <trkpt lat="46.920547485351562" lon="15.848639896139503">
        <ele>388.029296875</ele>
        <time>2011-10-16T11:28:20Z</time>
      </trkpt>
      <trkpt lat="46.92055955529213" lon="15.848651127889752">
        <ele>387.548583984375</ele>
        <time>2011-10-16T11:28:50Z</time>
      </trkpt>
      <trkpt lat="46.920642368495464" lon="15.848555574193597">
        <ele>388.029296875</ele>
        <time>2011-10-16T11:29:10Z</time>
      </trkpt>
      <trkpt lat="46.920689977705479" lon="15.848502097651362">
        <ele>387.548583984375</ele>
        <time>2011-10-16T11:29:14Z</time>
      </trkpt>
      <trkpt lat="46.92070079036057" lon="15.848579546436667">
        <ele>387.548583984375</ele>
        <time>2011-10-16T11:29:45Z</time>
      </trkpt>
      <trkpt lat="46.920682098716497" lon="15.848560854792595">
        <ele>387.548583984375</ele>
        <time>2011-10-16T11:30:11Z</time>
      </trkpt>
      <trkpt lat="46.920645218342543" lon="15.848523052409291">
        <ele>388.029296875</ele>
        <time>2011-10-16T11:30:41Z</time>
      </trkpt>
      <trkpt lat="46.92064949311316" lon="15.84850444458425">
        <ele>388.029296875</ele>
        <time>2011-10-16T11:31:07Z</time>
      </trkpt>
      <trkpt lat="46.920654019340873" lon="15.848481561988592">
        <ele>388.029296875</ele>
        <time>2011-10-16T11:31:25Z</time>
      </trkpt>
      <trkpt lat="46.92061185836792" lon="15.848562866449356">
        <ele>387.548583984375</ele>
        <time>2011-10-16T11:31:48Z</time>
      </trkpt>
      <trkpt lat="46.920604733750224" lon="15.848587760701776">
        <ele>381.7806396484375</ele>
        <time>2011-10-16T11:31:56Z</time>
      </trkpt>
      <trkpt lat="46.920602135360241" lon="15.848585246130824">
        <ele>393.7972412109375</ele>
        <time>2011-10-16T11:31:57Z</time>
      </trkpt>
      <trkpt lat="46.920595346018672" lon="15.848589688539505">
        <ele>389.47119140625</ele>
        <time>2011-10-16T11:31:58Z</time>
      </trkpt>
      <trkpt lat="46.920592077076435" lon="15.848586754873395">
        <ele>388.029296875</ele>
        <time>2011-10-16T11:32:00Z</time>
      </trkpt>
      <trkpt lat="46.920534241944551" lon="15.848430348560214">
        <ele>388.029296875</ele>
        <time>2011-10-16T11:32:22Z</time>
      </trkpt>
      <trkpt lat="46.920469282194972" lon="15.848246198147535">
        <ele>388.510009765625</ele>
        <time>2011-10-16T11:32:38Z</time>
      </trkpt>
      <trkpt lat="46.920426869764924" lon="15.847969176247716">
        <ele>388.510009765625</ele>
        <time>2011-10-16T11:32:54Z</time>
      </trkpt>
      <trkpt lat="46.920412369072437" lon="15.847897427156568">
        <ele>388.510009765625</ele>
        <time>2011-10-16T11:32:58Z</time>
      </trkpt>
      <trkpt lat="46.920411782339215" lon="15.847734231501818">
        <ele>388.510009765625</ele>
        <time>2011-10-16T11:33:13Z</time>
      </trkpt>
      <trkpt lat="46.92036509513855" lon="15.847716797143221">
        <ele>391.87451171875</ele>
        <time>2011-10-16T11:33:19Z</time>
      </trkpt>
      <trkpt lat="46.920324945822358" lon="15.847650496289134">
        <ele>389.47119140625</ele>
        <time>2011-10-16T11:33:32Z</time>
      </trkpt>
      <trkpt lat="46.920318575575948" lon="15.847678575664759">
        <ele>385.6259765625</ele>
        <time>2011-10-16T11:33:38Z</time>
      </trkpt>
      <trkpt lat="46.920313127338886" lon="15.847677486017346">
        <ele>392.8359375</ele>
        <time>2011-10-16T11:33:39Z</time>
      </trkpt>
      <trkpt lat="46.920306757092476" lon="15.847637420520186">
        <ele>389.47119140625</ele>
        <time>2011-10-16T11:33:54Z</time>
      </trkpt>
      <trkpt lat="46.92037733271718" lon="15.847558043897152">
        <ele>389.47119140625</ele>
        <time>2011-10-16T11:34:02Z</time>
      </trkpt>
      <trkpt lat="46.920385966077447" lon="15.84737909026444">
        <ele>389.47119140625</ele>
        <time>2011-10-16T11:34:17Z</time>
      </trkpt>
      <trkpt lat="46.920399544760585" lon="15.847350424155593">
        <ele>390.4326171875</ele>
        <time>2011-10-16T11:34:31Z</time>
      </trkpt>
      <trkpt lat="46.920409938320518" lon="15.847224276512861">
        <ele>388.029296875</ele>
        <time>2011-10-16T11:34:45Z</time>
      </trkpt>
      <trkpt lat="46.920406250283122" lon="15.84721296094358">
        <ele>391.393798828125</ele>
        <time>2011-10-16T11:34:46Z</time>
      </trkpt>
      <trkpt lat="46.920408261939883" lon="15.847014477476478">
        <ele>390.4326171875</ele>
        <time>2011-10-16T11:34:59Z</time>
      </trkpt>
      <trkpt lat="46.92047749646008" lon="15.84681716747582">
        <ele>390.4326171875</ele>
        <time>2011-10-16T11:35:14Z</time>
      </trkpt>
      <trkpt lat="46.92054639570415" lon="15.84660803899169">
        <ele>389.47119140625</ele>
        <time>2011-10-16T11:35:28Z</time>
      </trkpt>
      <trkpt lat="46.920623257756233" lon="15.846567638218403">
        <ele>389.47119140625</ele>
        <time>2011-10-16T11:35:40Z</time>
      </trkpt>
      <trkpt lat="46.920723672956228" lon="15.846367394551635">
        <ele>389.47119140625</ele>
        <time>2011-10-16T11:35:54Z</time>
      </trkpt>
      <trkpt lat="46.920829033479095" lon="15.846159188076854">
        <ele>389.951904296875</ele>
        <time>2011-10-16T11:36:08Z</time>
      </trkpt>
      <trkpt lat="46.920892987400293" lon="15.845910161733627">
        <ele>389.951904296875</ele>
        <time>2011-10-16T11:36:22Z</time>
      </trkpt>
      <trkpt lat="46.920944955199957" lon="15.845665158703923">
        <ele>390.4326171875</ele>
        <time>2011-10-16T11:36:35Z</time>
      </trkpt>
      <trkpt lat="46.920983092859387" lon="15.845459131523967">
        <ele>390.4326171875</ele>
        <time>2011-10-16T11:36:48Z</time>
      </trkpt>
      <trkpt lat="46.921059787273407" lon="15.845245392993093">
        <ele>390.4326171875</ele>
        <time>2011-10-16T11:37:02Z</time>
      </trkpt>
      <trkpt lat="46.921064732596278" lon="15.845223683863878">
        <ele>390.9132080078125</ele>
        <time>2011-10-16T11:37:03Z</time>
      </trkpt>
      <trkpt lat="46.921093231067061" lon="15.844924366101623">
        <ele>389.47119140625</ele>
        <time>2011-10-16T11:37:17Z</time>
      </trkpt>
      <trkpt lat="46.921111419796944" lon="15.844885893166065">
        <ele>389.47119140625</ele>
        <time>2011-10-16T11:37:22Z</time>
      </trkpt>
      <trkpt lat="46.92117428407073" lon="15.844830153509974">
        <ele>388.9906005859375</ele>
        <time>2011-10-16T11:37:30Z</time>
      </trkpt>
      <trkpt lat="46.921219294890761" lon="15.844811797142029">
        <ele>388.9906005859375</ele>
        <time>2011-10-16T11:37:35Z</time>
      </trkpt>
      <trkpt lat="46.921234298497438" lon="15.844684476032853">
        <ele>388.510009765625</ele>
        <time>2011-10-16T11:37:42Z</time>
      </trkpt>
      <trkpt lat="46.92128517664969" lon="15.844419188797474">
        <ele>388.9906005859375</ele>
        <time>2011-10-16T11:37:56Z</time>
      </trkpt>
      <trkpt lat="46.92136681638658" lon="15.844153482466936">
        <ele>389.47119140625</ele>
        <time>2011-10-16T11:38:12Z</time>
      </trkpt>
      <trkpt lat="46.921410486102104" lon="15.843963883817196">
        <ele>389.47119140625</ele>
        <time>2011-10-16T11:38:26Z</time>
      </trkpt>
      <trkpt lat="46.921311747282743" lon="15.843875454738736">
        <ele>388.9906005859375</ele>
        <time>2011-10-16T11:38:37Z</time>
      </trkpt>
      <trkpt lat="46.921173697337508" lon="15.843685017898679">
        <ele>388.510009765625</ele>
        <time>2011-10-16T11:38:51Z</time>
      </trkpt>
      <trkpt lat="46.921086274087429" lon="15.843555182218552">
        <ele>388.510009765625</ele>
        <time>2011-10-16T11:39:05Z</time>
      </trkpt>
      <trkpt lat="46.921005472540855" lon="15.843261899426579">
        <ele>390.4326171875</ele>
        <time>2011-10-16T11:39:22Z</time>
      </trkpt>
      <trkpt lat="46.920938920229673" lon="15.843098117038608">
        <ele>389.47119140625</ele>
        <time>2011-10-16T11:39:35Z</time>
      </trkpt>
      <trkpt lat="46.920805145055056" lon="15.842963168397546">
        <ele>389.951904296875</ele>
        <time>2011-10-16T11:39:49Z</time>
      </trkpt>
      <trkpt lat="46.920705819502473" lon="15.842895358800888">
        <ele>391.393798828125</ele>
        <time>2011-10-16T11:40:01Z</time>
      </trkpt>
      <trkpt lat="46.920665167272091" lon="15.842876248061657">
        <ele>390.9132080078125</ele>
        <time>2011-10-16T11:40:05Z</time>
      </trkpt>
      <trkpt lat="46.920487470924854" lon="15.842730067670345">
        <ele>392.3553466796875</ele>
        <time>2011-10-16T11:40:20Z</time>
      </trkpt>
      <trkpt lat="46.920346822589636" lon="15.842556143179536">
        <ele>392.8359375</ele>
        <time>2011-10-16T11:40:36Z</time>
      </trkpt>
      <trkpt lat="46.920277755707502" lon="15.842439886182547">
        <ele>394.758544921875</ele>
        <time>2011-10-16T11:40:48Z</time>
      </trkpt>
      <trkpt lat="46.920139454305172" lon="15.842249616980553">
        <ele>395.7198486328125</ele>
        <time>2011-10-16T11:41:04Z</time>
      </trkpt>
      <trkpt lat="46.920048091560602" lon="15.842172419652343">
        <ele>396.2005615234375</ele>
        <time>2011-10-16T11:41:16Z</time>
      </trkpt>
      <trkpt lat="46.919871233403683" lon="15.842112572863698">
        <ele>397.6424560546875</ele>
        <time>2011-10-16T11:41:32Z</time>
      </trkpt>
      <trkpt lat="46.919787749648094" lon="15.842169066891074">
        <ele>397.6424560546875</ele>
        <time>2011-10-16T11:41:47Z</time>
      </trkpt>
      <trkpt lat="46.919658584520221" lon="15.842246180400252">
        <ele>398.1231689453125</ele>
        <time>2011-10-16T11:42:02Z</time>
      </trkpt>
      <trkpt lat="46.919548194855452" lon="15.842221789062023">
        <ele>398.1231689453125</ele>
        <time>2011-10-16T11:42:16Z</time>
      </trkpt>
      <trkpt lat="46.919454485177994" lon="15.842208378016949">
        <ele>397.6424560546875</ele>
        <time>2011-10-16T11:42:28Z</time>
      </trkpt>
      <trkpt lat="46.91930964589119" lon="15.842212317511439">
        <ele>395.2391357421875</ele>
        <time>2011-10-16T11:42:40Z</time>
      </trkpt>
      <trkpt lat="46.919151227921247" lon="15.842274678871036">
        <ele>396.2005615234375</ele>
        <time>2011-10-16T11:42:53Z</time>
      </trkpt>
      <trkpt lat="46.919134045019746" lon="15.842280043289065">
        <ele>396.2005615234375</ele>
        <time>2011-10-16T11:42:54Z</time>
      </trkpt>
      <trkpt lat="46.91910395398736" lon="15.84227635525167">
        <ele>394.758544921875</ele>
        <time>2011-10-16T11:42:56Z</time>
      </trkpt>
      <trkpt lat="46.918983673676848" lon="15.84223142825067">
        <ele>396.2005615234375</ele>
        <time>2011-10-16T11:43:08Z</time>
      </trkpt>
      <trkpt lat="46.918964982032776" lon="15.84222162142396">
        <ele>394.2779541015625</ele>
        <time>2011-10-16T11:43:10Z</time>
      </trkpt>
      <trkpt lat="46.918821148574352" lon="15.84218205884099">
        <ele>395.2391357421875</ele>
        <time>2011-10-16T11:43:23Z</time>
      </trkpt>
      <trkpt lat="46.918596597388387" lon="15.842179376631975">
        <ele>396.2005615234375</ele>
        <time>2011-10-16T11:43:38Z</time>
      </trkpt>
      <trkpt lat="46.918485453352332" lon="15.842225141823292">
        <ele>395.2391357421875</ele>
        <time>2011-10-16T11:43:47Z</time>
      </trkpt>
      <trkpt lat="46.918376153334975" lon="15.842264788225293">
        <ele>396.2005615234375</ele>
        <time>2011-10-16T11:44:00Z</time>
      </trkpt>
      <trkpt lat="46.918254951015115" lon="15.842284234240651">
        <ele>396.68115234375</ele>
        <time>2011-10-16T11:44:14Z</time>
      </trkpt>
      <trkpt lat="46.918138777837157" lon="15.842318432405591">
        <ele>396.68115234375</ele>
        <time>2011-10-16T11:44:21Z</time>
      </trkpt>
      <trkpt lat="46.918105166405439" lon="15.842329747974873">
        <ele>397.1617431640625</ele>
        <time>2011-10-16T11:44:23Z</time>
      </trkpt>
      <trkpt lat="46.918005589395761" lon="15.842312648892403">
        <ele>398.603759765625</ele>
        <time>2011-10-16T11:44:29Z</time>
      </trkpt>
      <trkpt lat="46.917868461459875" lon="15.842230338603258">
        <ele>397.1617431640625</ele>
        <time>2011-10-16T11:44:41Z</time>
      </trkpt>
      <trkpt lat="46.917679533362389" lon="15.842214664444327">
        <ele>401.007080078125</ele>
        <time>2011-10-16T11:44:55Z</time>
      </trkpt>
      <trkpt lat="46.917543662711978" lon="15.842224638909101">
        <ele>401.48779296875</ele>
        <time>2011-10-16T11:45:06Z</time>
      </trkpt>
      <trkpt lat="46.917509296908975" lon="15.842180466279387">
        <ele>399.5650634765625</ele>
        <time>2011-10-16T11:45:09Z</time>
      </trkpt>
      <trkpt lat="46.917354483157396" lon="15.842121122404933">
        <ele>400.0458984375</ele>
        <time>2011-10-16T11:45:26Z</time>
      </trkpt>
      <trkpt lat="46.917259935289621" lon="15.842114835977554">
        <ele>399.0843505859375</ele>
        <time>2011-10-16T11:45:36Z</time>
      </trkpt>
      <trkpt lat="46.917126746848226" lon="15.84217568859458">
        <ele>397.1617431640625</ele>
        <time>2011-10-16T11:45:49Z</time>
      </trkpt>
      <trkpt lat="46.917113084346056" lon="15.842184154316783">
        <ele>397.1617431640625</ele>
        <time>2011-10-16T11:45:50Z</time>
      </trkpt>
      <trkpt lat="46.916964473202825" lon="15.842194799333811">
        <ele>397.1617431640625</ele>
        <time>2011-10-16T11:46:02Z</time>
      </trkpt>
      <trkpt lat="46.916898256167769" lon="15.842081978917122">
        <ele>396.2005615234375</ele>
        <time>2011-10-16T11:46:18Z</time>
      </trkpt>
      <trkpt lat="46.916895238682628" lon="15.84207653068006">
        <ele>396.68115234375</ele>
        <time>2011-10-16T11:46:19Z</time>
      </trkpt>
      <trkpt lat="46.916752997785807" lon="15.842031436040998">
        <ele>397.1617431640625</ele>
        <time>2011-10-16T11:46:29Z</time>
      </trkpt>
      <trkpt lat="46.916719637811184" lon="15.842040069401264">
        <ele>398.603759765625</ele>
        <time>2011-10-16T11:46:31Z</time>
      </trkpt>
      <trkpt lat="46.916573625057936" lon="15.842014420777559">
        <ele>398.1231689453125</ele>
        <time>2011-10-16T11:46:44Z</time>
      </trkpt>
      <trkpt lat="46.916421661153436" lon="15.841982485726476">
        <ele>398.1231689453125</ele>
        <time>2011-10-16T11:46:56Z</time>
      </trkpt>
      <trkpt lat="46.916277660056949" lon="15.841949880123138">
        <ele>398.1231689453125</ele>
        <time>2011-10-16T11:47:10Z</time>
      </trkpt>
      <trkpt lat="46.916192835196853" lon="15.841928170993924">
        <ele>400.0458984375</ele>
        <time>2011-10-16T11:47:16Z</time>
      </trkpt>
      <trkpt lat="46.916111949831247" lon="15.841869916766882">
        <ele>398.603759765625</ele>
        <time>2011-10-16T11:47:23Z</time>
      </trkpt>
      <trkpt lat="46.915927296504378" lon="15.841809399425983">
        <ele>401.007080078125</ele>
        <time>2011-10-16T11:47:38Z</time>
      </trkpt>
      <trkpt lat="46.915772398933768" lon="15.841700350865722">
        <ele>399.0843505859375</ele>
        <time>2011-10-16T11:47:51Z</time>
      </trkpt>
      <trkpt lat="46.915659159421921" lon="15.841584429144859">
        <ele>400.5264892578125</ele>
        <time>2011-10-16T11:48:04Z</time>
      </trkpt>
      <trkpt lat="46.915575843304396" lon="15.841497592628002">
        <ele>401.007080078125</ele>
        <time>2011-10-16T11:48:14Z</time>
      </trkpt>
      <trkpt lat="46.915396889671683" lon="15.841353088617325">
        <ele>401.007080078125</ele>
        <time>2011-10-16T11:48:30Z</time>
      </trkpt>
      <trkpt lat="46.915284488350153" lon="15.841252254322171">
        <ele>400.5264892578125</ele>
        <time>2011-10-16T11:48:42Z</time>
      </trkpt>
      <trkpt lat="46.915140319615602" lon="15.841183941811323">
        <ele>401.968505859375</ele>
        <time>2011-10-16T11:48:59Z</time>
      </trkpt>
      <trkpt lat="46.91509329713881" lon="15.841104481369257">
        <ele>401.007080078125</ele>
        <time>2011-10-16T11:49:07Z</time>
      </trkpt>
      <trkpt lat="46.914934040978551" lon="15.841054357588291">
        <ele>400.5264892578125</ele>
        <time>2011-10-16T11:49:21Z</time>
      </trkpt>
      <trkpt lat="46.914834380149841" lon="15.841011945158243">
        <ele>400.0458984375</ele>
        <time>2011-10-16T11:49:30Z</time>
      </trkpt>
      <trkpt lat="46.914809569716454" lon="15.840999037027359">
        <ele>401.007080078125</ele>
        <time>2011-10-16T11:49:32Z</time>
      </trkpt>
      <trkpt lat="46.914669759571552" lon="15.840881019830704">
        <ele>400.0458984375</ele>
        <time>2011-10-16T11:49:44Z</time>
      </trkpt>
      <trkpt lat="46.914641680195928" lon="15.840864088386297">
        <ele>400.0458984375</ele>
        <time>2011-10-16T11:49:48Z</time>
      </trkpt>
      <trkpt lat="46.914503546431661" lon="15.840841792523861">
        <ele>399.5650634765625</ele>
        <time>2011-10-16T11:50:01Z</time>
      </trkpt>
      <trkpt lat="46.914410255849361" lon="15.840770797803998">
        <ele>400.0458984375</ele>
        <time>2011-10-16T11:50:15Z</time>
      </trkpt>
      <trkpt lat="46.914362227544188" lon="15.840763673186302">
        <ele>401.48779296875</ele>
        <time>2011-10-16T11:50:19Z</time>
      </trkpt>
      <trkpt lat="46.914208419620991" lon="15.840734587982297">
        <ele>401.007080078125</ele>
        <time>2011-10-16T11:50:31Z</time>
      </trkpt>
      <trkpt lat="46.914179166778922" lon="15.840759398415685">
        <ele>401.007080078125</ele>
        <time>2011-10-16T11:50:35Z</time>
      </trkpt>
      <trkpt lat="46.91402418538928" lon="15.840805331245065">
        <ele>401.968505859375</ele>
        <time>2011-10-16T11:50:49Z</time>
      </trkpt>
      <trkpt lat="46.913839867338538" lon="15.840741544961929">
        <ele>403.89111328125</ele>
        <time>2011-10-16T11:51:04Z</time>
      </trkpt>
      <trkpt lat="46.913726041093469" lon="15.840652193874121">
        <ele>402.9296875</ele>
        <time>2011-10-16T11:51:11Z</time>
      </trkpt>
      <trkpt lat="46.913630738854408" lon="15.840600477531552">
        <ele>403.89111328125</ele>
        <time>2011-10-16T11:51:20Z</time>
      </trkpt>
      <trkpt lat="46.913507357239723" lon="15.840526297688484">
        <ele>404.852294921875</ele>
        <time>2011-10-16T11:51:33Z</time>
      </trkpt>
      <trkpt lat="46.913352040573955" lon="15.840452369302511">
        <ele>404.3717041015625</ele>
        <time>2011-10-16T11:51:47Z</time>
      </trkpt>
      <trkpt lat="46.913242070004344" lon="15.840274421498179">
        <ele>404.3717041015625</ele>
        <time>2011-10-16T11:52:02Z</time>
      </trkpt>
      <trkpt lat="46.913167890161276" lon="15.840029586106539">
        <ele>403.410400390625</ele>
        <time>2011-10-16T11:52:16Z</time>
      </trkpt>
      <trkpt lat="46.913086585700512" lon="15.839771674945951">
        <ele>401.48779296875</ele>
        <time>2011-10-16T11:52:29Z</time>
      </trkpt>
      <trkpt lat="46.913065128028393" lon="15.83971937187016">
        <ele>400.0458984375</ele>
        <time>2011-10-16T11:52:32Z</time>
      </trkpt>
      <trkpt lat="46.912948871031404" lon="15.839606383815408">
        <ele>398.1231689453125</ele>
        <time>2011-10-16T11:52:46Z</time>
      </trkpt>
      <trkpt lat="46.912828842177987" lon="15.839464394375682">
        <ele>396.68115234375</ele>
        <time>2011-10-16T11:52:57Z</time>
      </trkpt>
      <trkpt lat="46.912752985954285" lon="15.839408487081528">
        <ele>394.758544921875</ele>
        <time>2011-10-16T11:53:07Z</time>
      </trkpt>
      <trkpt lat="46.912744352594018" lon="15.839399350807071">
        <ele>394.758544921875</ele>
        <time>2011-10-16T11:53:08Z</time>
      </trkpt>
      <trkpt lat="46.912702862173319" lon="15.83933237940073">
        <ele>393.3165283203125</ele>
        <time>2011-10-16T11:53:20Z</time>
      </trkpt>
      <trkpt lat="46.912628598511219" lon="15.839252164587379">
        <ele>392.8359375</ele>
        <time>2011-10-16T11:53:33Z</time>
      </trkpt>
      <trkpt lat="46.912567829713225" lon="15.839169099926949">
        <ele>391.87451171875</ele>
        <time>2011-10-16T11:53:56Z</time>
      </trkpt>
      <trkpt lat="46.912474790588021" lon="15.839163148775697">
        <ele>393.7972412109375</ele>
        <time>2011-10-16T12:05:05Z</time>
      </trkpt>
      <trkpt lat="46.912533547729254" lon="15.839354423806071">
        <ele>389.47119140625</ele>
        <time>2011-10-16T12:05:11Z</time>
      </trkpt>
      <trkpt lat="46.912543270736933" lon="15.839326679706573">
        <ele>385.1453857421875</ele>
        <time>2011-10-16T12:05:14Z</time>
      </trkpt>
      <trkpt lat="46.912555927410722" lon="15.839309161528945">
        <ele>382.7420654296875</ele>
        <time>2011-10-16T12:05:16Z</time>
      </trkpt>
      <trkpt lat="46.912526087835431" lon="15.839238921180367">
        <ele>379.8580322265625</ele>
        <time>2011-10-16T12:05:20Z</time>
      </trkpt>
      <trkpt lat="46.912511838600039" lon="15.839215368032455">
        <ele>379.8580322265625</ele>
        <time>2011-10-16T12:05:21Z</time>
      </trkpt>
      <trkpt lat="46.912471018731594" lon="15.839211596176028">
        <ele>379.37744140625</ele>
        <time>2011-10-16T12:05:26Z</time>
      </trkpt>
      <trkpt lat="46.912368759512901" lon="15.839167926460505">
        <ele>378.4161376953125</ele>
        <time>2011-10-16T12:05:37Z</time>
      </trkpt>
      <trkpt lat="46.912333723157644" lon="15.839139595627785">
        <ele>377.9354248046875</ele>
        <time>2011-10-16T12:05:43Z</time>
      </trkpt>
      <trkpt lat="46.912289634346962" lon="15.839144038036466">
        <ele>377.454833984375</ele>
        <time>2011-10-16T12:05:47Z</time>
      </trkpt>
      <trkpt lat="46.912110596895218" lon="15.839083939790726">
        <ele>377.454833984375</ele>
        <time>2011-10-16T12:06:03Z</time>
      </trkpt>
      <trkpt lat="46.912049492821097" lon="15.839076228439808">
        <ele>376.4935302734375</ele>
        <time>2011-10-16T12:06:07Z</time>
      </trkpt>
      <trkpt lat="46.911880178377032" lon="15.839033564552665">
        <ele>376.4935302734375</ele>
        <time>2011-10-16T12:06:21Z</time>
      </trkpt>
      <trkpt lat="46.911775656044483" lon="15.839006071910262">
        <ele>375.051513671875</ele>
        <time>2011-10-16T12:06:32Z</time>
      </trkpt>
      <trkpt lat="46.911685885861516" lon="15.838977657258511">
        <ele>374.57080078125</ele>
        <time>2011-10-16T12:06:39Z</time>
      </trkpt>
      <trkpt lat="46.911548590287566" lon="15.838941866531968">
        <ele>374.090087890625</ele>
        <time>2011-10-16T12:06:51Z</time>
      </trkpt>
      <trkpt lat="46.91145982593298" lon="15.83896835334599">
        <ele>373.6094970703125</ele>
        <time>2011-10-16T12:06:58Z</time>
      </trkpt>
      <trkpt lat="46.911317249760032" lon="15.839032726362348">
        <ele>374.57080078125</ele>
        <time>2011-10-16T12:07:10Z</time>
      </trkpt>
      <trkpt lat="46.911164028570056" lon="15.839064074680209">
        <ele>374.090087890625</ele>
        <time>2011-10-16T12:07:22Z</time>
      </trkpt>
      <trkpt lat="46.910984739661217" lon="15.839088633656502">
        <ele>373.6094970703125</ele>
        <time>2011-10-16T12:07:36Z</time>
      </trkpt>
      <trkpt lat="46.910845683887601" lon="15.839104559272528">
        <ele>373.6094970703125</ele>
        <time>2011-10-16T12:07:49Z</time>
      </trkpt>
      <trkpt lat="46.910799834877253" lon="15.839093243703246">
        <ele>372.648193359375</ele>
        <time>2011-10-16T12:07:53Z</time>
      </trkpt>
      <trkpt lat="46.910607386380434" lon="15.838963156566024">
        <ele>374.090087890625</ele>
        <time>2011-10-16T12:08:10Z</time>
      </trkpt>
      <trkpt lat="46.91049724817276" lon="15.838862992823124">
        <ele>374.57080078125</ele>
        <time>2011-10-16T12:08:25Z</time>
      </trkpt>
      <trkpt lat="46.910431617870927" lon="15.838817479088902">
        <ele>375.5321044921875</ele>
        <time>2011-10-16T12:08:34Z</time>
      </trkpt>
      <trkpt lat="46.910372273996472" lon="15.838716058060527">
        <ele>376.4935302734375</ele>
        <time>2011-10-16T12:08:51Z</time>
      </trkpt>
      <trkpt lat="46.910344948992133" lon="15.83872351795435">
        <ele>376.0128173828125</ele>
        <time>2011-10-16T12:09:11Z</time>
      </trkpt>
      <trkpt lat="46.91014738753438" lon="15.838796943426132">
        <ele>374.57080078125</ele>
        <time>2011-10-16T12:09:30Z</time>
      </trkpt>
      <trkpt lat="46.909999866038561" lon="15.838848575949669">
        <ele>373.6094970703125</ele>
        <time>2011-10-16T12:09:45Z</time>
      </trkpt>
      <trkpt lat="46.909826779738069" lon="15.838879169896245">
        <ele>373.6094970703125</ele>
        <time>2011-10-16T12:09:59Z</time>
      </trkpt>
      <trkpt lat="46.909605246037245" lon="15.83895904943347">
        <ele>373.6094970703125</ele>
        <time>2011-10-16T12:10:18Z</time>
      </trkpt>
      <trkpt lat="46.909373570233583" lon="15.839030630886555">
        <ele>374.57080078125</ele>
        <time>2011-10-16T12:10:37Z</time>
      </trkpt>
      <trkpt lat="46.909156395122409" lon="15.839120233431458">
        <ele>375.051513671875</ele>
        <time>2011-10-16T12:10:56Z</time>
      </trkpt>
      <trkpt lat="46.908945674076676" lon="15.83917647600174">
        <ele>376.0128173828125</ele>
        <time>2011-10-16T12:11:16Z</time>
      </trkpt>
      <trkpt lat="46.908788597211242" lon="15.839221989735961">
        <ele>377.9354248046875</ele>
        <time>2011-10-16T12:11:34Z</time>
      </trkpt>
      <trkpt lat="46.908678375184536" lon="15.839224336668849">
        <ele>379.37744140625</ele>
        <time>2011-10-16T12:11:49Z</time>
      </trkpt>
      <trkpt lat="46.908591873943806" lon="15.83923414349556">
        <ele>381.7806396484375</ele>
        <time>2011-10-16T12:12:01Z</time>
      </trkpt>
      <trkpt lat="46.908420128747821" lon="15.839167088270187">
        <ele>380.8194580078125</ele>
        <time>2011-10-16T12:12:16Z</time>
      </trkpt>
      <trkpt lat="46.908369166776538" lon="15.839116293936968">
        <ele>381.300048828125</ele>
        <time>2011-10-16T12:12:24Z</time>
      </trkpt>
      <trkpt lat="46.908221477642655" lon="15.838971119374037">
        <ele>379.8580322265625</ele>
        <time>2011-10-16T12:12:43Z</time>
      </trkpt>
      <trkpt lat="46.908031795173883" lon="15.838893167674541">
        <ele>378.4161376953125</ele>
        <time>2011-10-16T12:13:01Z</time>
      </trkpt>
      <trkpt lat="46.90794562920928" lon="15.838857963681221">
        <ele>378.4161376953125</ele>
        <time>2011-10-16T12:13:14Z</time>
      </trkpt>
      <trkpt lat="46.907792575657368" lon="15.838794345036149">
        <ele>378.4161376953125</ele>
        <time>2011-10-16T12:13:28Z</time>
      </trkpt>
      <trkpt lat="46.907627619802952" lon="15.8387157227844">
        <ele>378.8968505859375</ele>
        <time>2011-10-16T12:13:42Z</time>
      </trkpt>
      <trkpt lat="46.907503651455045" lon="15.83865026012063">
        <ele>378.8968505859375</ele>
        <time>2011-10-16T12:13:51Z</time>
      </trkpt>
      <trkpt lat="46.907412288710475" lon="15.838570296764374">
        <ele>378.8968505859375</ele>
        <time>2011-10-16T12:13:59Z</time>
      </trkpt>
      <trkpt lat="46.907291673123837" lon="15.838433252647519">
        <ele>379.37744140625</ele>
        <time>2011-10-16T12:14:12Z</time>
      </trkpt>
      <trkpt lat="46.907221768051386" lon="15.838359575718641">
        <ele>379.8580322265625</ele>
        <time>2011-10-16T12:14:28Z</time>
      </trkpt>
      <trkpt lat="46.907136272639036" lon="15.838271733373404">
        <ele>380.3387451171875</ele>
        <time>2011-10-16T12:14:56Z</time>
      </trkpt>
      <trkpt lat="46.90708857960999" lon="15.838234685361385">
        <ele>380.8194580078125</ele>
        <time>2011-10-16T12:15:01Z</time>
      </trkpt>
      <trkpt lat="46.907036947086453" lon="15.838194033131003">
        <ele>382.2613525390625</ele>
        <time>2011-10-16T12:15:06Z</time>
      </trkpt>
      <trkpt lat="46.9069844763726" lon="15.838157152757049">
        <ele>381.7806396484375</ele>
        <time>2011-10-16T12:15:10Z</time>
      </trkpt>
      <trkpt lat="46.906904177740216" lon="15.83809319883585">
        <ele>382.7420654296875</ele>
        <time>2011-10-16T12:15:16Z</time>
      </trkpt>
      <trkpt lat="46.906819185242057" lon="15.837918855249882">
        <ele>384.18408203125</ele>
        <time>2011-10-16T12:15:26Z</time>
      </trkpt>
      <trkpt lat="46.90680418163538" lon="15.837893960997462">
        <ele>383.7032470703125</ele>
        <time>2011-10-16T12:15:28Z</time>
      </trkpt>
      <trkpt lat="46.906652469187975" lon="15.837791953235865">
        <ele>384.18408203125</ele>
        <time>2011-10-16T12:15:41Z</time>
      </trkpt>
      <trkpt lat="46.906605362892151" lon="15.837798658758402">
        <ele>384.664794921875</ele>
        <time>2011-10-16T12:15:44Z</time>
      </trkpt>
      <trkpt lat="46.906561441719532" lon="15.837686927989125">
        <ele>385.1453857421875</ele>
        <time>2011-10-16T12:15:54Z</time>
      </trkpt>
      <trkpt lat="46.906439820304513" lon="15.837586931884289">
        <ele>387.0679931640625</ele>
        <time>2011-10-16T12:16:09Z</time>
      </trkpt>
      <trkpt lat="46.906312583014369" lon="15.837447876110673">
        <ele>388.9906005859375</ele>
        <time>2011-10-16T12:16:26Z</time>
      </trkpt>
      <trkpt lat="46.906163552775979" lon="15.837323069572449">
        <ele>388.510009765625</ele>
        <time>2011-10-16T12:16:41Z</time>
      </trkpt>
      <trkpt lat="46.905995327979326" lon="15.837182085961103">
        <ele>388.029296875</ele>
        <time>2011-10-16T12:16:57Z</time>
      </trkpt>
      <trkpt lat="46.905901618301868" lon="15.837054764851928">
        <ele>386.106689453125</ele>
        <time>2011-10-16T12:17:12Z</time>
      </trkpt>
      <trkpt lat="46.905867755413055" lon="15.836995672434568">
        <ele>388.510009765625</ele>
        <time>2011-10-16T12:17:30Z</time>
      </trkpt>
      <trkpt lat="46.905910335481167" lon="15.837004389613867">
        <ele>387.548583984375</ele>
        <time>2011-10-16T12:17:50Z</time>
      </trkpt>
      <trkpt lat="46.905799945816398" lon="15.836936999112368">
        <ele>388.029296875</ele>
        <time>2011-10-16T12:18:14Z</time>
      </trkpt>
      <trkpt lat="46.905666422098875" lon="15.836819736286998">
        <ele>387.0679931640625</ele>
        <time>2011-10-16T12:18:29Z</time>
      </trkpt>
      <trkpt lat="46.905520241707563" lon="15.83668889477849">
        <ele>386.58740234375</ele>
        <time>2011-10-16T12:18:46Z</time>
      </trkpt>
      <trkpt lat="46.905510183423758" lon="15.836698031052947">
        <ele>386.58740234375</ele>
        <time>2011-10-16T12:19:02Z</time>
      </trkpt>
      <trkpt lat="46.905519235879183" lon="15.836646985262632">
        <ele>387.548583984375</ele>
        <time>2011-10-16T12:19:06Z</time>
      </trkpt>
      <trkpt lat="46.905509764328599" lon="15.836566099897027">
        <ele>388.9906005859375</ele>
        <time>2011-10-16T12:19:20Z</time>
      </trkpt>
      <trkpt lat="46.905610263347626" lon="15.836435090750456">
        <ele>390.4326171875</ele>
        <time>2011-10-16T12:19:36Z</time>
      </trkpt>
      <trkpt lat="46.905632391571999" lon="15.836336184293032">
        <ele>389.951904296875</ele>
        <time>2011-10-16T12:19:58Z</time>
      </trkpt>
      <trkpt lat="46.905749486759305" lon="15.836354037746787">
        <ele>390.4326171875</ele>
        <time>2011-10-16T12:20:20Z</time>
      </trkpt>
      <trkpt lat="46.905656447634101" lon="15.836381781846285">
        <ele>381.300048828125</ele>
        <time>2011-10-16T12:21:55Z</time>
      </trkpt>
      <trkpt lat="46.905509093776345" lon="15.836422434076667">
        <ele>389.951904296875</ele>
        <time>2011-10-16T12:24:24Z</time>
      </trkpt>
      <trkpt lat="46.905549662187696" lon="15.836472557857633">
        <ele>389.951904296875</ele>
        <time>2011-10-16T12:24:37Z</time>
      </trkpt>
      <trkpt lat="46.905403062701225" lon="15.836542379111052">
        <ele>388.029296875</ele>
        <time>2011-10-16T12:24:51Z</time>
      </trkpt>
      <trkpt lat="46.905376240611076" lon="15.836550425738096">
        <ele>386.58740234375</ele>
        <time>2011-10-16T12:24:54Z</time>
      </trkpt>
      <trkpt lat="46.905316226184368" lon="15.836486471816897">
        <ele>387.548583984375</ele>
        <time>2011-10-16T12:25:10Z</time>
      </trkpt>
      <trkpt lat="46.905293595045805" lon="15.836472557857633">
        <ele>388.029296875</ele>
        <time>2011-10-16T12:25:19Z</time>
      </trkpt>
      <trkpt lat="46.90525864250958" lon="15.836460990831256">
        <ele>388.9906005859375</ele>
        <time>2011-10-16T12:25:22Z</time>
      </trkpt>
      <trkpt lat="46.905083796009421" lon="15.836306428536773">
        <ele>389.47119140625</ele>
        <time>2011-10-16T12:25:39Z</time>
      </trkpt>
      <trkpt lat="46.904906937852502" lon="15.836089253425598">
        <ele>388.510009765625</ele>
        <time>2011-10-16T12:25:58Z</time>
      </trkpt>
      <trkpt lat="46.904807863757014" lon="15.835999567061663">
        <ele>388.510009765625</ele>
        <time>2011-10-16T12:26:12Z</time>
      </trkpt>
      <trkpt lat="46.904814066365361" lon="15.836013061925769">
        <ele>388.9906005859375</ele>
        <time>2011-10-16T12:26:35Z</time>
      </trkpt>
      <trkpt lat="46.904762769117951" lon="15.83574827760458">
        <ele>388.029296875</ele>
        <time>2011-10-16T12:26:55Z</time>
      </trkpt>
      <trkpt lat="46.904689176008105" lon="15.835540825501084">
        <ele>387.0679931640625</ele>
        <time>2011-10-16T12:27:07Z</time>
      </trkpt>
      <trkpt lat="46.904556825757027" lon="15.83539942279458">
        <ele>387.0679931640625</ele>
        <time>2011-10-16T12:27:18Z</time>
      </trkpt>
      <trkpt lat="46.904541989788413" lon="15.835375366732478">
        <ele>387.548583984375</ele>
        <time>2011-10-16T12:27:19Z</time>
      </trkpt>
      <trkpt lat="46.904496727511287" lon="15.835264977067709">
        <ele>388.510009765625</ele>
        <time>2011-10-16T12:27:27Z</time>
      </trkpt>
      <trkpt lat="46.904399329796433" lon="15.835028439760208">
        <ele>387.548583984375</ele>
        <time>2011-10-16T12:27:39Z</time>
      </trkpt>
      <trkpt lat="46.904355324804783" lon="15.834907488897443">
        <ele>388.029296875</ele>
        <time>2011-10-16T12:27:47Z</time>
      </trkpt>
      <trkpt lat="46.904251892119646" lon="15.834666425362229">
        <ele>389.47119140625</ele>
        <time>2011-10-16T12:27:59Z</time>
      </trkpt>
      <trkpt lat="46.904170252382755" lon="15.834402479231358">
        <ele>389.951904296875</ele>
        <time>2011-10-16T12:28:12Z</time>
      </trkpt>
      <trkpt lat="46.904103280976415" lon="15.834218328818679">
        <ele>390.4326171875</ele>
        <time>2011-10-16T12:28:24Z</time>
      </trkpt>
      <trkpt lat="46.904121972620487" lon="15.834108777344227">
        <ele>390.9132080078125</ele>
        <time>2011-10-16T12:28:32Z</time>
      </trkpt>
      <trkpt lat="46.904088025912642" lon="15.833895122632384">
        <ele>391.393798828125</ele>
        <time>2011-10-16T12:28:44Z</time>
      </trkpt>
      <trkpt lat="46.904054163023829" lon="15.833724550902843">
        <ele>392.8359375</ele>
        <time>2011-10-16T12:28:57Z</time>
      </trkpt>
      <trkpt lat="46.904024742543697" lon="15.833550542593002">
        <ele>393.3165283203125</ele>
        <time>2011-10-16T12:29:09Z</time>
      </trkpt>
      <trkpt lat="46.903901360929012" lon="15.833320626989007">
        <ele>394.758544921875</ele>
        <time>2011-10-16T12:29:27Z</time>
      </trkpt>
      <trkpt lat="46.903891135007143" lon="15.833283830434084">
        <ele>394.758544921875</ele>
        <time>2011-10-16T12:29:30Z</time>
      </trkpt>
      <trkpt lat="46.903657279908657" lon="15.833131028339267">
        <ele>394.758544921875</ele>
        <time>2011-10-16T12:29:44Z</time>
      </trkpt>
      <trkpt lat="46.903487797826529" lon="15.833075623959303">
        <ele>392.3553466796875</ele>
        <time>2011-10-16T12:29:57Z</time>
      </trkpt>
      <trkpt lat="46.903353771194816" lon="15.832949476316571">
        <ele>389.951904296875</ele>
        <time>2011-10-16T12:30:12Z</time>
      </trkpt>
      <trkpt lat="46.903194850310683" lon="15.832824418321252">
        <ele>387.0679931640625</ele>
        <time>2011-10-16T12:30:26Z</time>
      </trkpt>
      <trkpt lat="46.903082197532058" lon="15.832735653966665">
        <ele>386.106689453125</ele>
        <time>2011-10-16T12:30:38Z</time>
      </trkpt>
      <trkpt lat="46.902966527268291" lon="15.832645297050476">
        <ele>384.664794921875</ele>
        <time>2011-10-16T12:30:50Z</time>
      </trkpt>
      <trkpt lat="46.902840966358781" lon="15.832503391429782">
        <ele>383.7032470703125</ele>
        <time>2011-10-16T12:31:00Z</time>
      </trkpt>
      <trkpt lat="46.902737198397517" lon="15.83240213803947">
        <ele>382.7420654296875</ele>
        <time>2011-10-16T12:31:12Z</time>
      </trkpt>
      <trkpt lat="46.90256486646831" lon="15.832222430035472">
        <ele>380.8194580078125</ele>
        <time>2011-10-16T12:31:25Z</time>
      </trkpt>
      <trkpt lat="46.902542654424906" lon="15.832209186628461">
        <ele>380.8194580078125</ele>
        <time>2011-10-16T12:31:27Z</time>
      </trkpt>
      <trkpt lat="46.902359845116735" lon="15.832105418667197">
        <ele>379.8580322265625</ele>
        <time>2011-10-16T12:31:40Z</time>
      </trkpt>
      <trkpt lat="46.902249036356807" lon="15.832045571878552">
        <ele>379.37744140625</ele>
        <time>2011-10-16T12:31:50Z</time>
      </trkpt>
      <trkpt lat="46.90218809992075" lon="15.832023024559021">
        <ele>378.8968505859375</ele>
        <time>2011-10-16T12:31:55Z</time>
      </trkpt>
      <trkpt lat="46.901989616453648" lon="15.832010954618454">
        <ele>378.4161376953125</ele>
        <time>2011-10-16T12:32:12Z</time>
      </trkpt>
      <trkpt lat="46.901806388050318" lon="15.832025120034814">
        <ele>378.4161376953125</ele>
        <time>2011-10-16T12:32:28Z</time>
      </trkpt>
      <trkpt lat="46.901765149086714" lon="15.831994861364365">
        <ele>378.4161376953125</ele>
        <time>2011-10-16T12:32:31Z</time>
      </trkpt>
      <trkpt lat="46.90163011662662" lon="15.832036184147">
        <ele>377.454833984375</ele>
        <time>2011-10-16T12:32:44Z</time>
      </trkpt>
      <trkpt lat="46.901568677276373" lon="15.832038950175047">
        <ele>377.9354248046875</ele>
        <time>2011-10-16T12:32:50Z</time>
      </trkpt>
      <trkpt lat="46.901508746668696" lon="15.832147998735309">
        <ele>379.37744140625</ele>
        <time>2011-10-16T12:33:00Z</time>
      </trkpt>
      <trkpt lat="46.90140388906002" lon="15.832201475277543">
        <ele>379.37744140625</ele>
        <time>2011-10-16T12:33:09Z</time>
      </trkpt>
      <trkpt lat="46.901292828842998" lon="15.832309685647488">
        <ele>379.8580322265625</ele>
        <time>2011-10-16T12:33:22Z</time>
      </trkpt>
      <trkpt lat="46.901169950142503" lon="15.832344722002745">
        <ele>379.37744140625</ele>
        <time>2011-10-16T12:33:33Z</time>
      </trkpt>
      <trkpt lat="46.901126028969884" lon="15.832353355363011">
        <ele>378.8968505859375</ele>
        <time>2011-10-16T12:33:37Z</time>
      </trkpt>
      <trkpt lat="46.900962581858039" lon="15.832439186051488">
        <ele>378.8968505859375</ele>
        <time>2011-10-16T12:33:48Z</time>
      </trkpt>
      <trkpt lat="46.9007867295295" lon="15.832478497177362">
        <ele>377.9354248046875</ele>
        <time>2011-10-16T12:33:59Z</time>
      </trkpt>
      <trkpt lat="46.900742640718818" lon="15.832478497177362">
        <ele>377.9354248046875</ele>
        <time>2011-10-16T12:34:02Z</time>
      </trkpt>
      <trkpt lat="46.900681285187602" lon="15.832510935142636">
        <ele>377.9354248046875</ele>
        <time>2011-10-16T12:34:06Z</time>
      </trkpt>
      <trkpt lat="46.900658067315817" lon="15.832554856315255">
        <ele>377.9354248046875</ele>
        <time>2011-10-16T12:34:11Z</time>
      </trkpt>
      <trkpt lat="46.900545665994287" lon="15.832659462466836">
        <ele>377.454833984375</ele>
        <time>2011-10-16T12:34:22Z</time>
      </trkpt>
      <trkpt lat="46.900414824485779" lon="15.832774126902223">
        <ele>377.454833984375</ele>
        <time>2011-10-16T12:34:36Z</time>
      </trkpt>
      <trkpt lat="46.900354642421007" lon="15.832829531282187">
        <ele>377.454833984375</ele>
        <time>2011-10-16T12:34:42Z</time>
      </trkpt>
      <trkpt lat="46.900193793699145" lon="15.832891138270497">
        <ele>376.9742431640625</ele>
        <time>2011-10-16T12:34:54Z</time>
      </trkpt>
      <trkpt lat="46.899990532547235" lon="15.832915781065822">
        <ele>376.9742431640625</ele>
        <time>2011-10-16T12:35:06Z</time>
      </trkpt>
      <trkpt lat="46.899805627763271" lon="15.83299046382308">
        <ele>376.4935302734375</ele>
        <time>2011-10-16T12:35:20Z</time>
      </trkpt>
      <trkpt lat="46.899727089330554" lon="15.833002785220742">
        <ele>377.454833984375</ele>
        <time>2011-10-16T12:35:25Z</time>
      </trkpt>
      <trkpt lat="46.89951142296195" lon="15.83303983323276">
        <ele>376.9742431640625</ele>
        <time>2011-10-16T12:35:40Z</time>
      </trkpt>
      <trkpt lat="46.89930078573525" lon="15.83310722373426">
        <ele>377.454833984375</ele>
        <time>2011-10-16T12:35:55Z</time>
      </trkpt>
      <trkpt lat="46.899126274511218" lon="15.833156928420067">
        <ele>377.454833984375</ele>
        <time>2011-10-16T12:36:10Z</time>
      </trkpt>
      <trkpt lat="46.898975735530257" lon="15.833045616745949">
        <ele>377.454833984375</ele>
        <time>2011-10-16T12:36:25Z</time>
      </trkpt>
      <trkpt lat="46.898807175457478" lon="15.832938579842448">
        <ele>376.9742431640625</ele>
        <time>2011-10-16T12:36:41Z</time>
      </trkpt>
      <trkpt lat="46.898637358099222" lon="15.832869848236442">
        <ele>377.454833984375</ele>
        <time>2011-10-16T12:36:56Z</time>
      </trkpt>
      <trkpt lat="46.898425882682204" lon="15.832807067781687">
        <ele>377.454833984375</ele>
        <time>2011-10-16T12:37:13Z</time>
      </trkpt>
      <trkpt lat="46.898262770846486" lon="15.832704724743962">
        <ele>376.9742431640625</ele>
        <time>2011-10-16T12:37:27Z</time>
      </trkpt>
      <trkpt lat="46.898054396733642" lon="15.832721153274179">
        <ele>377.9354248046875</ele>
        <time>2011-10-16T12:37:42Z</time>
      </trkpt>
      <trkpt lat="46.897827079519629" lon="15.832682428881526">
        <ele>380.8194580078125</ele>
        <time>2011-10-16T12:37:57Z</time>
      </trkpt>
      <trkpt lat="46.897671176120639" lon="15.832655858248472">
        <ele>381.7806396484375</ele>
        <time>2011-10-16T12:38:10Z</time>
      </trkpt>
      <trkpt lat="46.897533126175404" lon="15.832704473286867">
        <ele>382.2613525390625</ele>
        <time>2011-10-16T12:38:21Z</time>
      </trkpt>
      <trkpt lat="46.897361883893609" lon="15.83275786601007">
        <ele>382.2613525390625</ele>
        <time>2011-10-16T12:38:35Z</time>
      </trkpt>
      <trkpt lat="46.897274879738688" lon="15.832892647013068">
        <ele>382.7420654296875</ele>
        <time>2011-10-16T12:38:48Z</time>
      </trkpt>
      <trkpt lat="46.897263564169407" lon="15.832900693640113">
        <ele>382.7420654296875</ele>
        <time>2011-10-16T12:38:49Z</time>
      </trkpt>
      <trkpt lat="46.897175135090947" lon="15.833043269813061">
        <ele>382.2613525390625</ele>
        <time>2011-10-16T12:39:02Z</time>
      </trkpt>
      <trkpt lat="46.897157616913319" lon="15.833118036389351">
        <ele>383.22265625</ele>
        <time>2011-10-16T12:39:08Z</time>
      </trkpt>
      <trkpt lat="46.897114031016827" lon="15.83320252597332">
        <ele>383.7032470703125</ele>
        <time>2011-10-16T12:39:14Z</time>
      </trkpt>
      <trkpt lat="46.896946728229523" lon="15.833329679444432">
        <ele>384.664794921875</ele>
        <time>2011-10-16T12:39:29Z</time>
      </trkpt>
      <trkpt lat="46.896779090166092" lon="15.833456078544259">
        <ele>386.106689453125</ele>
        <time>2011-10-16T12:39:44Z</time>
      </trkpt>
      <trkpt lat="46.896688649430871" lon="15.833522127941251">
        <ele>386.58740234375</ele>
        <time>2011-10-16T12:39:51Z</time>
      </trkpt>
      <trkpt lat="46.896587228402495" lon="15.833633188158274">
        <ele>386.106689453125</ele>
        <time>2011-10-16T12:40:04Z</time>
      </trkpt>
      <trkpt lat="46.896442221477628" lon="15.833729999139905">
        <ele>386.58740234375</ele>
        <time>2011-10-16T12:40:18Z</time>
      </trkpt>
      <trkpt lat="46.896430319175124" lon="15.833736788481474">
        <ele>386.58740234375</ele>
        <time>2011-10-16T12:40:19Z</time>
      </trkpt>
      <trkpt lat="46.896288748830557" lon="15.833801329135895">
        <ele>386.58740234375</ele>
        <time>2011-10-16T12:40:31Z</time>
      </trkpt>
      <trkpt lat="46.896119769662619" lon="15.833852794021368">
        <ele>386.106689453125</ele>
        <time>2011-10-16T12:40:45Z</time>
      </trkpt>
      <trkpt lat="46.895978786051273" lon="15.833919933065772">
        <ele>386.58740234375</ele>
        <time>2011-10-16T12:40:58Z</time>
      </trkpt>
      <trkpt lat="46.895809471607208" lon="15.834029316902161">
        <ele>385.6259765625</ele>
        <time>2011-10-16T12:41:12Z</time>
      </trkpt>
      <trkpt lat="46.89579488709569" lon="15.834032585844398">
        <ele>386.58740234375</ele>
        <time>2011-10-16T12:41:13Z</time>
      </trkpt>
      <trkpt lat="46.895638648420572" lon="15.834095953032374">
        <ele>386.58740234375</ele>
        <time>2011-10-16T12:41:25Z</time>
      </trkpt>
      <trkpt lat="46.895458688959479" lon="15.834142053499818">
        <ele>386.106689453125</ele>
        <time>2011-10-16T12:41:37Z</time>
      </trkpt>
      <trkpt lat="46.895312927663326" lon="15.834206929430366">
        <ele>387.0679931640625</ele>
        <time>2011-10-16T12:41:49Z</time>
      </trkpt>
      <trkpt lat="46.895131878554821" lon="15.834259064868093">
        <ele>386.58740234375</ele>
        <time>2011-10-16T12:42:03Z</time>
      </trkpt>
      <trkpt lat="46.895080246031284" lon="15.83427557721734">
        <ele>386.106689453125</ele>
        <time>2011-10-16T12:42:07Z</time>
      </trkpt>
      <trkpt lat="46.894956696778536" lon="15.834280522540212">
        <ele>387.548583984375</ele>
        <time>2011-10-16T12:42:18Z</time>
      </trkpt>
      <trkpt lat="46.894823089241982" lon="15.834328550845385">
        <ele>387.548583984375</ele>
        <time>2011-10-16T12:42:32Z</time>
      </trkpt>
      <trkpt lat="46.894820323213935" lon="15.834316648542881">
        <ele>384.18408203125</ele>
        <time>2011-10-16T12:42:33Z</time>
      </trkpt>
      <trkpt lat="46.894815377891064" lon="15.834308853372931">
        <ele>390.4326171875</ele>
        <time>2011-10-16T12:42:34Z</time>
      </trkpt>
      <trkpt lat="46.894813785329461" lon="15.834291083738208">
        <ele>387.0679931640625</ele>
        <time>2011-10-16T12:42:36Z</time>
      </trkpt>
      <trkpt lat="46.894763745367527" lon="15.834290748462081">
        <ele>386.58740234375</ele>
        <time>2011-10-16T12:42:50Z</time>
      </trkpt>
      <trkpt lat="46.894717644900084" lon="15.834367191419005">
        <ele>388.029296875</ele>
        <time>2011-10-16T12:43:01Z</time>
      </trkpt>
      <trkpt lat="46.894506588578224" lon="15.834412621334195">
        <ele>388.9906005859375</ele>
        <time>2011-10-16T12:43:18Z</time>
      </trkpt>
      <trkpt lat="46.894310871139169" lon="15.834495183080435">
        <ele>389.951904296875</ele>
        <time>2011-10-16T12:43:32Z</time>
      </trkpt>
      <trkpt lat="46.894084727391601" lon="15.834535751491785">
        <ele>389.47119140625</ele>
        <time>2011-10-16T12:43:47Z</time>
      </trkpt>
      <trkpt lat="46.89396059140563" lon="15.834570368751884">
        <ele>390.4326171875</ele>
        <time>2011-10-16T12:43:58Z</time>
      </trkpt>
      <trkpt lat="46.89390292391181" lon="15.834557376801968">
        <ele>391.87451171875</ele>
        <time>2011-10-16T12:44:03Z</time>
      </trkpt>
      <trkpt lat="46.89379739575088" lon="15.83460733294487">
        <ele>390.4326171875</ele>
        <time>2011-10-16T12:44:15Z</time>
      </trkpt>
      <trkpt lat="46.893612071871758" lon="15.834597442299128">
        <ele>391.393798828125</ele>
        <time>2011-10-16T12:44:27Z</time>
      </trkpt>
      <trkpt lat="46.893526995554566" lon="15.834603644907475">
        <ele>390.9132080078125</ele>
        <time>2011-10-16T12:44:37Z</time>
      </trkpt>
      <trkpt lat="46.893258523195982" lon="15.834496859461069">
        <ele>388.9906005859375</ele>
        <time>2011-10-16T12:44:50Z</time>
      </trkpt>
      <trkpt lat="46.893060291185975" lon="15.834445059299469">
        <ele>390.4326171875</ele>
        <time>2011-10-16T12:45:02Z</time>
      </trkpt>
      <trkpt lat="46.892978819087148" lon="15.834499541670084">
        <ele>389.47119140625</ele>
        <time>2011-10-16T12:45:12Z</time>
      </trkpt>
      <trkpt lat="46.89283087849617" lon="15.834514880552888">
        <ele>390.9132080078125</ele>
        <time>2011-10-16T12:45:27Z</time>
      </trkpt>
      <trkpt lat="46.892777066677809" lon="15.834514461457729">
        <ele>392.3553466796875</ele>
        <time>2011-10-16T12:45:41Z</time>
      </trkpt>
      <trkpt lat="46.892686625942588" lon="15.834456961601973">
        <ele>392.3553466796875</ele>
        <time>2011-10-16T12:45:53Z</time>
      </trkpt>
      <trkpt lat="46.892571877688169" lon="15.834387056529522">
        <ele>391.393798828125</ele>
        <time>2011-10-16T12:46:03Z</time>
      </trkpt>
      <trkpt lat="46.892466936260462" lon="15.834350092336535">
        <ele>392.3553466796875</ele>
        <time>2011-10-16T12:46:11Z</time>
      </trkpt>
      <trkpt lat="46.892376830801368" lon="15.834379596635699">
        <ele>392.3553466796875</ele>
        <time>2011-10-16T12:46:21Z</time>
      </trkpt>
      <trkpt lat="46.892379093915224" lon="15.834393594413996">
        <ele>392.8359375</ele>
        <time>2011-10-16T12:46:23Z</time>
      </trkpt>
      <trkpt lat="46.892299382016063" lon="15.83446903154254">
        <ele>392.8359375</ele>
        <time>2011-10-16T12:46:33Z</time>
      </trkpt>
      <trkpt lat="46.892159571871161" lon="15.834561735391617">
        <ele>393.7972412109375</ele>
        <time>2011-10-16T12:46:48Z</time>
      </trkpt>
      <trkpt lat="46.892044572159648" lon="15.834652092307806">
        <ele>394.2779541015625</ele>
        <time>2011-10-16T12:47:02Z</time>
      </trkpt>
      <trkpt lat="46.892028227448463" lon="15.834811683744192">
        <ele>395.2391357421875</ele>
        <time>2011-10-16T12:47:12Z</time>
      </trkpt>
      <trkpt lat="46.89201045781374" lon="15.834981333464384">
        <ele>393.7972412109375</ele>
        <time>2011-10-16T12:47:22Z</time>
      </trkpt>
      <trkpt lat="46.892044320702553" lon="15.83511552773416">
        <ele>395.2391357421875</ele>
        <time>2011-10-16T12:47:26Z</time>
      </trkpt>
      <trkpt lat="46.892126547172666" lon="15.835318537428975">
        <ele>395.7198486328125</ele>
        <time>2011-10-16T12:47:37Z</time>
      </trkpt>
      <trkpt lat="46.892230650410056" lon="15.835643839091063">
        <ele>394.758544921875</ele>
        <time>2011-10-16T12:47:48Z</time>
      </trkpt>
      <trkpt lat="46.892191171646118" lon="15.835837041959167">
        <ele>394.2779541015625</ele>
        <time>2011-10-16T12:47:59Z</time>
      </trkpt>
      <trkpt lat="46.892150854691863" lon="15.83605027757585">
        <ele>395.7198486328125</ele>
        <time>2011-10-16T12:48:09Z</time>
      </trkpt>
      <trkpt lat="46.892012720927596" lon="15.836360491812229">
        <ele>395.7198486328125</ele>
        <time>2011-10-16T12:48:24Z</time>
      </trkpt>
      <trkpt lat="46.891985228285193" lon="15.836428049951792">
        <ele>396.2005615234375</ele>
        <time>2011-10-16T12:48:28Z</time>
      </trkpt>
      <trkpt lat="46.891914652660489" lon="15.836620917543769">
        <ele>395.7198486328125</ele>
        <time>2011-10-16T12:48:40Z</time>
      </trkpt>
      <trkpt lat="46.891870647668839" lon="15.83667179569602">
        <ele>395.7198486328125</ele>
        <time>2011-10-16T12:48:46Z</time>
      </trkpt>
      <trkpt lat="46.891836952418089" lon="15.836700042709708">
        <ele>395.2391357421875</ele>
        <time>2011-10-16T12:48:49Z</time>
      </trkpt>
      <trkpt lat="46.89169286750257" lon="15.836755530908704">
        <ele>394.758544921875</ele>
        <time>2011-10-16T12:49:00Z</time>
      </trkpt>
      <trkpt lat="46.891676690429449" lon="15.836764499545097">
        <ele>394.758544921875</ele>
        <time>2011-10-16T12:49:02Z</time>
      </trkpt>
      <trkpt lat="46.891589099541306" lon="15.836942363530397">
        <ele>394.2779541015625</ele>
        <time>2011-10-16T12:49:15Z</time>
      </trkpt>
      <trkpt lat="46.891550878062844" lon="15.836942950263619">
        <ele>393.7972412109375</ele>
        <time>2011-10-16T12:49:17Z</time>
      </trkpt>
      <trkpt lat="46.891343174502254" lon="15.836975974962115">
        <ele>393.3165283203125</ele>
        <time>2011-10-16T12:49:27Z</time>
      </trkpt>
      <trkpt lat="46.891108145937324" lon="15.837109079584479">
        <ele>393.7972412109375</ele>
        <time>2011-10-16T12:49:40Z</time>
      </trkpt>
      <trkpt lat="46.891053328290582" lon="15.837123161181808">
        <ele>394.758544921875</ele>
        <time>2011-10-16T12:49:45Z</time>
      </trkpt>
      <trkpt lat="46.890967665240169" lon="15.837151492014527">
        <ele>394.2779541015625</ele>
        <time>2011-10-16T12:49:55Z</time>
      </trkpt>
      <trkpt lat="46.890810085460544" lon="15.837194826453924">
        <ele>394.2779541015625</ele>
        <time>2011-10-16T12:50:05Z</time>
      </trkpt>
      <trkpt lat="46.890649823471904" lon="15.837168674916029">
        <ele>394.2779541015625</ele>
        <time>2011-10-16T12:50:16Z</time>
      </trkpt>
      <trkpt lat="46.890619480982423" lon="15.837240424007177">
        <ele>393.3165283203125</ele>
        <time>2011-10-16T12:50:25Z</time>
      </trkpt>
      <trkpt lat="46.890627443790436" lon="15.837294235825539">
        <ele>393.7972412109375</ele>
        <time>2011-10-16T12:50:28Z</time>
      </trkpt>
      <trkpt lat="46.89052015542984" lon="15.837352490052581">
        <ele>394.758544921875</ele>
        <time>2011-10-16T12:50:39Z</time>
      </trkpt>
      <trkpt lat="46.890296274796128" lon="15.837342934682965">
        <ele>393.7972412109375</ele>
        <time>2011-10-16T12:50:51Z</time>
      </trkpt>
      <trkpt lat="46.890284037217498" lon="15.837361458688974">
        <ele>393.3165283203125</ele>
        <time>2011-10-16T12:50:57Z</time>
      </trkpt>
      <trkpt lat="46.890232572332025" lon="15.837391465902328">
        <ele>394.2779541015625</ele>
        <time>2011-10-16T12:51:03Z</time>
      </trkpt>
      <trkpt lat="46.890048673376441" lon="15.837474362924695">
        <ele>393.7972412109375</ele>
        <time>2011-10-16T12:51:15Z</time>
      </trkpt>
      <trkpt lat="46.889942223206162" lon="15.837538484483957">
        <ele>393.3165283203125</ele>
        <time>2011-10-16T12:51:25Z</time>
      </trkpt>
      <trkpt lat="46.889846250414848" lon="15.837588859722018">
        <ele>392.8359375</ele>
        <time>2011-10-16T12:51:34Z</time>
      </trkpt>
      <trkpt lat="46.889628823846579" lon="15.837672678753734">
        <ele>391.87451171875</ele>
        <time>2011-10-16T12:51:49Z</time>
      </trkpt>
      <trkpt lat="46.88963083550334" lon="15.837685083970428">
        <ele>392.8359375</ele>
        <time>2011-10-16T12:51:50Z</time>
      </trkpt>
      <trkpt lat="46.889543244615197" lon="15.837730430066586">
        <ele>392.3553466796875</ele>
        <time>2011-10-16T12:51:55Z</time>
      </trkpt>
      <trkpt lat="46.889362698420882" lon="15.837838221341372">
        <ele>391.87451171875</ele>
        <time>2011-10-16T12:52:09Z</time>
      </trkpt>
      <trkpt lat="46.889358758926392" lon="15.837862277403474">
        <ele>392.3553466796875</ele>
        <time>2011-10-16T12:52:10Z</time>
      </trkpt>
      <trkpt lat="46.889320118352771" lon="15.838049780577421">
        <ele>391.393798828125</ele>
        <time>2011-10-16T12:52:22Z</time>
      </trkpt>
      <trkpt lat="46.889246860519052" lon="15.83811323158443">
        <ele>389.951904296875</ele>
        <time>2011-10-16T12:52:30Z</time>
      </trkpt>
      <trkpt lat="46.889193467795849" lon="15.838189255446196">
        <ele>388.510009765625</ele>
        <time>2011-10-16T12:52:37Z</time>
      </trkpt>
      <trkpt lat="46.889067739248276" lon="15.838243821635842">
        <ele>388.029296875</ele>
        <time>2011-10-16T12:52:42Z</time>
      </trkpt>
      <trkpt lat="46.889010658487678" lon="15.83828623406589">
        <ele>386.58740234375</ele>
        <time>2011-10-16T12:52:47Z</time>
      </trkpt>
      <trkpt lat="46.888976627960801" lon="15.838464852422476">
        <ele>384.664794921875</ele>
        <time>2011-10-16T12:52:57Z</time>
      </trkpt>
      <trkpt lat="46.888976376503706" lon="15.838471222668886">
        <ele>384.18408203125</ele>
        <time>2011-10-16T12:52:58Z</time>
      </trkpt>
      <trkpt lat="46.888841260224581" lon="15.838610697537661">
        <ele>381.7806396484375</ele>
        <time>2011-10-16T12:53:11Z</time>
      </trkpt>
      <trkpt lat="46.888822568580508" lon="15.8387191593647">
        <ele>378.8968505859375</ele>
        <time>2011-10-16T12:53:20Z</time>
      </trkpt>
      <trkpt lat="46.888697426766157" lon="15.838852431625128">
        <ele>378.4161376953125</ele>
        <time>2011-10-16T12:53:30Z</time>
      </trkpt>
      <trkpt lat="46.888648476451635" lon="15.838876320049167">
        <ele>377.454833984375</ele>
        <time>2011-10-16T12:53:35Z</time>
      </trkpt>
      <trkpt lat="46.888572033494711" lon="15.838865339756012">
        <ele>376.4935302734375</ele>
        <time>2011-10-16T12:53:39Z</time>
      </trkpt>
      <trkpt lat="46.888498775660992" lon="15.83897715434432">
        <ele>376.4935302734375</ele>
        <time>2011-10-16T12:53:45Z</time>
      </trkpt>
      <trkpt lat="46.88844203017652" lon="15.839068433269858">
        <ele>373.6094970703125</ele>
        <time>2011-10-16T12:53:55Z</time>
      </trkpt>
      <trkpt lat="46.888421075418591" lon="15.839078575372696">
        <ele>373.6094970703125</ele>
        <time>2011-10-16T12:53:57Z</time>
      </trkpt>
      <trkpt lat="46.888350248336792" lon="15.839229533448815">
        <ele>371.6868896484375</ele>
        <time>2011-10-16T12:54:09Z</time>
      </trkpt>
      <trkpt lat="46.88832325860858" lon="15.839328523725271">
        <ele>369.28369140625</ele>
        <time>2011-10-16T12:54:15Z</time>
      </trkpt>
      <trkpt lat="46.888181436806917" lon="15.839416449889541">
        <ele>368.322265625</ele>
        <time>2011-10-16T12:54:24Z</time>
      </trkpt>
      <trkpt lat="46.888075321912766" lon="15.839490965008736">
        <ele>368.802978515625</ele>
        <time>2011-10-16T12:54:30Z</time>
      </trkpt>
      <trkpt lat="46.88804523088038" lon="15.839547794312239">
        <ele>367.3609619140625</ele>
        <time>2011-10-16T12:54:36Z</time>
      </trkpt>
      <trkpt lat="46.888022935017943" lon="15.839568162336946">
        <ele>368.802978515625</ele>
        <time>2011-10-16T12:54:43Z</time>
      </trkpt>
      <trkpt lat="46.88796509988606" lon="15.839672768488526">
        <ele>367.841552734375</ele>
        <time>2011-10-16T12:54:52Z</time>
      </trkpt>
      <trkpt lat="46.887852950021625" lon="15.840015085414052">
        <ele>364.9576416015625</ele>
        <time>2011-10-16T12:55:11Z</time>
      </trkpt>
      <trkpt lat="46.887857224792242" lon="15.840027825906873">
        <ele>364.4769287109375</ele>
        <time>2011-10-16T12:55:12Z</time>
      </trkpt>
      <trkpt lat="46.887841634452343" lon="15.84010049700737">
        <ele>363.996337890625</ele>
        <time>2011-10-16T12:55:17Z</time>
      </trkpt>
      <trkpt lat="46.887810034677386" lon="15.84031205624342">
        <ele>362.07373046875</ele>
        <time>2011-10-16T12:55:31Z</time>
      </trkpt>
      <trkpt lat="46.887735351920128" lon="15.840440467000008">
        <ele>361.5931396484375</ele>
        <time>2011-10-16T12:55:41Z</time>
      </trkpt>
      <trkpt lat="46.88766997307539" lon="15.840457733720541">
        <ele>361.5931396484375</ele>
        <time>2011-10-16T12:55:45Z</time>
      </trkpt>
      <trkpt lat="46.887648934498429" lon="15.840512551367283">
        <ele>360.6317138671875</ele>
        <time>2011-10-16T12:55:51Z</time>
      </trkpt>
      <trkpt lat="46.887717247009277" lon="15.840726876631379">
        <ele>359.189697265625</ele>
        <time>2011-10-16T12:56:05Z</time>
      </trkpt>
      <trkpt lat="46.887781284749508" lon="15.840965425595641">
        <ele>358.708984375</ele>
        <time>2011-10-16T12:56:21Z</time>
      </trkpt>
      <trkpt lat="46.887732921168208" lon="15.840991996228695">
        <ele>357.26708984375</ele>
        <time>2011-10-16T12:56:34Z</time>
      </trkpt>
      <trkpt lat="46.887741722166538" lon="15.84099568426609">
        <ele>356.786376953125</ele>
        <time>2011-10-16T12:56:35Z</time>
      </trkpt>
      <trkpt lat="46.887825289741158" lon="15.841195425018668">
        <ele>357.747802734375</ele>
        <time>2011-10-16T12:56:48Z</time>
      </trkpt>
      <trkpt lat="46.887880358844995" lon="15.841316878795624">
        <ele>357.747802734375</ele>
        <time>2011-10-16T12:57:02Z</time>
      </trkpt>
      <trkpt lat="46.887859990820289" lon="15.841350574046373">
        <ele>357.747802734375</ele>
        <time>2011-10-16T12:57:16Z</time>
      </trkpt>
      <trkpt lat="46.887854961678386" lon="15.841513182967901">
        <ele>358.2283935546875</ele>
        <time>2011-10-16T12:57:31Z</time>
      </trkpt>
      <trkpt lat="46.887860829010606" lon="15.841538831591606">
        <ele>356.786376953125</ele>
        <time>2011-10-16T12:57:34Z</time>
      </trkpt>
      <trkpt lat="46.88787424005568" lon="15.841514691710472">
        <ele>357.747802734375</ele>
        <time>2011-10-16T12:57:45Z</time>
      </trkpt>
      <trkpt lat="46.887995442375541" lon="15.841671852394938">
        <ele>358.2283935546875</ele>
        <time>2011-10-16T12:57:54Z</time>
      </trkpt>
      <trkpt lat="46.888076160103083" lon="15.841761454939842">
        <ele>358.708984375</ele>
        <time>2011-10-16T12:57:59Z</time>
      </trkpt>
      <trkpt lat="46.888095941394567" lon="15.84189866669476">
        <ele>359.67041015625</ele>
        <time>2011-10-16T12:58:10Z</time>
      </trkpt>
      <trkpt lat="46.888126786798239" lon="15.842111064121127">
        <ele>361.5931396484375</ele>
        <time>2011-10-16T12:58:27Z</time>
      </trkpt>
      <trkpt lat="46.888218652456999" lon="15.842331340536475">
        <ele>361.5931396484375</ele>
        <time>2011-10-16T12:58:39Z</time>
      </trkpt>
      <trkpt lat="46.888207169249654" lon="15.842482382431626">
        <ele>361.1124267578125</ele>
        <time>2011-10-16T12:58:50Z</time>
      </trkpt>
      <trkpt lat="46.888244887813926" lon="15.842725625261664">
        <ele>362.07373046875</ele>
        <time>2011-10-16T12:59:00Z</time>
      </trkpt>
      <trkpt lat="46.888266680762172" lon="15.842977417632937">
        <ele>361.5931396484375</ele>
        <time>2011-10-16T12:59:13Z</time>
      </trkpt>
      <trkpt lat="46.888242457062006" lon="15.843125274404883">
        <ele>362.5543212890625</ele>
        <time>2011-10-16T12:59:24Z</time>
      </trkpt>
      <trkpt lat="46.888257041573524" lon="15.843249578028917">
        <ele>363.5157470703125</ele>
        <time>2011-10-16T12:59:28Z</time>
      </trkpt>
      <trkpt lat="46.888396767899394" lon="15.843593990430236">
        <ele>363.0350341796875</ele>
        <time>2011-10-16T12:59:40Z</time>
      </trkpt>
      <trkpt lat="46.888386039063334" lon="15.843790797516704">
        <ele>363.5157470703125</ele>
        <time>2011-10-16T12:59:50Z</time>
      </trkpt>
      <trkpt lat="46.888414788991213" lon="15.844025993719697">
        <ele>365.4383544921875</ele>
        <time>2011-10-16T13:00:04Z</time>
      </trkpt>
      <trkpt lat="46.888449238613248" lon="15.844127247110009">
        <ele>367.3609619140625</ele>
        <time>2011-10-16T13:00:16Z</time>
      </trkpt>
      <trkpt lat="46.888547893613577" lon="15.844276947900653">
        <ele>366.8802490234375</ele>
        <time>2011-10-16T13:00:30Z</time>
      </trkpt>
      <trkpt lat="46.888572452589869" lon="15.84429781883955">
        <ele>368.802978515625</ele>
        <time>2011-10-16T13:00:32Z</time>
      </trkpt>
      <trkpt lat="46.888597682118416" lon="15.844334028661251">
        <ele>366.8802490234375</ele>
        <time>2011-10-16T13:00:35Z</time>
      </trkpt>
      <trkpt lat="46.888756770640612" lon="15.844501163810492">
        <ele>371.206298828125</ele>
        <time>2011-10-16T13:00:51Z</time>
      </trkpt>
      <trkpt lat="46.888917284086347" lon="15.844623288139701">
        <ele>370.7255859375</ele>
        <time>2011-10-16T13:01:06Z</time>
      </trkpt>
      <trkpt lat="46.888982160016894" lon="15.844673831015825">
        <ele>373.6094970703125</ele>
        <time>2011-10-16T13:01:12Z</time>
      </trkpt>
      <trkpt lat="46.889062458649278" lon="15.84483384154737">
        <ele>376.4935302734375</ele>
        <time>2011-10-16T13:01:28Z</time>
      </trkpt>
      <trkpt lat="46.889090370386839" lon="15.844932831823826">
        <ele>376.4935302734375</ele>
        <time>2011-10-16T13:01:32Z</time>
      </trkpt>
      <trkpt lat="46.889132698997855" lon="15.845087477937341">
        <ele>376.0128173828125</ele>
        <time>2011-10-16T13:01:40Z</time>
      </trkpt>
      <trkpt lat="46.889118198305368" lon="15.845161490142345">
        <ele>377.9354248046875</ele>
        <time>2011-10-16T13:01:43Z</time>
      </trkpt>
      <trkpt lat="46.889105038717389" lon="15.845255283638835">
        <ele>378.4161376953125</ele>
        <time>2011-10-16T13:01:47Z</time>
      </trkpt>
      <trkpt lat="46.889075953513384" lon="15.845608497038484">
        <ele>378.8968505859375</ele>
        <time>2011-10-16T13:02:03Z</time>
      </trkpt>
      <trkpt lat="46.889081066474319" lon="15.845725173130631">
        <ele>378.4161376953125</ele>
        <time>2011-10-16T13:02:09Z</time>
      </trkpt>
      <trkpt lat="46.889036977663636" lon="15.845955088734627">
        <ele>377.9354248046875</ele>
        <time>2011-10-16T13:02:23Z</time>
      </trkpt>
      <trkpt lat="46.889031361788511" lon="15.846007559448481">
        <ele>377.454833984375</ele>
        <time>2011-10-16T13:02:26Z</time>
      </trkpt>
      <trkpt lat="46.888980567455292" lon="15.846277875825763">
        <ele>376.0128173828125</ele>
        <time>2011-10-16T13:02:42Z</time>
      </trkpt>
      <trkpt lat="46.888978471979499" lon="15.846356246620417">
        <ele>376.0128173828125</ele>
        <time>2011-10-16T13:02:46Z</time>
      </trkpt>
      <trkpt lat="46.888966485857964" lon="15.846417853608727">
        <ele>375.5321044921875</ele>
        <time>2011-10-16T13:02:50Z</time>
      </trkpt>
      <trkpt lat="46.888971095904708" lon="15.846527991816401">
        <ele>375.051513671875</ele>
        <time>2011-10-16T13:02:57Z</time>
      </trkpt>
      <trkpt lat="46.888956679031253" lon="15.846581468358636">
        <ele>374.57080078125</ele>
        <time>2011-10-16T13:03:01Z</time>
      </trkpt>
      <trkpt lat="46.888954164460301" lon="15.846692863851786">
        <ele>373.12890625</ele>
        <time>2011-10-16T13:03:13Z</time>
      </trkpt>
      <trkpt lat="46.888954248279333" lon="15.846714656800032">
        <ele>374.090087890625</ele>
        <time>2011-10-16T13:03:16Z</time>
      </trkpt>
      <trkpt lat="46.888959277421236" lon="15.846863854676485">
        <ele>374.090087890625</ele>
        <time>2011-10-16T13:03:25Z</time>
      </trkpt>
      <trkpt lat="46.888929940760136" lon="15.847132243216038">
        <ele>373.12890625</ele>
        <time>2011-10-16T13:03:38Z</time>
      </trkpt>
      <trkpt lat="46.888922061771154" lon="15.847152527421713">
        <ele>373.12890625</ele>
        <time>2011-10-16T13:03:39Z</time>
      </trkpt>
      <trkpt lat="46.888853497803211" lon="15.847462238743901">
        <ele>372.16748046875</ele>
        <time>2011-10-16T13:03:54Z</time>
      </trkpt>
      <trkpt lat="46.888703964650631" lon="15.847635744139552">
        <ele>371.206298828125</ele>
        <time>2011-10-16T13:04:07Z</time>
      </trkpt>
      <trkpt lat="46.888467259705067" lon="15.847779242321849">
        <ele>370.244873046875</ele>
        <time>2011-10-16T13:04:24Z</time>
      </trkpt>
      <trkpt lat="46.888323929160833" lon="15.847961967810988">
        <ele>367.841552734375</ele>
        <time>2011-10-16T13:04:38Z</time>
      </trkpt>
      <trkpt lat="46.888231057673693" lon="15.848240498453379">
        <ele>365.4383544921875</ele>
        <time>2011-10-16T13:04:54Z</time>
      </trkpt>
      <trkpt lat="46.888170875608921" lon="15.848395144566894">
        <ele>364.9576416015625</ele>
        <time>2011-10-16T13:05:03Z</time>
      </trkpt>
      <trkpt lat="46.888125529512763" lon="15.848470162600279">
        <ele>365.9189453125</ele>
        <time>2011-10-16T13:05:08Z</time>
      </trkpt>
      <trkpt lat="46.887909024953842" lon="15.848856149241328">
        <ele>363.0350341796875</ele>
        <time>2011-10-16T13:05:34Z</time>
      </trkpt>
      <trkpt lat="46.887775333598256" lon="15.84903652779758">
        <ele>359.67041015625</ele>
        <time>2011-10-16T13:05:48Z</time>
      </trkpt>
      <trkpt lat="46.887766616418958" lon="15.849049435928464">
        <ele>363.0350341796875</ele>
        <time>2011-10-16T13:05:49Z</time>
      </trkpt>
      <trkpt lat="46.887748343870044" lon="15.849075252190232">
        <ele>360.151123046875</ele>
        <time>2011-10-16T13:05:51Z</time>
      </trkpt>
      <trkpt lat="46.887607527896762" lon="15.849217660725117">
        <ele>357.747802734375</ele>
        <time>2011-10-16T13:06:07Z</time>
      </trkpt>
      <trkpt lat="46.887424718588591" lon="15.849406337365508">
        <ele>354.3831787109375</ele>
        <time>2011-10-16T13:06:25Z</time>
      </trkpt>
      <trkpt lat="46.887261522933841" lon="15.849574059247971">
        <ele>351.0184326171875</ele>
        <time>2011-10-16T13:06:42Z</time>
      </trkpt>
      <trkpt lat="46.887216428294778" lon="15.849625691771507">
        <ele>350.0572509765625</ele>
        <time>2011-10-16T13:06:47Z</time>
      </trkpt>
      <trkpt lat="46.887121880427003" lon="15.849780673161149">
        <ele>346.2120361328125</ele>
        <time>2011-10-16T13:07:02Z</time>
      </trkpt>
      <trkpt lat="46.887119365856051" lon="15.849800873547792">
        <ele>347.1732177734375</ele>
        <time>2011-10-16T13:07:04Z</time>
      </trkpt>
      <trkpt lat="46.887106038630009" lon="15.849876059219241">
        <ele>345.2506103515625</ele>
        <time>2011-10-16T13:07:10Z</time>
      </trkpt>
      <trkpt lat="46.887116683647037" lon="15.849891398102045">
        <ele>344.77001953125</ele>
        <time>2011-10-16T13:07:12Z</time>
      </trkpt>
      <trkpt lat="46.887157838791609" lon="15.84994344972074">
        <ele>343.80859375</ele>
        <time>2011-10-16T13:07:17Z</time>
      </trkpt>
      <trkpt lat="46.88722237944603" lon="15.850072531029582">
        <ele>340.9246826171875</ele>
        <time>2011-10-16T13:07:27Z</time>
      </trkpt>
      <trkpt lat="46.887270826846361" lon="15.850282246246934">
        <ele>339.0020751953125</ele>
        <time>2011-10-16T13:07:38Z</time>
      </trkpt>
      <trkpt lat="46.887305527925491" lon="15.850453823804855">
        <ele>337.56005859375</ele>
        <time>2011-10-16T13:07:48Z</time>
      </trkpt>
      <trkpt lat="46.88731474801898" lon="15.850458685308695">
        <ele>336.598876953125</ele>
        <time>2011-10-16T13:07:49Z</time>
      </trkpt>
      <trkpt lat="46.887446762993932" lon="15.850470922887325">
        <ele>336.1181640625</ele>
        <time>2011-10-16T13:07:57Z</time>
      </trkpt>
      <trkpt lat="46.88769243657589" lon="15.850452650338411">
        <ele>335.15673828125</ele>
        <time>2011-10-16T13:08:14Z</time>
      </trkpt>
      <trkpt lat="46.887972056865692" lon="15.850452482700348">
        <ele>333.234130859375</ele>
        <time>2011-10-16T13:08:34Z</time>
      </trkpt>
      <trkpt lat="46.888172719627619" lon="15.85044234059751">
        <ele>332.2728271484375</ele>
        <time>2011-10-16T13:08:49Z</time>
      </trkpt>
      <trkpt lat="46.888344632461667" lon="15.850449549034238">
        <ele>330.8309326171875</ele>
        <time>2011-10-16T13:09:03Z</time>
      </trkpt>
      <trkpt lat="46.888334574177861" lon="15.850447872653604">
        <ele>330.3502197265625</ele>
        <time>2011-10-16T13:09:09Z</time>
      </trkpt>
      <trkpt lat="46.888276068493724" lon="15.850483495742083">
        <ele>332.2728271484375</ele>
        <time>2011-10-16T13:09:15Z</time>
      </trkpt>
      <trkpt lat="46.888268776237965" lon="15.8505136705935">
        <ele>331.7921142578125</ele>
        <time>2011-10-16T13:09:23Z</time>
      </trkpt>
      <trkpt lat="46.88826123252511" lon="15.850508641451597">
        <ele>330.8309326171875</ele>
        <time>2011-10-16T13:09:24Z</time>
      </trkpt>
      <trkpt lat="46.888228543102741" lon="15.850498080253601">
        <ele>331.7921142578125</ele>
        <time>2011-10-16T13:09:27Z</time>
      </trkpt>
      <trkpt lat="46.88819183036685" lon="15.850490033626556">
        <ele>332.2728271484375</ele>
        <time>2011-10-16T13:09:32Z</time>
      </trkpt>
      <trkpt lat="46.88825729303062" lon="15.850461535155773">
        <ele>331.3115234375</ele>
        <time>2011-10-16T13:09:38Z</time>
      </trkpt>
      <trkpt lat="46.888317056000233" lon="15.850647194311023">
        <ele>329.388916015625</ele>
        <time>2011-10-16T13:09:52Z</time>
      </trkpt>
      <trkpt lat="46.888344129547477" lon="15.850760769098997">
        <ele>327.94677734375</ele>
        <time>2011-10-16T13:10:07Z</time>
      </trkpt>
      <trkpt lat="46.88836139626801" lon="15.850845342501998">
        <ele>326.985595703125</ele>
        <time>2011-10-16T13:10:20Z</time>
      </trkpt>
      <trkpt lat="46.888394923880696" lon="15.850942069664598">
        <ele>325.5435791015625</ele>
        <time>2011-10-16T13:10:37Z</time>
      </trkpt>
      <trkpt lat="46.888394420966506" lon="15.850924551486969">
        <ele>323.6209716796875</ele>
        <time>2011-10-16T13:10:53Z</time>
      </trkpt>
      <trkpt lat="46.888370448723435" lon="15.850874427706003">
        <ele>326.5048828125</ele>
        <time>2011-10-16T13:10:57Z</time>
      </trkpt>
      <trkpt lat="46.888316050171852" lon="15.850681643933058">
        <ele>329.8695068359375</ele>
        <time>2011-10-16T13:11:09Z</time>
      </trkpt>
      <trkpt lat="46.888257879763842" lon="15.850536972284317">
        <ele>331.3115234375</ele>
        <time>2011-10-16T13:11:18Z</time>
      </trkpt>
      <trkpt lat="46.88830423168838" lon="15.850491793826222">
        <ele>332.2728271484375</ele>
        <time>2011-10-16T13:11:22Z</time>
      </trkpt>
      <trkpt lat="46.888570943847299" lon="15.850427336990833">
        <ele>329.8695068359375</ele>
        <time>2011-10-16T13:11:35Z</time>
      </trkpt>
      <trkpt lat="46.888792729005218" lon="15.850307391956449">
        <ele>328.4276123046875</ele>
        <time>2011-10-16T13:11:49Z</time>
      </trkpt>
      <trkpt lat="46.889035888016224" lon="15.850100023671985">
        <ele>326.5048828125</ele>
        <time>2011-10-16T13:12:07Z</time>
      </trkpt>
      <trkpt lat="46.889221547171474" lon="15.849932972341776">
        <ele>324.1015625</ele>
        <time>2011-10-16T13:12:21Z</time>
      </trkpt>
      <trkpt lat="46.889407373964787" lon="15.84976801648736">
        <ele>324.1015625</ele>
        <time>2011-10-16T13:12:36Z</time>
      </trkpt>
      <trkpt lat="46.889599319547415" lon="15.849603731185198">
        <ele>323.140380859375</ele>
        <time>2011-10-16T13:12:51Z</time>
      </trkpt>
      <trkpt lat="46.889626644551754" lon="15.849583279341459">
        <ele>323.6209716796875</ele>
        <time>2011-10-16T13:12:53Z</time>
      </trkpt>
      <trkpt lat="46.889704931527376" lon="15.849516056478024">
        <ele>322.65966796875</ele>
        <time>2011-10-16T13:13:00Z</time>
      </trkpt>
      <trkpt lat="46.889816746115685" lon="15.849459478631616">
        <ele>323.140380859375</ele>
        <time>2011-10-16T13:13:08Z</time>
      </trkpt>
      <trkpt lat="46.88989469781518" lon="15.849388986825943">
        <ele>322.65966796875</ele>
        <time>2011-10-16T13:13:16Z</time>
      </trkpt>
      <trkpt lat="46.88998899422586" lon="15.84954765625298">
        <ele>318.8143310546875</ele>
        <time>2011-10-16T13:13:27Z</time>
      </trkpt>
      <trkpt lat="46.890002069994807" lon="15.849731052294374">
        <ele>315.930419921875</ele>
        <time>2011-10-16T13:13:37Z</time>
      </trkpt>
      <trkpt lat="46.889926716685295" lon="15.849893074482679">
        <ele>312.5657958984375</ele>
        <time>2011-10-16T13:13:48Z</time>
      </trkpt>
      <trkpt lat="46.8898712284863" lon="15.849959291517735">
        <ele>311.6044921875</ele>
        <time>2011-10-16T13:13:55Z</time>
      </trkpt>
      <trkpt lat="46.889830660074949" lon="15.850006146356463">
        <ele>312.085205078125</ele>
        <time>2011-10-16T13:13:59Z</time>
      </trkpt>
      <trkpt lat="46.889758240431547" lon="15.850268332287669">
        <ele>309.201171875</ele>
        <time>2011-10-16T13:14:13Z</time>
      </trkpt>
      <trkpt lat="46.889819344505668" lon="15.850444016978145">
        <ele>307.278564453125</ele>
        <time>2011-10-16T13:14:21Z</time>
      </trkpt>
      <trkpt lat="46.889913640916348" lon="15.850726822391152">
        <ele>305.35595703125</ele>
        <time>2011-10-16T13:14:34Z</time>
      </trkpt>
      <trkpt lat="46.889972649514675" lon="15.850895969197154">
        <ele>305.35595703125</ele>
        <time>2011-10-16T13:14:45Z</time>
      </trkpt>
      <trkpt lat="46.890074657276273" lon="15.851140385493636">
        <ele>305.35595703125</ele>
        <time>2011-10-16T13:14:58Z</time>
      </trkpt>
      <trkpt lat="46.890168953686953" lon="15.851370636373758">
        <ele>304.875244140625</ele>
        <time>2011-10-16T13:15:11Z</time>
      </trkpt>
      <trkpt lat="46.890325443819165" lon="15.851576747372746">
        <ele>304.875244140625</ele>
        <time>2011-10-16T13:15:25Z</time>
      </trkpt>
      <trkpt lat="46.890344554558396" lon="15.851620165631175">
        <ele>304.3946533203125</ele>
        <time>2011-10-16T13:15:27Z</time>
      </trkpt>
      <trkpt lat="46.890363330021501" lon="15.851885871961713">
        <ele>304.3946533203125</ele>
        <time>2011-10-16T13:15:39Z</time>
      </trkpt>
      <trkpt lat="46.89037062227726" lon="15.852237157523632">
        <ele>303.9139404296875</ele>
        <time>2011-10-16T13:15:54Z</time>
      </trkpt>
      <trkpt lat="46.890275739133358" lon="15.852599591016769">
        <ele>303.9139404296875</ele>
        <time>2011-10-16T13:16:04Z</time>
      </trkpt>
      <trkpt lat="46.890227040275931" lon="15.852701850235462">
        <ele>303.9139404296875</ele>
        <time>2011-10-16T13:16:07Z</time>
      </trkpt>
      <trkpt lat="46.890063174068928" lon="15.85292455740273">
        <ele>303.9139404296875</ele>
        <time>2011-10-16T13:16:19Z</time>
      </trkpt>
      <trkpt lat="46.890051020309329" lon="15.852936124429107">
        <ele>304.3946533203125</ele>
        <time>2011-10-16T13:16:20Z</time>
      </trkpt>
      <trkpt lat="46.88997189514339" lon="15.853014495223761">
        <ele>304.3946533203125</ele>
        <time>2011-10-16T13:16:26Z</time>
      </trkpt>
      <trkpt lat="46.889817668125033" lon="15.853193867951632">
        <ele>304.3946533203125</ele>
        <time>2011-10-16T13:16:38Z</time>
      </trkpt>
      <trkpt lat="46.889627734199166" lon="15.853394027799368">
        <ele>304.3946533203125</ele>
        <time>2011-10-16T13:16:53Z</time>
      </trkpt>
      <trkpt lat="46.889430172741413" lon="15.853510117158294">
        <ele>303.9139404296875</ele>
        <time>2011-10-16T13:17:06Z</time>
      </trkpt>
      <trkpt lat="46.889372337609529" lon="15.853558061644435">
        <ele>305.836669921875</ele>
        <time>2011-10-16T13:17:11Z</time>
      </trkpt>
      <trkpt lat="46.88915197737515" lon="15.853642886504531">
        <ele>304.3946533203125</ele>
        <time>2011-10-16T13:17:25Z</time>
      </trkpt>
      <trkpt lat="46.889119539409876" lon="15.853651771321893">
        <ele>304.875244140625</ele>
        <time>2011-10-16T13:17:27Z</time>
      </trkpt>
      <trkpt lat="46.889012586325407" lon="15.853759730234742">
        <ele>304.875244140625</ele>
        <time>2011-10-16T13:17:34Z</time>
      </trkpt>
      <trkpt lat="46.888726092875004" lon="15.853822929784656">
        <ele>304.875244140625</ele>
        <time>2011-10-16T13:17:51Z</time>
      </trkpt>
      <trkpt lat="46.888509336858988" lon="15.853843884542584">
        <ele>304.3946533203125</ele>
        <time>2011-10-16T13:18:05Z</time>
      </trkpt>
      <trkpt lat="46.888218820095062" lon="15.853800885379314">
        <ele>304.3946533203125</ele>
        <time>2011-10-16T13:18:22Z</time>
      </trkpt>
      <trkpt lat="46.888006087392569" lon="15.853782193735242">
        <ele>304.875244140625</ele>
        <time>2011-10-16T13:18:37Z</time>
      </trkpt>
      <trkpt lat="46.887796288356185" lon="15.853960057720542">
        <ele>304.875244140625</ele>
        <time>2011-10-16T13:18:53Z</time>
      </trkpt>
      <trkpt lat="46.887571066617966" lon="15.854040691629052">
        <ele>307.278564453125</ele>
        <time>2011-10-16T13:19:08Z</time>
      </trkpt>
      <trkpt lat="46.887347856536508" lon="15.854163654148579">
        <ele>308.2398681640625</ele>
        <time>2011-10-16T13:19:23Z</time>
      </trkpt>
      <trkpt lat="46.887318016961217" lon="15.854248898103833">
        <ele>307.75927734375</ele>
        <time>2011-10-16T13:19:28Z</time>
      </trkpt>
      <trkpt lat="46.887287590652704" lon="15.854455176740885">
        <ele>309.201171875</ele>
        <time>2011-10-16T13:19:38Z</time>
      </trkpt>
      <trkpt lat="46.887232773005962" lon="15.854615271091461">
        <ele>309.681884765625</ele>
        <time>2011-10-16T13:19:50Z</time>
      </trkpt>
      <trkpt lat="46.887153228744864" lon="15.854701856151223">
        <ele>308.720458984375</ele>
        <time>2011-10-16T13:20:03Z</time>
      </trkpt>
      <trkpt lat="46.88710612244904" lon="15.854759272187948">
        <ele>308.720458984375</ele>
        <time>2011-10-16T13:20:25Z</time>
      </trkpt>
      <trkpt lat="46.887061363086104" lon="15.854739658534527">
        <ele>308.720458984375</ele>
        <time>2011-10-16T13:20:41Z</time>
      </trkpt>
      <trkpt lat="46.887040492147207" lon="15.854827668517828">
        <ele>308.720458984375</ele>
        <time>2011-10-16T13:21:03Z</time>
      </trkpt>
      <trkpt lat="46.887034960091114" lon="15.854894388467073">
        <ele>308.2398681640625</ele>
        <time>2011-10-16T13:21:31Z</time>
      </trkpt>
      <trkpt lat="46.887047197669744" lon="15.854811072349548">
        <ele>308.2398681640625</ele>
        <time>2011-10-16T13:21:58Z</time>
      </trkpt>
      <trkpt lat="46.887055579572916" lon="15.854769246652722">
        <ele>308.2398681640625</ele>
        <time>2011-10-16T13:22:25Z</time>
      </trkpt>
      <trkpt lat="46.887039234861732" lon="15.854817861691117">
        <ele>307.75927734375</ele>
        <time>2011-10-16T13:22:53Z</time>
      </trkpt>
      <trkpt lat="46.887020794674754" lon="15.854727169498801">
        <ele>310.1624755859375</ele>
        <time>2011-10-16T13:23:08Z</time>
      </trkpt>
      <trkpt lat="46.886789873242378" lon="15.854762876406312">
        <ele>309.681884765625</ele>
        <time>2011-10-16T13:23:18Z</time>
      </trkpt>
      <trkpt lat="46.886751148849726" lon="15.854778969660401">
        <ele>310.1624755859375</ele>
        <time>2011-10-16T13:23:19Z</time>
      </trkpt>
      <trkpt lat="46.885848669335246" lon="15.854931268841028">
        <ele>308.720458984375</ele>
        <time>2011-10-16T13:23:34Z</time>
      </trkpt>
      <trkpt lat="46.884923558682203" lon="15.854651648551226">
        <ele>307.278564453125</ele>
        <time>2011-10-16T13:23:46Z</time>
      </trkpt>
      <trkpt lat="46.884691547602415" lon="15.85446665994823">
        <ele>307.75927734375</ele>
        <time>2011-10-16T13:23:49Z</time>
      </trkpt>
      <trkpt lat="46.883618244901299" lon="15.853785295039415">
        <ele>304.875244140625</ele>
        <time>2011-10-16T13:24:01Z</time>
      </trkpt>
      <trkpt lat="46.882253084331751" lon="15.853166040033102">
        <ele>303.9139404296875</ele>
        <time>2011-10-16T13:24:14Z</time>
      </trkpt>
      <trkpt lat="46.881214147433639" lon="15.852499343454838">
        <ele>304.875244140625</ele>
        <time>2011-10-16T13:24:25Z</time>
      </trkpt>
      <trkpt lat="46.880877362564206" lon="15.851927530020475">
        <ele>305.836669921875</ele>
        <time>2011-10-16T13:24:30Z</time>
      </trkpt>
      <trkpt lat="46.880466565489769" lon="15.850919270887971">
        <ele>309.201171875</ele>
        <time>2011-10-16T13:24:38Z</time>
      </trkpt>
      <trkpt lat="46.880401354283094" lon="15.850658426061273">
        <ele>309.681884765625</ele>
        <time>2011-10-16T13:24:40Z</time>
      </trkpt>
      <trkpt lat="46.880191722884774" lon="15.849511446431279">
        <ele>313.0465087890625</ele>
        <time>2011-10-16T13:24:48Z</time>
      </trkpt>
      <trkpt lat="46.879799365997314" lon="15.84838324226439">
        <ele>316.8917236328125</ele>
        <time>2011-10-16T13:24:55Z</time>
      </trkpt>
      <trkpt lat="46.879784697666764" lon="15.848298333585262">
        <ele>316.8917236328125</ele>
        <time>2011-10-16T13:24:56Z</time>
      </trkpt>
      <trkpt lat="46.879527540877461" lon="15.847531724721193">
        <ele>320.25634765625</ele>
        <time>2011-10-16T13:25:03Z</time>
      </trkpt>
      <trkpt lat="46.879231659695506" lon="15.846659587696195">
        <ele>323.6209716796875</ele>
        <time>2011-10-16T13:25:09Z</time>
      </trkpt>
      <trkpt lat="46.87991252169013" lon="15.84511136636138">
        <ele>326.985595703125</ele>
        <time>2011-10-16T13:25:17Z</time>
      </trkpt>
      <trkpt lat="46.879921238869429" lon="15.844961833208799">
        <ele>326.985595703125</ele>
        <time>2011-10-16T13:25:18Z</time>
      </trkpt>
      <trkpt lat="46.879964238032699" lon="15.844287341460586">
        <ele>329.8695068359375</ele>
        <time>2011-10-16T13:25:23Z</time>
      </trkpt>
      <trkpt lat="46.879831049591303" lon="15.843697171658278">
        <ele>331.3115234375</ele>
        <time>2011-10-16T13:25:30Z</time>
      </trkpt>
      <trkpt lat="46.879766676574945" lon="15.843573790043592">
        <ele>332.7535400390625</ele>
        <time>2011-10-16T13:25:31Z</time>
      </trkpt>
      <trkpt lat="46.879672463983297" lon="15.843346891924739">
        <ele>332.7535400390625</ele>
        <time>2011-10-16T13:25:33Z</time>
      </trkpt>
      <trkpt lat="46.87958319671452" lon="15.842991583049297">
        <ele>334.1954345703125</ele>
        <time>2011-10-16T13:25:36Z</time>
      </trkpt>
    </trkseg>
  </trk>

</gpx>